<?xml version="1.0" encoding="UTF-8" standalone="no" ?>
<gpx xmlns="http://www.topografix.com/GPX/1/1" xmlns:xsi="http://www.w3.org/2001/XMLSchema-instance" xsi:schemaLocation="http://www.topografix.com/GPX/1/1 http://www.topografix.com/GPX/1/1/gpx.xsd" version="1.1" creator="VisuGPX - https://www.visugpx.com">
  <metadata>
    <name>Berne aux Templiers</name>
    <desc><![CDATA[rando de 19 km dimanche 9 décembre]]></desc>
  </metadata>
  <trk>
    <name><![CDATA[ACTIVE LOG 002-1]]></name>
    <trkseg>
      <trkpt lat="43.51303" lon="6.36251">
        <ele>231.814941</ele>
        <time>2012-12-09T08:42:04Z</time>
      </trkpt>
      <trkpt lat="43.51303" lon="6.36254">
        <ele>235.660278</ele>
        <time>2012-12-09T08:42:20Z</time>
      </trkpt>
      <trkpt lat="43.51305" lon="6.36255">
        <ele>238.544312</ele>
        <time>2012-12-09T08:42:23Z</time>
      </trkpt>
      <trkpt lat="43.51304" lon="6.36252">
        <ele>241.908936</ele>
        <time>2012-12-09T08:42:27Z</time>
      </trkpt>
      <trkpt lat="43.51307" lon="6.36252">
        <ele>245.75415</ele>
        <time>2012-12-09T08:42:32Z</time>
      </trkpt>
      <trkpt lat="43.51311" lon="6.36253">
        <ele>249.118774</ele>
        <time>2012-12-09T08:42:38Z</time>
      </trkpt>
      <trkpt lat="43.51311" lon="6.36254">
        <ele>252.002808</ele>
        <time>2012-12-09T08:42:45Z</time>
      </trkpt>
      <trkpt lat="43.51313" lon="6.36255">
        <ele>255.36731</ele>
        <time>2012-12-09T08:42:54Z</time>
      </trkpt>
      <trkpt lat="43.51313" lon="6.36255">
        <ele>258.731934</ele>
        <time>2012-12-09T08:43:07Z</time>
      </trkpt>
      <trkpt lat="43.51313" lon="6.36256">
        <ele>261.615967</ele>
        <time>2012-12-09T08:43:30Z</time>
      </trkpt>
      <trkpt lat="43.51327" lon="6.36268">
        <ele>264.019287</ele>
        <time>2012-12-09T08:44:52Z</time>
      </trkpt>
      <trkpt lat="43.51316" lon="6.36257">
        <ele>256.328735</ele>
        <time>2012-12-09T08:46:34Z</time>
      </trkpt>
      <trkpt lat="43.51316" lon="6.36257">
        <ele>263.538574</ele>
        <time>2012-12-09T08:46:35Z</time>
      </trkpt>
      <trkpt lat="43.51316" lon="6.36259">
        <ele>268.345093</ele>
        <time>2012-12-09T08:47:10Z</time>
      </trkpt>
      <trkpt lat="43.51314" lon="6.3626">
        <ele>264.980591</ele>
        <time>2012-12-09T08:47:11Z</time>
      </trkpt>
      <trkpt lat="43.51312" lon="6.36259">
        <ele>263.538574</ele>
        <time>2012-12-09T08:47:13Z</time>
      </trkpt>
      <trkpt lat="43.51309" lon="6.36267">
        <ele>263.538574</ele>
        <time>2012-12-09T08:47:40Z</time>
      </trkpt>
      <trkpt lat="43.51316" lon="6.36269">
        <ele>264.019287</ele>
        <time>2012-12-09T08:48:09Z</time>
      </trkpt>
      <trkpt lat="43.51318" lon="6.36258">
        <ele>262.577148</ele>
        <time>2012-12-09T08:48:45Z</time>
      </trkpt>
      <trkpt lat="43.51318" lon="6.36255">
        <ele>263.057861</ele>
        <time>2012-12-09T08:48:48Z</time>
      </trkpt>
      <trkpt lat="43.51312" lon="6.36234">
        <ele>261.135254</ele>
        <time>2012-12-09T08:49:03Z</time>
      </trkpt>
      <trkpt lat="43.51307" lon="6.36214">
        <ele>261.615967</ele>
        <time>2012-12-09T08:49:19Z</time>
      </trkpt>
      <trkpt lat="43.51302" lon="6.36201">
        <ele>265.941895</ele>
        <time>2012-12-09T08:49:29Z</time>
      </trkpt>
      <trkpt lat="43.51302" lon="6.36199">
        <ele>262.577148</ele>
        <time>2012-12-09T08:49:31Z</time>
      </trkpt>
      <trkpt lat="43.51299" lon="6.36189">
        <ele>266.422485</ele>
        <time>2012-12-09T08:49:40Z</time>
      </trkpt>
      <trkpt lat="43.513" lon="6.36187">
        <ele>262.096558</ele>
        <time>2012-12-09T08:49:42Z</time>
      </trkpt>
      <trkpt lat="43.51301" lon="6.36174">
        <ele>264.019287</ele>
        <time>2012-12-09T08:49:52Z</time>
      </trkpt>
      <trkpt lat="43.513" lon="6.36166">
        <ele>263.057861</ele>
        <time>2012-12-09T08:49:56Z</time>
      </trkpt>
      <trkpt lat="43.51295" lon="6.36155">
        <ele>263.057861</ele>
        <time>2012-12-09T08:50:03Z</time>
      </trkpt>
      <trkpt lat="43.51296" lon="6.36134">
        <ele>264.019287</ele>
        <time>2012-12-09T08:50:18Z</time>
      </trkpt>
      <trkpt lat="43.51292" lon="6.36118">
        <ele>264.019287</ele>
        <time>2012-12-09T08:50:27Z</time>
      </trkpt>
      <trkpt lat="43.51291" lon="6.36101">
        <ele>265.461304</ele>
        <time>2012-12-09T08:50:37Z</time>
      </trkpt>
      <trkpt lat="43.51291" lon="6.36095">
        <ele>263.538574</ele>
        <time>2012-12-09T08:50:41Z</time>
      </trkpt>
      <trkpt lat="43.51291" lon="6.36092">
        <ele>267.383911</ele>
        <time>2012-12-09T08:50:44Z</time>
      </trkpt>
      <trkpt lat="43.5129" lon="6.3609">
        <ele>266.903198</ele>
        <time>2012-12-09T08:50:45Z</time>
      </trkpt>
      <trkpt lat="43.51293" lon="6.3606">
        <ele>265.461304</ele>
        <time>2012-12-09T08:51:08Z</time>
      </trkpt>
      <trkpt lat="43.51293" lon="6.36057">
        <ele>264.980591</ele>
        <time>2012-12-09T08:51:09Z</time>
      </trkpt>
      <trkpt lat="43.51292" lon="6.36051">
        <ele>266.903198</ele>
        <time>2012-12-09T08:51:13Z</time>
      </trkpt>
      <trkpt lat="43.5129" lon="6.36045">
        <ele>264.499878</ele>
        <time>2012-12-09T08:51:17Z</time>
      </trkpt>
      <trkpt lat="43.5129" lon="6.36037">
        <ele>267.864502</ele>
        <time>2012-12-09T08:51:21Z</time>
      </trkpt>
      <trkpt lat="43.51281" lon="6.36005">
        <ele>266.422485</ele>
        <time>2012-12-09T08:51:41Z</time>
      </trkpt>
      <trkpt lat="43.5128" lon="6.36001">
        <ele>268.825806</ele>
        <time>2012-12-09T08:51:44Z</time>
      </trkpt>
      <trkpt lat="43.51279" lon="6.35995">
        <ele>269.787109</ele>
        <time>2012-12-09T08:51:53Z</time>
      </trkpt>
      <trkpt lat="43.51279" lon="6.35992">
        <ele>268.345093</ele>
        <time>2012-12-09T08:51:55Z</time>
      </trkpt>
      <trkpt lat="43.51275" lon="6.35974">
        <ele>271.709717</ele>
        <time>2012-12-09T08:52:11Z</time>
      </trkpt>
      <trkpt lat="43.51277" lon="6.3595">
        <ele>275.074463</ele>
        <time>2012-12-09T08:52:32Z</time>
      </trkpt>
      <trkpt lat="43.51275" lon="6.35929">
        <ele>276.035645</ele>
        <time>2012-12-09T08:52:45Z</time>
      </trkpt>
      <trkpt lat="43.51285" lon="6.35905">
        <ele>277.958252</ele>
        <time>2012-12-09T08:53:05Z</time>
      </trkpt>
      <trkpt lat="43.51288" lon="6.35874">
        <ele>276.035645</ele>
        <time>2012-12-09T08:53:24Z</time>
      </trkpt>
      <trkpt lat="43.51286" lon="6.35862">
        <ele>274.113037</ele>
        <time>2012-12-09T08:53:32Z</time>
      </trkpt>
      <trkpt lat="43.51287" lon="6.35857">
        <ele>275.555054</ele>
        <time>2012-12-09T08:53:36Z</time>
      </trkpt>
      <trkpt lat="43.51287" lon="6.35854">
        <ele>275.074463</ele>
        <time>2012-12-09T08:53:38Z</time>
      </trkpt>
      <trkpt lat="43.51288" lon="6.35838">
        <ele>275.074463</ele>
        <time>2012-12-09T08:53:53Z</time>
      </trkpt>
      <trkpt lat="43.51288" lon="6.35835">
        <ele>273.151855</ele>
        <time>2012-12-09T08:53:55Z</time>
      </trkpt>
      <trkpt lat="43.51285" lon="6.35822">
        <ele>273.151855</ele>
        <time>2012-12-09T08:54:02Z</time>
      </trkpt>
      <trkpt lat="43.51284" lon="6.35807">
        <ele>275.555054</ele>
        <time>2012-12-09T08:54:12Z</time>
      </trkpt>
      <trkpt lat="43.51282" lon="6.35804">
        <ele>275.074463</ele>
        <time>2012-12-09T08:54:14Z</time>
      </trkpt>
      <trkpt lat="43.51281" lon="6.35794">
        <ele>274.59375</ele>
        <time>2012-12-09T08:54:21Z</time>
      </trkpt>
      <trkpt lat="43.51286" lon="6.35781">
        <ele>274.113037</ele>
        <time>2012-12-09T08:54:32Z</time>
      </trkpt>
      <trkpt lat="43.51285" lon="6.35769">
        <ele>275.074463</ele>
        <time>2012-12-09T08:54:40Z</time>
      </trkpt>
      <trkpt lat="43.51284" lon="6.35759">
        <ele>275.074463</ele>
        <time>2012-12-09T08:54:48Z</time>
      </trkpt>
      <trkpt lat="43.51282" lon="6.35738">
        <ele>274.113037</ele>
        <time>2012-12-09T08:55:01Z</time>
      </trkpt>
      <trkpt lat="43.51283" lon="6.3572">
        <ele>274.59375</ele>
        <time>2012-12-09T08:55:20Z</time>
      </trkpt>
      <trkpt lat="43.51284" lon="6.35718">
        <ele>275.555054</ele>
        <time>2012-12-09T08:56:01Z</time>
      </trkpt>
      <trkpt lat="43.51285" lon="6.35716">
        <ele>274.113037</ele>
        <time>2012-12-09T08:56:08Z</time>
      </trkpt>
      <trkpt lat="43.51287" lon="6.35701">
        <ele>274.113037</ele>
        <time>2012-12-09T08:56:17Z</time>
      </trkpt>
      <trkpt lat="43.51282" lon="6.35678">
        <ele>273.151855</ele>
        <time>2012-12-09T08:56:29Z</time>
      </trkpt>
      <trkpt lat="43.51284" lon="6.35674">
        <ele>274.113037</ele>
        <time>2012-12-09T08:56:32Z</time>
      </trkpt>
      <trkpt lat="43.51286" lon="6.35671">
        <ele>275.074463</ele>
        <time>2012-12-09T08:56:34Z</time>
      </trkpt>
      <trkpt lat="43.51285" lon="6.35666">
        <ele>275.074463</ele>
        <time>2012-12-09T08:56:38Z</time>
      </trkpt>
      <trkpt lat="43.51285" lon="6.35659">
        <ele>276.035645</ele>
        <time>2012-12-09T08:56:43Z</time>
      </trkpt>
      <trkpt lat="43.51287" lon="6.35655">
        <ele>275.074463</ele>
        <time>2012-12-09T08:56:46Z</time>
      </trkpt>
      <trkpt lat="43.51286" lon="6.35652">
        <ele>276.035645</ele>
        <time>2012-12-09T08:56:48Z</time>
      </trkpt>
      <trkpt lat="43.51287" lon="6.35646">
        <ele>275.074463</ele>
        <time>2012-12-09T08:56:52Z</time>
      </trkpt>
      <trkpt lat="43.51285" lon="6.3563">
        <ele>275.555054</ele>
        <time>2012-12-09T08:57:02Z</time>
      </trkpt>
      <trkpt lat="43.51286" lon="6.35628">
        <ele>274.113037</ele>
        <time>2012-12-09T08:57:05Z</time>
      </trkpt>
      <trkpt lat="43.51288" lon="6.35627">
        <ele>276.516357</ele>
        <time>2012-12-09T08:57:07Z</time>
      </trkpt>
      <trkpt lat="43.51287" lon="6.35621">
        <ele>276.035645</ele>
        <time>2012-12-09T08:57:10Z</time>
      </trkpt>
      <trkpt lat="43.5129" lon="6.35609">
        <ele>276.035645</ele>
        <time>2012-12-09T08:57:24Z</time>
      </trkpt>
      <trkpt lat="43.51281" lon="6.35588">
        <ele>277.477661</ele>
        <time>2012-12-09T08:57:37Z</time>
      </trkpt>
      <trkpt lat="43.51278" lon="6.35583">
        <ele>276.035645</ele>
        <time>2012-12-09T08:57:41Z</time>
      </trkpt>
      <trkpt lat="43.51278" lon="6.35583">
        <ele>275.074463</ele>
        <time>2012-12-09T08:57:42Z</time>
      </trkpt>
      <trkpt lat="43.51275" lon="6.35578">
        <ele>276.516357</ele>
        <time>2012-12-09T08:57:45Z</time>
      </trkpt>
      <trkpt lat="43.51265" lon="6.3556">
        <ele>278.438965</ele>
        <time>2012-12-09T08:57:56Z</time>
      </trkpt>
      <trkpt lat="43.51261" lon="6.35546">
        <ele>276.035645</ele>
        <time>2012-12-09T08:58:02Z</time>
      </trkpt>
      <trkpt lat="43.51249" lon="6.35532">
        <ele>277.477661</ele>
        <time>2012-12-09T08:58:14Z</time>
      </trkpt>
      <trkpt lat="43.51252" lon="6.35529">
        <ele>277.477661</ele>
        <time>2012-12-09T08:58:16Z</time>
      </trkpt>
      <trkpt lat="43.51255" lon="6.35507">
        <ele>278.919678</ele>
        <time>2012-12-09T08:58:30Z</time>
      </trkpt>
      <trkpt lat="43.51254" lon="6.35495">
        <ele>276.99707</ele>
        <time>2012-12-09T08:58:41Z</time>
      </trkpt>
      <trkpt lat="43.51254" lon="6.35489">
        <ele>278.438965</ele>
        <time>2012-12-09T08:58:46Z</time>
      </trkpt>
      <trkpt lat="43.51265" lon="6.35468">
        <ele>279.880859</ele>
        <time>2012-12-09T08:59:01Z</time>
      </trkpt>
      <trkpt lat="43.51264" lon="6.35463">
        <ele>277.958252</ele>
        <time>2012-12-09T08:59:05Z</time>
      </trkpt>
      <trkpt lat="43.5127" lon="6.35435">
        <ele>279.880859</ele>
        <time>2012-12-09T08:59:26Z</time>
      </trkpt>
      <trkpt lat="43.51268" lon="6.35392">
        <ele>279.880859</ele>
        <time>2012-12-09T08:59:50Z</time>
      </trkpt>
      <trkpt lat="43.5127" lon="6.35388">
        <ele>278.919678</ele>
        <time>2012-12-09T08:59:54Z</time>
      </trkpt>
      <trkpt lat="43.51268" lon="6.35378">
        <ele>278.919678</ele>
        <time>2012-12-09T09:00:01Z</time>
      </trkpt>
      <trkpt lat="43.51271" lon="6.35364">
        <ele>280.361694</ele>
        <time>2012-12-09T09:00:09Z</time>
      </trkpt>
      <trkpt lat="43.51276" lon="6.35348">
        <ele>281.803589</ele>
        <time>2012-12-09T09:00:19Z</time>
      </trkpt>
      <trkpt lat="43.51278" lon="6.35334">
        <ele>282.765015</ele>
        <time>2012-12-09T09:00:29Z</time>
      </trkpt>
      <trkpt lat="43.51278" lon="6.35319">
        <ele>280.842407</ele>
        <time>2012-12-09T09:00:35Z</time>
      </trkpt>
      <trkpt lat="43.51279" lon="6.35305">
        <ele>281.803589</ele>
        <time>2012-12-09T09:00:43Z</time>
      </trkpt>
      <trkpt lat="43.51286" lon="6.35295">
        <ele>280.842407</ele>
        <time>2012-12-09T09:00:54Z</time>
      </trkpt>
      <trkpt lat="43.51294" lon="6.35297">
        <ele>281.803589</ele>
        <time>2012-12-09T09:00:56Z</time>
      </trkpt>
      <trkpt lat="43.51294" lon="6.35276">
        <ele>282.765015</ele>
        <time>2012-12-09T09:01:08Z</time>
      </trkpt>
      <trkpt lat="43.51295" lon="6.35258">
        <ele>283.245605</ele>
        <time>2012-12-09T09:01:19Z</time>
      </trkpt>
      <trkpt lat="43.51296" lon="6.35256">
        <ele>280.842407</ele>
        <time>2012-12-09T09:01:21Z</time>
      </trkpt>
      <trkpt lat="43.51297" lon="6.35251">
        <ele>282.284302</ele>
        <time>2012-12-09T09:01:24Z</time>
      </trkpt>
      <trkpt lat="43.51305" lon="6.35228">
        <ele>282.765015</ele>
        <time>2012-12-09T09:01:39Z</time>
      </trkpt>
      <trkpt lat="43.51309" lon="6.35217">
        <ele>281.322998</ele>
        <time>2012-12-09T09:01:50Z</time>
      </trkpt>
      <trkpt lat="43.51313" lon="6.35208">
        <ele>282.765015</ele>
        <time>2012-12-09T09:01:55Z</time>
      </trkpt>
      <trkpt lat="43.51314" lon="6.35195">
        <ele>283.726196</ele>
        <time>2012-12-09T09:02:03Z</time>
      </trkpt>
      <trkpt lat="43.5132" lon="6.35185">
        <ele>283.726196</ele>
        <time>2012-12-09T09:02:15Z</time>
      </trkpt>
      <trkpt lat="43.51326" lon="6.3518">
        <ele>285.648804</ele>
        <time>2012-12-09T09:02:22Z</time>
      </trkpt>
      <trkpt lat="43.51339" lon="6.35155">
        <ele>285.648804</ele>
        <time>2012-12-09T09:02:45Z</time>
      </trkpt>
      <trkpt lat="43.51346" lon="6.35123">
        <ele>285.648804</ele>
        <time>2012-12-09T09:03:08Z</time>
      </trkpt>
      <trkpt lat="43.51353" lon="6.35086">
        <ele>285.648804</ele>
        <time>2012-12-09T09:03:30Z</time>
      </trkpt>
      <trkpt lat="43.51356" lon="6.3506">
        <ele>286.610229</ele>
        <time>2012-12-09T09:03:50Z</time>
      </trkpt>
      <trkpt lat="43.5136" lon="6.35055">
        <ele>287.571411</ele>
        <time>2012-12-09T09:03:57Z</time>
      </trkpt>
      <trkpt lat="43.51365" lon="6.35029">
        <ele>288.052246</ele>
        <time>2012-12-09T09:04:17Z</time>
      </trkpt>
      <trkpt lat="43.51367" lon="6.3502">
        <ele>288.052246</ele>
        <time>2012-12-09T09:04:24Z</time>
      </trkpt>
      <trkpt lat="43.51368" lon="6.34995">
        <ele>287.09082</ele>
        <time>2012-12-09T09:04:39Z</time>
      </trkpt>
      <trkpt lat="43.51365" lon="6.34962">
        <ele>287.571411</ele>
        <time>2012-12-09T09:05:00Z</time>
      </trkpt>
      <trkpt lat="43.51363" lon="6.34949">
        <ele>289.494141</ele>
        <time>2012-12-09T09:05:10Z</time>
      </trkpt>
      <trkpt lat="43.51361" lon="6.34931">
        <ele>289.01355</ele>
        <time>2012-12-09T09:05:19Z</time>
      </trkpt>
      <trkpt lat="43.5136" lon="6.34924">
        <ele>289.494141</ele>
        <time>2012-12-09T09:05:24Z</time>
      </trkpt>
      <trkpt lat="43.5136" lon="6.34913">
        <ele>289.494141</ele>
        <time>2012-12-09T09:05:34Z</time>
      </trkpt>
      <trkpt lat="43.51361" lon="6.34913">
        <ele>289.974854</ele>
        <time>2012-12-09T09:05:35Z</time>
      </trkpt>
      <trkpt lat="43.51362" lon="6.34906">
        <ele>289.974854</ele>
        <time>2012-12-09T09:05:40Z</time>
      </trkpt>
      <trkpt lat="43.51363" lon="6.349">
        <ele>290.455566</ele>
        <time>2012-12-09T09:05:43Z</time>
      </trkpt>
      <trkpt lat="43.51363" lon="6.34892">
        <ele>288.052246</ele>
        <time>2012-12-09T09:05:50Z</time>
      </trkpt>
      <trkpt lat="43.51363" lon="6.34891">
        <ele>288.532959</ele>
        <time>2012-12-09T09:05:51Z</time>
      </trkpt>
      <trkpt lat="43.51352" lon="6.34874">
        <ele>290.455566</ele>
        <time>2012-12-09T09:06:04Z</time>
      </trkpt>
      <trkpt lat="43.51338" lon="6.34863">
        <ele>290.455566</ele>
        <time>2012-12-09T09:06:16Z</time>
      </trkpt>
      <trkpt lat="43.51333" lon="6.34853">
        <ele>290.936157</ele>
        <time>2012-12-09T09:06:20Z</time>
      </trkpt>
      <trkpt lat="43.51321" lon="6.34838">
        <ele>291.416748</ele>
        <time>2012-12-09T09:06:32Z</time>
      </trkpt>
      <trkpt lat="43.51319" lon="6.34831">
        <ele>290.455566</ele>
        <time>2012-12-09T09:06:37Z</time>
      </trkpt>
      <trkpt lat="43.51318" lon="6.34819">
        <ele>289.01355</ele>
        <time>2012-12-09T09:06:45Z</time>
      </trkpt>
      <trkpt lat="43.51319" lon="6.34813">
        <ele>291.416748</ele>
        <time>2012-12-09T09:06:49Z</time>
      </trkpt>
      <trkpt lat="43.51319" lon="6.34812">
        <ele>291.416748</ele>
        <time>2012-12-09T09:06:52Z</time>
      </trkpt>
      <trkpt lat="43.51318" lon="6.3481">
        <ele>289.974854</ele>
        <time>2012-12-09T09:06:54Z</time>
      </trkpt>
      <trkpt lat="43.5132" lon="6.34807">
        <ele>291.897461</ele>
        <time>2012-12-09T09:06:58Z</time>
      </trkpt>
      <trkpt lat="43.51313" lon="6.34789">
        <ele>290.455566</ele>
        <time>2012-12-09T09:07:10Z</time>
      </trkpt>
      <trkpt lat="43.51306" lon="6.34778">
        <ele>291.416748</ele>
        <time>2012-12-09T09:07:23Z</time>
      </trkpt>
      <trkpt lat="43.51295" lon="6.34767">
        <ele>291.897461</ele>
        <time>2012-12-09T09:07:31Z</time>
      </trkpt>
      <trkpt lat="43.51283" lon="6.34743">
        <ele>291.897461</ele>
        <time>2012-12-09T09:07:46Z</time>
      </trkpt>
      <trkpt lat="43.5128" lon="6.34743">
        <ele>291.416748</ele>
        <time>2012-12-09T09:07:47Z</time>
      </trkpt>
      <trkpt lat="43.51273" lon="6.34739">
        <ele>291.897461</ele>
        <time>2012-12-09T09:07:51Z</time>
      </trkpt>
      <trkpt lat="43.51268" lon="6.34748">
        <ele>290.455566</ele>
        <time>2012-12-09T09:08:01Z</time>
      </trkpt>
      <trkpt lat="43.51266" lon="6.34753">
        <ele>291.416748</ele>
        <time>2012-12-09T09:08:20Z</time>
      </trkpt>
      <trkpt lat="43.5128" lon="6.34749">
        <ele>291.897461</ele>
        <time>2012-12-09T09:09:01Z</time>
      </trkpt>
      <trkpt lat="43.51279" lon="6.34748">
        <ele>291.897461</ele>
        <time>2012-12-09T09:09:02Z</time>
      </trkpt>
      <trkpt lat="43.5128" lon="6.34745">
        <ele>292.858765</ele>
        <time>2012-12-09T09:09:05Z</time>
      </trkpt>
      <trkpt lat="43.51284" lon="6.34741">
        <ele>292.378174</ele>
        <time>2012-12-09T09:09:09Z</time>
      </trkpt>
      <trkpt lat="43.5129" lon="6.34736">
        <ele>294.300781</ele>
        <time>2012-12-09T09:09:16Z</time>
      </trkpt>
      <trkpt lat="43.51295" lon="6.3473">
        <ele>295.742676</ele>
        <time>2012-12-09T09:09:24Z</time>
      </trkpt>
      <trkpt lat="43.51292" lon="6.34722">
        <ele>295.742676</ele>
        <time>2012-12-09T09:09:32Z</time>
      </trkpt>
      <trkpt lat="43.51287" lon="6.34716">
        <ele>295.261963</ele>
        <time>2012-12-09T09:09:38Z</time>
      </trkpt>
      <trkpt lat="43.51284" lon="6.34715">
        <ele>296.704102</ele>
        <time>2012-12-09T09:09:50Z</time>
      </trkpt>
      <trkpt lat="43.51287" lon="6.3472">
        <ele>296.704102</ele>
        <time>2012-12-09T09:10:23Z</time>
      </trkpt>
      <trkpt lat="43.51287" lon="6.3472">
        <ele>295.261963</ele>
        <time>2012-12-09T09:10:28Z</time>
      </trkpt>
      <trkpt lat="43.5129" lon="6.34726">
        <ele>296.223511</ele>
        <time>2012-12-09T09:10:46Z</time>
      </trkpt>
      <trkpt lat="43.51289" lon="6.34728">
        <ele>296.223511</ele>
        <time>2012-12-09T09:11:06Z</time>
      </trkpt>
      <trkpt lat="43.51283" lon="6.34714">
        <ele>295.261963</ele>
        <time>2012-12-09T09:11:28Z</time>
      </trkpt>
      <trkpt lat="43.51283" lon="6.34716">
        <ele>295.261963</ele>
        <time>2012-12-09T09:11:44Z</time>
      </trkpt>
      <trkpt lat="43.51299" lon="6.34724">
        <ele>295.742676</ele>
        <time>2012-12-09T09:13:11Z</time>
      </trkpt>
      <trkpt lat="43.51308" lon="6.34722">
        <ele>297.184692</ele>
        <time>2012-12-09T09:13:18Z</time>
      </trkpt>
      <trkpt lat="43.51317" lon="6.34709">
        <ele>297.665405</ele>
        <time>2012-12-09T09:13:32Z</time>
      </trkpt>
      <trkpt lat="43.51322" lon="6.34698">
        <ele>299.588013</ele>
        <time>2012-12-09T09:13:44Z</time>
      </trkpt>
      <trkpt lat="43.51325" lon="6.3469">
        <ele>300.549316</ele>
        <time>2012-12-09T09:13:48Z</time>
      </trkpt>
      <trkpt lat="43.51324" lon="6.34668">
        <ele>301.029907</ele>
        <time>2012-12-09T09:14:04Z</time>
      </trkpt>
      <trkpt lat="43.51332" lon="6.34655">
        <ele>301.029907</ele>
        <time>2012-12-09T09:14:16Z</time>
      </trkpt>
      <trkpt lat="43.51337" lon="6.34648">
        <ele>301.991333</ele>
        <time>2012-12-09T09:14:22Z</time>
      </trkpt>
      <trkpt lat="43.51339" lon="6.34639">
        <ele>302.471924</ele>
        <time>2012-12-09T09:14:29Z</time>
      </trkpt>
      <trkpt lat="43.51344" lon="6.3462">
        <ele>303.91394</ele>
        <time>2012-12-09T09:14:44Z</time>
      </trkpt>
      <trkpt lat="43.51348" lon="6.3461">
        <ele>303.433228</ele>
        <time>2012-12-09T09:14:50Z</time>
      </trkpt>
      <trkpt lat="43.51348" lon="6.34605">
        <ele>303.433228</ele>
        <time>2012-12-09T09:14:53Z</time>
      </trkpt>
      <trkpt lat="43.51356" lon="6.34585">
        <ele>302.952515</ele>
        <time>2012-12-09T09:15:07Z</time>
      </trkpt>
      <trkpt lat="43.51358" lon="6.34563">
        <ele>303.433228</ele>
        <time>2012-12-09T09:15:20Z</time>
      </trkpt>
      <trkpt lat="43.51356" lon="6.34557">
        <ele>304.394653</ele>
        <time>2012-12-09T09:15:24Z</time>
      </trkpt>
      <trkpt lat="43.51357" lon="6.34554">
        <ele>304.875244</ele>
        <time>2012-12-09T09:15:27Z</time>
      </trkpt>
      <trkpt lat="43.51356" lon="6.34542">
        <ele>305.355957</ele>
        <time>2012-12-09T09:15:34Z</time>
      </trkpt>
      <trkpt lat="43.51363" lon="6.34522">
        <ele>305.83667</ele>
        <time>2012-12-09T09:15:49Z</time>
      </trkpt>
      <trkpt lat="43.51373" lon="6.34497">
        <ele>304.875244</ele>
        <time>2012-12-09T09:16:07Z</time>
      </trkpt>
      <trkpt lat="43.51381" lon="6.3448">
        <ele>306.797852</ele>
        <time>2012-12-09T09:16:22Z</time>
      </trkpt>
      <trkpt lat="43.51387" lon="6.34458">
        <ele>308.720459</ele>
        <time>2012-12-09T09:16:37Z</time>
      </trkpt>
      <trkpt lat="43.51392" lon="6.34447">
        <ele>308.239868</ele>
        <time>2012-12-09T09:16:47Z</time>
      </trkpt>
      <trkpt lat="43.51394" lon="6.34441">
        <ele>308.720459</ele>
        <time>2012-12-09T09:16:51Z</time>
      </trkpt>
      <trkpt lat="43.51394" lon="6.34433">
        <ele>309.201172</ele>
        <time>2012-12-09T09:16:54Z</time>
      </trkpt>
      <trkpt lat="43.514" lon="6.34419">
        <ele>308.239868</ele>
        <time>2012-12-09T09:17:05Z</time>
      </trkpt>
      <trkpt lat="43.51403" lon="6.34413">
        <ele>309.681885</ele>
        <time>2012-12-09T09:17:10Z</time>
      </trkpt>
      <trkpt lat="43.51406" lon="6.34408">
        <ele>308.239868</ele>
        <time>2012-12-09T09:17:14Z</time>
      </trkpt>
      <trkpt lat="43.5141" lon="6.34403">
        <ele>309.681885</ele>
        <time>2012-12-09T09:17:18Z</time>
      </trkpt>
      <trkpt lat="43.51412" lon="6.3439">
        <ele>311.123779</ele>
        <time>2012-12-09T09:17:27Z</time>
      </trkpt>
      <trkpt lat="43.51418" lon="6.34384">
        <ele>309.681885</ele>
        <time>2012-12-09T09:17:34Z</time>
      </trkpt>
      <trkpt lat="43.51423" lon="6.3437">
        <ele>309.201172</ele>
        <time>2012-12-09T09:17:43Z</time>
      </trkpt>
      <trkpt lat="43.51425" lon="6.34367">
        <ele>310.643066</ele>
        <time>2012-12-09T09:17:45Z</time>
      </trkpt>
      <trkpt lat="43.51434" lon="6.34342">
        <ele>311.123779</ele>
        <time>2012-12-09T09:17:57Z</time>
      </trkpt>
      <trkpt lat="43.51433" lon="6.34322">
        <ele>309.201172</ele>
        <time>2012-12-09T09:18:10Z</time>
      </trkpt>
      <trkpt lat="43.51434" lon="6.3432">
        <ele>307.278564</ele>
        <time>2012-12-09T09:18:11Z</time>
      </trkpt>
      <trkpt lat="43.51435" lon="6.34312">
        <ele>309.201172</ele>
        <time>2012-12-09T09:18:15Z</time>
      </trkpt>
      <trkpt lat="43.51442" lon="6.34293">
        <ele>307.759277</ele>
        <time>2012-12-09T09:18:28Z</time>
      </trkpt>
      <trkpt lat="43.51442" lon="6.3429">
        <ele>305.83667</ele>
        <time>2012-12-09T09:18:30Z</time>
      </trkpt>
      <trkpt lat="43.51451" lon="6.34263">
        <ele>305.355957</ele>
        <time>2012-12-09T09:18:46Z</time>
      </trkpt>
      <trkpt lat="43.51455" lon="6.34251">
        <ele>305.83667</ele>
        <time>2012-12-09T09:18:55Z</time>
      </trkpt>
      <trkpt lat="43.51458" lon="6.34245">
        <ele>305.83667</ele>
        <time>2012-12-09T09:18:59Z</time>
      </trkpt>
      <trkpt lat="43.51458" lon="6.34242">
        <ele>305.83667</ele>
        <time>2012-12-09T09:19:01Z</time>
      </trkpt>
      <trkpt lat="43.51461" lon="6.34236">
        <ele>303.91394</ele>
        <time>2012-12-09T09:19:04Z</time>
      </trkpt>
      <trkpt lat="43.51464" lon="6.34229">
        <ele>305.355957</ele>
        <time>2012-12-09T09:19:08Z</time>
      </trkpt>
      <trkpt lat="43.51467" lon="6.34224">
        <ele>305.355957</ele>
        <time>2012-12-09T09:19:11Z</time>
      </trkpt>
      <trkpt lat="43.51484" lon="6.3421">
        <ele>303.433228</ele>
        <time>2012-12-09T09:19:27Z</time>
      </trkpt>
      <trkpt lat="43.51489" lon="6.34206">
        <ele>304.875244</ele>
        <time>2012-12-09T09:19:31Z</time>
      </trkpt>
      <trkpt lat="43.51493" lon="6.34204">
        <ele>302.952515</ele>
        <time>2012-12-09T09:19:34Z</time>
      </trkpt>
      <trkpt lat="43.51505" lon="6.34192">
        <ele>303.91394</ele>
        <time>2012-12-09T09:19:46Z</time>
      </trkpt>
      <trkpt lat="43.51509" lon="6.34194">
        <ele>303.91394</ele>
        <time>2012-12-09T09:19:51Z</time>
      </trkpt>
      <trkpt lat="43.51519" lon="6.34216">
        <ele>305.83667</ele>
        <time>2012-12-09T09:20:07Z</time>
      </trkpt>
      <trkpt lat="43.51521" lon="6.34219">
        <ele>305.83667</ele>
        <time>2012-12-09T09:20:08Z</time>
      </trkpt>
      <trkpt lat="43.51527" lon="6.34229">
        <ele>304.394653</ele>
        <time>2012-12-09T09:20:19Z</time>
      </trkpt>
      <trkpt lat="43.51529" lon="6.34233">
        <ele>305.83667</ele>
        <time>2012-12-09T09:20:22Z</time>
      </trkpt>
      <trkpt lat="43.51544" lon="6.34254">
        <ele>307.759277</ele>
        <time>2012-12-09T09:20:39Z</time>
      </trkpt>
      <trkpt lat="43.51545" lon="6.34255">
        <ele>307.759277</ele>
        <time>2012-12-09T09:20:40Z</time>
      </trkpt>
      <trkpt lat="43.51549" lon="6.34256">
        <ele>309.201172</ele>
        <time>2012-12-09T09:20:46Z</time>
      </trkpt>
      <trkpt lat="43.51564" lon="6.34255">
        <ele>311.123779</ele>
        <time>2012-12-09T09:21:00Z</time>
      </trkpt>
      <trkpt lat="43.5157" lon="6.34254">
        <ele>312.565796</ele>
        <time>2012-12-09T09:21:06Z</time>
      </trkpt>
      <trkpt lat="43.51584" lon="6.34245">
        <ele>316.411011</ele>
        <time>2012-12-09T09:21:19Z</time>
      </trkpt>
      <trkpt lat="43.51585" lon="6.34245">
        <ele>316.411011</ele>
        <time>2012-12-09T09:21:20Z</time>
      </trkpt>
      <trkpt lat="43.51587" lon="6.34243">
        <ele>314.969116</ele>
        <time>2012-12-09T09:21:22Z</time>
      </trkpt>
      <trkpt lat="43.51591" lon="6.34242">
        <ele>316.891724</ele>
        <time>2012-12-09T09:21:25Z</time>
      </trkpt>
      <trkpt lat="43.51596" lon="6.34238">
        <ele>317.853027</ele>
        <time>2012-12-09T09:21:34Z</time>
      </trkpt>
      <trkpt lat="43.51604" lon="6.34238">
        <ele>320.256348</ele>
        <time>2012-12-09T09:21:43Z</time>
      </trkpt>
      <trkpt lat="43.51623" lon="6.34232">
        <ele>321.217773</ele>
        <time>2012-12-09T09:22:00Z</time>
      </trkpt>
      <trkpt lat="43.51624" lon="6.3423">
        <ele>322.659668</ele>
        <time>2012-12-09T09:22:02Z</time>
      </trkpt>
      <trkpt lat="43.5164" lon="6.34233">
        <ele>323.140381</ele>
        <time>2012-12-09T09:22:17Z</time>
      </trkpt>
      <trkpt lat="43.51651" lon="6.34241">
        <ele>324.582275</ele>
        <time>2012-12-09T09:22:29Z</time>
      </trkpt>
      <trkpt lat="43.5166" lon="6.34247">
        <ele>321.217773</ele>
        <time>2012-12-09T09:22:39Z</time>
      </trkpt>
      <trkpt lat="43.51662" lon="6.34249">
        <ele>322.659668</ele>
        <time>2012-12-09T09:22:42Z</time>
      </trkpt>
      <trkpt lat="43.51669" lon="6.34253">
        <ele>320.737061</ele>
        <time>2012-12-09T09:22:47Z</time>
      </trkpt>
      <trkpt lat="43.51679" lon="6.34262">
        <ele>324.101563</ele>
        <time>2012-12-09T09:23:03Z</time>
      </trkpt>
      <trkpt lat="43.5168" lon="6.34272">
        <ele>326.985596</ele>
        <time>2012-12-09T09:23:14Z</time>
      </trkpt>
      <trkpt lat="43.5168" lon="6.34278">
        <ele>326.985596</ele>
        <time>2012-12-09T09:23:18Z</time>
      </trkpt>
      <trkpt lat="43.51679" lon="6.34294">
        <ele>330.830933</ele>
        <time>2012-12-09T09:23:34Z</time>
      </trkpt>
      <trkpt lat="43.51678" lon="6.34295">
        <ele>329.869507</ele>
        <time>2012-12-09T09:23:35Z</time>
      </trkpt>
      <trkpt lat="43.51679" lon="6.34303">
        <ele>331.792114</ele>
        <time>2012-12-09T09:23:41Z</time>
      </trkpt>
      <trkpt lat="43.51681" lon="6.34336">
        <ele>332.272827</ele>
        <time>2012-12-09T09:24:02Z</time>
      </trkpt>
      <trkpt lat="43.5168" lon="6.34347">
        <ele>334.195435</ele>
        <time>2012-12-09T09:24:10Z</time>
      </trkpt>
      <trkpt lat="43.51678" lon="6.34364">
        <ele>333.714722</ele>
        <time>2012-12-09T09:24:25Z</time>
      </trkpt>
      <trkpt lat="43.51668" lon="6.34377">
        <ele>335.637329</ele>
        <time>2012-12-09T09:24:43Z</time>
      </trkpt>
      <trkpt lat="43.51653" lon="6.34389">
        <ele>335.637329</ele>
        <time>2012-12-09T09:25:05Z</time>
      </trkpt>
      <trkpt lat="43.51644" lon="6.34405">
        <ele>336.118164</ele>
        <time>2012-12-09T09:25:28Z</time>
      </trkpt>
      <trkpt lat="43.51642" lon="6.34422">
        <ele>335.156738</ele>
        <time>2012-12-09T09:25:46Z</time>
      </trkpt>
      <trkpt lat="43.51644" lon="6.34438">
        <ele>333.714722</ele>
        <time>2012-12-09T09:26:02Z</time>
      </trkpt>
      <trkpt lat="43.51651" lon="6.34452">
        <ele>330.830933</ele>
        <time>2012-12-09T09:26:17Z</time>
      </trkpt>
      <trkpt lat="43.51652" lon="6.34454">
        <ele>329.388916</ele>
        <time>2012-12-09T09:26:21Z</time>
      </trkpt>
      <trkpt lat="43.51657" lon="6.34469">
        <ele>327.946777</ele>
        <time>2012-12-09T09:26:34Z</time>
      </trkpt>
      <trkpt lat="43.51659" lon="6.34476">
        <ele>327.946777</ele>
        <time>2012-12-09T09:26:38Z</time>
      </trkpt>
      <trkpt lat="43.51658" lon="6.3448">
        <ele>326.985596</ele>
        <time>2012-12-09T09:26:40Z</time>
      </trkpt>
      <trkpt lat="43.51659" lon="6.34482">
        <ele>324.582275</ele>
        <time>2012-12-09T09:26:42Z</time>
      </trkpt>
      <trkpt lat="43.51661" lon="6.34487">
        <ele>326.02417</ele>
        <time>2012-12-09T09:26:45Z</time>
      </trkpt>
      <trkpt lat="43.51661" lon="6.34496">
        <ele>325.543579</ele>
        <time>2012-12-09T09:26:52Z</time>
      </trkpt>
      <trkpt lat="43.5167" lon="6.3452">
        <ele>323.140381</ele>
        <time>2012-12-09T09:27:07Z</time>
      </trkpt>
      <trkpt lat="43.51676" lon="6.34536">
        <ele>322.659668</ele>
        <time>2012-12-09T09:27:20Z</time>
      </trkpt>
      <trkpt lat="43.51677" lon="6.3454">
        <ele>323.620972</ele>
        <time>2012-12-09T09:27:25Z</time>
      </trkpt>
      <trkpt lat="43.5168" lon="6.34548">
        <ele>321.698364</ele>
        <time>2012-12-09T09:27:30Z</time>
      </trkpt>
      <trkpt lat="43.51686" lon="6.34552">
        <ele>325.062988</ele>
        <time>2012-12-09T09:27:38Z</time>
      </trkpt>
      <trkpt lat="43.51691" lon="6.34557">
        <ele>325.062988</ele>
        <time>2012-12-09T09:27:47Z</time>
      </trkpt>
      <trkpt lat="43.51705" lon="6.34565">
        <ele>327.946777</ele>
        <time>2012-12-09T09:28:02Z</time>
      </trkpt>
      <trkpt lat="43.51718" lon="6.34579">
        <ele>328.908325</ele>
        <time>2012-12-09T09:28:20Z</time>
      </trkpt>
      <trkpt lat="43.51721" lon="6.34581">
        <ele>327.946777</ele>
        <time>2012-12-09T09:28:22Z</time>
      </trkpt>
      <trkpt lat="43.51724" lon="6.34583">
        <ele>330.830933</ele>
        <time>2012-12-09T09:28:25Z</time>
      </trkpt>
      <trkpt lat="43.51738" lon="6.34591">
        <ele>327.466187</ele>
        <time>2012-12-09T09:28:37Z</time>
      </trkpt>
      <trkpt lat="43.51743" lon="6.34593">
        <ele>328.908325</ele>
        <time>2012-12-09T09:28:40Z</time>
      </trkpt>
      <trkpt lat="43.51747" lon="6.34595">
        <ele>327.466187</ele>
        <time>2012-12-09T09:28:44Z</time>
      </trkpt>
      <trkpt lat="43.51758" lon="6.34601">
        <ele>327.946777</ele>
        <time>2012-12-09T09:28:53Z</time>
      </trkpt>
      <trkpt lat="43.51767" lon="6.34612">
        <ele>326.504883</ele>
        <time>2012-12-09T09:29:04Z</time>
      </trkpt>
      <trkpt lat="43.51777" lon="6.34619">
        <ele>326.02417</ele>
        <time>2012-12-09T09:29:17Z</time>
      </trkpt>
      <trkpt lat="43.51779" lon="6.34625">
        <ele>327.466187</ele>
        <time>2012-12-09T09:29:33Z</time>
      </trkpt>
      <trkpt lat="43.51783" lon="6.34616">
        <ele>327.466187</ele>
        <time>2012-12-09T09:30:07Z</time>
      </trkpt>
      <trkpt lat="43.51783" lon="6.34604">
        <ele>324.582275</ele>
        <time>2012-12-09T09:30:15Z</time>
      </trkpt>
      <trkpt lat="43.51789" lon="6.34572">
        <ele>322.659668</ele>
        <time>2012-12-09T09:30:38Z</time>
      </trkpt>
      <trkpt lat="43.51783" lon="6.3456">
        <ele>322.659668</ele>
        <time>2012-12-09T09:30:56Z</time>
      </trkpt>
      <trkpt lat="43.51777" lon="6.34555">
        <ele>321.698364</ele>
        <time>2012-12-09T09:31:05Z</time>
      </trkpt>
      <trkpt lat="43.5177" lon="6.34546">
        <ele>320.737061</ele>
        <time>2012-12-09T09:31:12Z</time>
      </trkpt>
      <trkpt lat="43.51758" lon="6.34513">
        <ele>320.256348</ele>
        <time>2012-12-09T09:31:36Z</time>
      </trkpt>
      <trkpt lat="43.51757" lon="6.34494">
        <ele>316.891724</ele>
        <time>2012-12-09T09:31:47Z</time>
      </trkpt>
      <trkpt lat="43.51757" lon="6.34492">
        <ele>317.372437</ele>
        <time>2012-12-09T09:31:48Z</time>
      </trkpt>
      <trkpt lat="43.51758" lon="6.34493">
        <ele>318.333618</ele>
        <time>2012-12-09T09:31:50Z</time>
      </trkpt>
      <trkpt lat="43.51762" lon="6.34489">
        <ele>317.853027</ele>
        <time>2012-12-09T09:31:54Z</time>
      </trkpt>
      <trkpt lat="43.51766" lon="6.34465">
        <ele>315.93042</ele>
        <time>2012-12-09T09:32:15Z</time>
      </trkpt>
      <trkpt lat="43.51769" lon="6.34457">
        <ele>315.449829</ele>
        <time>2012-12-09T09:32:22Z</time>
      </trkpt>
      <trkpt lat="43.51777" lon="6.34444">
        <ele>315.93042</ele>
        <time>2012-12-09T09:32:36Z</time>
      </trkpt>
      <trkpt lat="43.51783" lon="6.3444">
        <ele>314.488403</ele>
        <time>2012-12-09T09:32:41Z</time>
      </trkpt>
      <trkpt lat="43.51795" lon="6.34428">
        <ele>315.449829</ele>
        <time>2012-12-09T09:32:55Z</time>
      </trkpt>
      <trkpt lat="43.51803" lon="6.34413">
        <ele>313.527222</ele>
        <time>2012-12-09T09:33:07Z</time>
      </trkpt>
      <trkpt lat="43.5181" lon="6.34409">
        <ele>313.527222</ele>
        <time>2012-12-09T09:33:14Z</time>
      </trkpt>
      <trkpt lat="43.51814" lon="6.34408">
        <ele>314.007813</ele>
        <time>2012-12-09T09:33:18Z</time>
      </trkpt>
      <trkpt lat="43.51829" lon="6.34401">
        <ele>312.085205</ele>
        <time>2012-12-09T09:33:31Z</time>
      </trkpt>
      <trkpt lat="43.51832" lon="6.34398">
        <ele>311.604492</ele>
        <time>2012-12-09T09:33:35Z</time>
      </trkpt>
      <trkpt lat="43.51835" lon="6.34389">
        <ele>309.201172</ele>
        <time>2012-12-09T09:33:41Z</time>
      </trkpt>
      <trkpt lat="43.51843" lon="6.34363">
        <ele>310.643066</ele>
        <time>2012-12-09T09:33:58Z</time>
      </trkpt>
      <trkpt lat="43.51849" lon="6.34347">
        <ele>310.643066</ele>
        <time>2012-12-09T09:34:09Z</time>
      </trkpt>
      <trkpt lat="43.51851" lon="6.34343">
        <ele>309.681885</ele>
        <time>2012-12-09T09:34:13Z</time>
      </trkpt>
      <trkpt lat="43.51856" lon="6.34324">
        <ele>313.046509</ele>
        <time>2012-12-09T09:34:27Z</time>
      </trkpt>
      <trkpt lat="43.51856" lon="6.34322">
        <ele>313.046509</ele>
        <time>2012-12-09T09:34:28Z</time>
      </trkpt>
      <trkpt lat="43.51856" lon="6.34313">
        <ele>314.488403</ele>
        <time>2012-12-09T09:34:34Z</time>
      </trkpt>
      <trkpt lat="43.51858" lon="6.34311">
        <ele>314.007813</ele>
        <time>2012-12-09T09:34:35Z</time>
      </trkpt>
      <trkpt lat="43.51857" lon="6.34288">
        <ele>313.527222</ele>
        <time>2012-12-09T09:34:50Z</time>
      </trkpt>
      <trkpt lat="43.51858" lon="6.34288">
        <ele>314.007813</ele>
        <time>2012-12-09T09:34:51Z</time>
      </trkpt>
      <trkpt lat="43.5186" lon="6.34279">
        <ele>315.449829</ele>
        <time>2012-12-09T09:34:58Z</time>
      </trkpt>
      <trkpt lat="43.51862" lon="6.34271">
        <ele>315.93042</ele>
        <time>2012-12-09T09:35:03Z</time>
      </trkpt>
      <trkpt lat="43.51868" lon="6.34256">
        <ele>317.372437</ele>
        <time>2012-12-09T09:35:16Z</time>
      </trkpt>
      <trkpt lat="43.51869" lon="6.3425">
        <ele>315.449829</ele>
        <time>2012-12-09T09:35:19Z</time>
      </trkpt>
      <trkpt lat="43.5187" lon="6.34249">
        <ele>316.891724</ele>
        <time>2012-12-09T09:35:21Z</time>
      </trkpt>
      <trkpt lat="43.51871" lon="6.34237">
        <ele>317.372437</ele>
        <time>2012-12-09T09:35:29Z</time>
      </trkpt>
      <trkpt lat="43.51879" lon="6.34217">
        <ele>317.372437</ele>
        <time>2012-12-09T09:35:42Z</time>
      </trkpt>
      <trkpt lat="43.5188" lon="6.34209">
        <ele>318.814331</ele>
        <time>2012-12-09T09:35:46Z</time>
      </trkpt>
      <trkpt lat="43.51887" lon="6.34207">
        <ele>319.295044</ele>
        <time>2012-12-09T09:36:04Z</time>
      </trkpt>
      <trkpt lat="43.51891" lon="6.34222">
        <ele>320.256348</ele>
        <time>2012-12-09T09:36:15Z</time>
      </trkpt>
      <trkpt lat="43.51892" lon="6.34224">
        <ele>321.217773</ele>
        <time>2012-12-09T09:36:17Z</time>
      </trkpt>
      <trkpt lat="43.51898" lon="6.34228">
        <ele>322.178955</ele>
        <time>2012-12-09T09:36:23Z</time>
      </trkpt>
      <trkpt lat="43.51916" lon="6.34225">
        <ele>323.620972</ele>
        <time>2012-12-09T09:36:37Z</time>
      </trkpt>
      <trkpt lat="43.51916" lon="6.34216">
        <ele>321.698364</ele>
        <time>2012-12-09T09:36:41Z</time>
      </trkpt>
      <trkpt lat="43.5192" lon="6.34211">
        <ele>323.140381</ele>
        <time>2012-12-09T09:36:45Z</time>
      </trkpt>
      <trkpt lat="43.51923" lon="6.34208">
        <ele>321.217773</ele>
        <time>2012-12-09T09:36:49Z</time>
      </trkpt>
      <trkpt lat="43.51924" lon="6.34206">
        <ele>322.178955</ele>
        <time>2012-12-09T09:36:50Z</time>
      </trkpt>
      <trkpt lat="43.51926" lon="6.34204">
        <ele>322.659668</ele>
        <time>2012-12-09T09:36:52Z</time>
      </trkpt>
      <trkpt lat="43.51929" lon="6.34198">
        <ele>323.140381</ele>
        <time>2012-12-09T09:36:57Z</time>
      </trkpt>
      <trkpt lat="43.51931" lon="6.34191">
        <ele>322.659668</ele>
        <time>2012-12-09T09:37:01Z</time>
      </trkpt>
      <trkpt lat="43.51937" lon="6.34177">
        <ele>322.659668</ele>
        <time>2012-12-09T09:37:16Z</time>
      </trkpt>
      <trkpt lat="43.51944" lon="6.34161">
        <ele>322.178955</ele>
        <time>2012-12-09T09:37:38Z</time>
      </trkpt>
      <trkpt lat="43.5194" lon="6.34144">
        <ele>324.582275</ele>
        <time>2012-12-09T09:37:55Z</time>
      </trkpt>
      <trkpt lat="43.51944" lon="6.34128">
        <ele>326.504883</ele>
        <time>2012-12-09T09:38:10Z</time>
      </trkpt>
      <trkpt lat="43.51949" lon="6.34116">
        <ele>326.504883</ele>
        <time>2012-12-09T09:38:17Z</time>
      </trkpt>
      <trkpt lat="43.5195" lon="6.34114">
        <ele>326.02417</ele>
        <time>2012-12-09T09:38:18Z</time>
      </trkpt>
      <trkpt lat="43.51951" lon="6.34107">
        <ele>328.427612</ele>
        <time>2012-12-09T09:38:22Z</time>
      </trkpt>
      <trkpt lat="43.51951" lon="6.34106">
        <ele>327.466187</ele>
        <time>2012-12-09T09:38:23Z</time>
      </trkpt>
      <trkpt lat="43.51952" lon="6.34103">
        <ele>328.908325</ele>
        <time>2012-12-09T09:38:25Z</time>
      </trkpt>
      <trkpt lat="43.51956" lon="6.34081">
        <ele>328.908325</ele>
        <time>2012-12-09T09:38:41Z</time>
      </trkpt>
      <trkpt lat="43.51956" lon="6.34063">
        <ele>328.427612</ele>
        <time>2012-12-09T09:38:51Z</time>
      </trkpt>
      <trkpt lat="43.5196" lon="6.34056">
        <ele>329.869507</ele>
        <time>2012-12-09T09:38:55Z</time>
      </trkpt>
      <trkpt lat="43.51962" lon="6.34049">
        <ele>327.946777</ele>
        <time>2012-12-09T09:39:00Z</time>
      </trkpt>
      <trkpt lat="43.5197" lon="6.34027">
        <ele>328.427612</ele>
        <time>2012-12-09T09:39:14Z</time>
      </trkpt>
      <trkpt lat="43.51974" lon="6.34008">
        <ele>327.946777</ele>
        <time>2012-12-09T09:39:29Z</time>
      </trkpt>
      <trkpt lat="43.51974" lon="6.34005">
        <ele>326.504883</ele>
        <time>2012-12-09T09:39:32Z</time>
      </trkpt>
      <trkpt lat="43.51977" lon="6.34001">
        <ele>326.504883</ele>
        <time>2012-12-09T09:39:36Z</time>
      </trkpt>
      <trkpt lat="43.51978" lon="6.33996">
        <ele>325.062988</ele>
        <time>2012-12-09T09:39:39Z</time>
      </trkpt>
      <trkpt lat="43.51982" lon="6.33972">
        <ele>325.543579</ele>
        <time>2012-12-09T09:39:54Z</time>
      </trkpt>
      <trkpt lat="43.51982" lon="6.3397">
        <ele>325.543579</ele>
        <time>2012-12-09T09:39:55Z</time>
      </trkpt>
      <trkpt lat="43.51982" lon="6.33964">
        <ele>323.140381</ele>
        <time>2012-12-09T09:39:58Z</time>
      </trkpt>
      <trkpt lat="43.51985" lon="6.33955">
        <ele>322.659668</ele>
        <time>2012-12-09T09:40:07Z</time>
      </trkpt>
      <trkpt lat="43.5199" lon="6.33942">
        <ele>323.140381</ele>
        <time>2012-12-09T09:40:19Z</time>
      </trkpt>
      <trkpt lat="43.5199" lon="6.33936">
        <ele>321.698364</ele>
        <time>2012-12-09T09:40:22Z</time>
      </trkpt>
      <trkpt lat="43.51996" lon="6.33915">
        <ele>322.178955</ele>
        <time>2012-12-09T09:40:36Z</time>
      </trkpt>
      <trkpt lat="43.51998" lon="6.33896">
        <ele>322.178955</ele>
        <time>2012-12-09T09:40:50Z</time>
      </trkpt>
      <trkpt lat="43.52002" lon="6.33888">
        <ele>321.217773</ele>
        <time>2012-12-09T09:40:54Z</time>
      </trkpt>
      <trkpt lat="43.52007" lon="6.33867">
        <ele>321.698364</ele>
        <time>2012-12-09T09:41:09Z</time>
      </trkpt>
      <trkpt lat="43.52009" lon="6.33859">
        <ele>320.737061</ele>
        <time>2012-12-09T09:41:14Z</time>
      </trkpt>
      <trkpt lat="43.52015" lon="6.33838">
        <ele>322.178955</ele>
        <time>2012-12-09T09:41:27Z</time>
      </trkpt>
      <trkpt lat="43.52019" lon="6.33828">
        <ele>322.659668</ele>
        <time>2012-12-09T09:41:35Z</time>
      </trkpt>
      <trkpt lat="43.5202" lon="6.33823">
        <ele>321.698364</ele>
        <time>2012-12-09T09:41:39Z</time>
      </trkpt>
      <trkpt lat="43.52031" lon="6.33803">
        <ele>321.217773</ele>
        <time>2012-12-09T09:41:54Z</time>
      </trkpt>
      <trkpt lat="43.52033" lon="6.33802">
        <ele>321.217773</ele>
        <time>2012-12-09T09:41:58Z</time>
      </trkpt>
      <trkpt lat="43.52049" lon="6.33818">
        <ele>318.814331</ele>
        <time>2012-12-09T09:42:16Z</time>
      </trkpt>
      <trkpt lat="43.5206" lon="6.33822">
        <ele>317.853027</ele>
        <time>2012-12-09T09:42:31Z</time>
      </trkpt>
      <trkpt lat="43.52077" lon="6.33838">
        <ele>316.891724</ele>
        <time>2012-12-09T09:42:44Z</time>
      </trkpt>
      <trkpt lat="43.52091" lon="6.33852">
        <ele>317.853027</ele>
        <time>2012-12-09T09:42:59Z</time>
      </trkpt>
      <trkpt lat="43.52097" lon="6.33855">
        <ele>315.93042</ele>
        <time>2012-12-09T09:43:04Z</time>
      </trkpt>
      <trkpt lat="43.52104" lon="6.33859">
        <ele>317.372437</ele>
        <time>2012-12-09T09:43:08Z</time>
      </trkpt>
      <trkpt lat="43.52122" lon="6.33869">
        <ele>316.891724</ele>
        <time>2012-12-09T09:43:24Z</time>
      </trkpt>
      <trkpt lat="43.52134" lon="6.33872">
        <ele>317.853027</ele>
        <time>2012-12-09T09:43:33Z</time>
      </trkpt>
      <trkpt lat="43.5214" lon="6.33863">
        <ele>315.93042</ele>
        <time>2012-12-09T09:43:38Z</time>
      </trkpt>
      <trkpt lat="43.52143" lon="6.33858">
        <ele>315.93042</ele>
        <time>2012-12-09T09:43:40Z</time>
      </trkpt>
      <trkpt lat="43.52148" lon="6.33829">
        <ele>316.891724</ele>
        <time>2012-12-09T09:43:56Z</time>
      </trkpt>
      <trkpt lat="43.5215" lon="6.33821">
        <ele>315.93042</ele>
        <time>2012-12-09T09:44:00Z</time>
      </trkpt>
      <trkpt lat="43.52155" lon="6.33813">
        <ele>315.93042</ele>
        <time>2012-12-09T09:44:07Z</time>
      </trkpt>
      <trkpt lat="43.52161" lon="6.33803">
        <ele>317.372437</ele>
        <time>2012-12-09T09:44:15Z</time>
      </trkpt>
      <trkpt lat="43.52174" lon="6.33802">
        <ele>315.93042</ele>
        <time>2012-12-09T09:44:28Z</time>
      </trkpt>
      <trkpt lat="43.52176" lon="6.33801">
        <ele>317.372437</ele>
        <time>2012-12-09T09:44:31Z</time>
      </trkpt>
      <trkpt lat="43.52189" lon="6.338">
        <ele>317.372437</ele>
        <time>2012-12-09T09:44:47Z</time>
      </trkpt>
      <trkpt lat="43.52203" lon="6.33799">
        <ele>317.853027</ele>
        <time>2012-12-09T09:45:04Z</time>
      </trkpt>
      <trkpt lat="43.52213" lon="6.33797">
        <ele>317.853027</ele>
        <time>2012-12-09T09:45:15Z</time>
      </trkpt>
      <trkpt lat="43.52216" lon="6.33794">
        <ele>316.411011</ele>
        <time>2012-12-09T09:45:17Z</time>
      </trkpt>
      <trkpt lat="43.52226" lon="6.33783">
        <ele>317.853027</ele>
        <time>2012-12-09T09:45:29Z</time>
      </trkpt>
      <trkpt lat="43.5223" lon="6.33773">
        <ele>318.333618</ele>
        <time>2012-12-09T09:45:37Z</time>
      </trkpt>
      <trkpt lat="43.52234" lon="6.33765">
        <ele>317.372437</ele>
        <time>2012-12-09T09:45:44Z</time>
      </trkpt>
      <trkpt lat="43.52234" lon="6.33762">
        <ele>317.372437</ele>
        <time>2012-12-09T09:45:46Z</time>
      </trkpt>
      <trkpt lat="43.52237" lon="6.33748">
        <ele>317.372437</ele>
        <time>2012-12-09T09:46:03Z</time>
      </trkpt>
      <trkpt lat="43.52234" lon="6.3376">
        <ele>317.372437</ele>
        <time>2012-12-09T09:46:48Z</time>
      </trkpt>
      <trkpt lat="43.52237" lon="6.33755">
        <ele>316.891724</ele>
        <time>2012-12-09T09:48:37Z</time>
      </trkpt>
      <trkpt lat="43.52239" lon="6.33733">
        <ele>316.891724</ele>
        <time>2012-12-09T09:48:58Z</time>
      </trkpt>
      <trkpt lat="43.52246" lon="6.33708">
        <ele>316.891724</ele>
        <time>2012-12-09T09:49:18Z</time>
      </trkpt>
      <trkpt lat="43.52247" lon="6.33702">
        <ele>316.891724</ele>
        <time>2012-12-09T09:49:22Z</time>
      </trkpt>
      <trkpt lat="43.5225" lon="6.33694">
        <ele>316.891724</ele>
        <time>2012-12-09T09:49:29Z</time>
      </trkpt>
      <trkpt lat="43.52251" lon="6.3368">
        <ele>317.853027</ele>
        <time>2012-12-09T09:49:40Z</time>
      </trkpt>
      <trkpt lat="43.52251" lon="6.33666">
        <ele>316.891724</ele>
        <time>2012-12-09T09:49:51Z</time>
      </trkpt>
      <trkpt lat="43.52257" lon="6.33663">
        <ele>317.372437</ele>
        <time>2012-12-09T09:49:57Z</time>
      </trkpt>
      <trkpt lat="43.52263" lon="6.33661">
        <ele>318.333618</ele>
        <time>2012-12-09T09:50:14Z</time>
      </trkpt>
      <trkpt lat="43.52263" lon="6.33667">
        <ele>318.333618</ele>
        <time>2012-12-09T09:50:43Z</time>
      </trkpt>
      <trkpt lat="43.52265" lon="6.33663">
        <ele>318.333618</ele>
        <time>2012-12-09T09:51:18Z</time>
      </trkpt>
      <trkpt lat="43.52259" lon="6.33657">
        <ele>317.853027</ele>
        <time>2012-12-09T09:55:31Z</time>
      </trkpt>
      <trkpt lat="43.52262" lon="6.33661">
        <ele>317.372437</ele>
        <time>2012-12-09T09:57:24Z</time>
      </trkpt>
      <trkpt lat="43.52264" lon="6.3366">
        <ele>317.372437</ele>
        <time>2012-12-09T09:59:40Z</time>
      </trkpt>
      <trkpt lat="43.52265" lon="6.3366">
        <ele>317.372437</ele>
        <time>2012-12-09T10:00:10Z</time>
      </trkpt>
      <trkpt lat="43.52269" lon="6.33668">
        <ele>317.372437</ele>
        <time>2012-12-09T10:00:35Z</time>
      </trkpt>
      <trkpt lat="43.52272" lon="6.33678">
        <ele>317.853027</ele>
        <time>2012-12-09T10:00:45Z</time>
      </trkpt>
      <trkpt lat="43.52277" lon="6.33684">
        <ele>318.333618</ele>
        <time>2012-12-09T10:00:51Z</time>
      </trkpt>
      <trkpt lat="43.52281" lon="6.33684">
        <ele>318.333618</ele>
        <time>2012-12-09T10:00:55Z</time>
      </trkpt>
      <trkpt lat="43.52292" lon="6.33688">
        <ele>319.295044</ele>
        <time>2012-12-09T10:01:06Z</time>
      </trkpt>
      <trkpt lat="43.52298" lon="6.33693">
        <ele>319.775635</ele>
        <time>2012-12-09T10:01:12Z</time>
      </trkpt>
      <trkpt lat="43.52314" lon="6.33705">
        <ele>320.737061</ele>
        <time>2012-12-09T10:01:28Z</time>
      </trkpt>
      <trkpt lat="43.52323" lon="6.33712">
        <ele>322.178955</ele>
        <time>2012-12-09T10:01:41Z</time>
      </trkpt>
      <trkpt lat="43.52345" lon="6.3373">
        <ele>324.582275</ele>
        <time>2012-12-09T10:02:07Z</time>
      </trkpt>
      <trkpt lat="43.52359" lon="6.33747">
        <ele>326.02417</ele>
        <time>2012-12-09T10:02:24Z</time>
      </trkpt>
      <trkpt lat="43.52368" lon="6.33769">
        <ele>328.427612</ele>
        <time>2012-12-09T10:02:43Z</time>
      </trkpt>
      <trkpt lat="43.52384" lon="6.33796">
        <ele>329.388916</ele>
        <time>2012-12-09T10:03:04Z</time>
      </trkpt>
      <trkpt lat="43.52401" lon="6.33807">
        <ele>330.830933</ele>
        <time>2012-12-09T10:03:25Z</time>
      </trkpt>
      <trkpt lat="43.52418" lon="6.33822">
        <ele>331.311523</ele>
        <time>2012-12-09T10:03:40Z</time>
      </trkpt>
      <trkpt lat="43.52419" lon="6.33822">
        <ele>330.830933</ele>
        <time>2012-12-09T10:03:41Z</time>
      </trkpt>
      <trkpt lat="43.52426" lon="6.33825">
        <ele>330.830933</ele>
        <time>2012-12-09T10:03:46Z</time>
      </trkpt>
      <trkpt lat="43.52443" lon="6.33834">
        <ele>329.388916</ele>
        <time>2012-12-09T10:04:02Z</time>
      </trkpt>
      <trkpt lat="43.52461" lon="6.33845">
        <ele>327.946777</ele>
        <time>2012-12-09T10:04:18Z</time>
      </trkpt>
      <trkpt lat="43.52477" lon="6.33857">
        <ele>327.466187</ele>
        <time>2012-12-09T10:04:32Z</time>
      </trkpt>
      <trkpt lat="43.52487" lon="6.33862">
        <ele>326.985596</ele>
        <time>2012-12-09T10:04:41Z</time>
      </trkpt>
      <trkpt lat="43.52504" lon="6.33877">
        <ele>325.543579</ele>
        <time>2012-12-09T10:04:54Z</time>
      </trkpt>
      <trkpt lat="43.52506" lon="6.33879">
        <ele>325.062988</ele>
        <time>2012-12-09T10:04:57Z</time>
      </trkpt>
      <trkpt lat="43.52513" lon="6.33884">
        <ele>324.101563</ele>
        <time>2012-12-09T10:05:04Z</time>
      </trkpt>
      <trkpt lat="43.52515" lon="6.33884">
        <ele>324.101563</ele>
        <time>2012-12-09T10:05:06Z</time>
      </trkpt>
      <trkpt lat="43.52535" lon="6.33886">
        <ele>323.620972</ele>
        <time>2012-12-09T10:05:21Z</time>
      </trkpt>
      <trkpt lat="43.52554" lon="6.33884">
        <ele>322.659668</ele>
        <time>2012-12-09T10:05:37Z</time>
      </trkpt>
      <trkpt lat="43.52571" lon="6.33891">
        <ele>321.217773</ele>
        <time>2012-12-09T10:05:51Z</time>
      </trkpt>
      <trkpt lat="43.52592" lon="6.33893">
        <ele>319.295044</ele>
        <time>2012-12-09T10:06:06Z</time>
      </trkpt>
      <trkpt lat="43.52606" lon="6.33886">
        <ele>317.372437</ele>
        <time>2012-12-09T10:06:20Z</time>
      </trkpt>
      <trkpt lat="43.5262" lon="6.33881">
        <ele>314.969116</ele>
        <time>2012-12-09T10:06:34Z</time>
      </trkpt>
      <trkpt lat="43.52638" lon="6.33879">
        <ele>312.085205</ele>
        <time>2012-12-09T10:06:50Z</time>
      </trkpt>
      <trkpt lat="43.52646" lon="6.33878">
        <ele>310.643066</ele>
        <time>2012-12-09T10:06:59Z</time>
      </trkpt>
      <trkpt lat="43.52655" lon="6.33878">
        <ele>309.681885</ele>
        <time>2012-12-09T10:07:07Z</time>
      </trkpt>
      <trkpt lat="43.52668" lon="6.3388">
        <ele>309.201172</ele>
        <time>2012-12-09T10:07:15Z</time>
      </trkpt>
      <trkpt lat="43.52673" lon="6.33879">
        <ele>309.681885</ele>
        <time>2012-12-09T10:07:33Z</time>
      </trkpt>
      <trkpt lat="43.52678" lon="6.33872">
        <ele>309.681885</ele>
        <time>2012-12-09T10:07:59Z</time>
      </trkpt>
      <trkpt lat="43.52675" lon="6.33872">
        <ele>309.681885</ele>
        <time>2012-12-09T10:08:27Z</time>
      </trkpt>
      <trkpt lat="43.52681" lon="6.33868">
        <ele>309.681885</ele>
        <time>2012-12-09T10:08:56Z</time>
      </trkpt>
      <trkpt lat="43.5268" lon="6.33861">
        <ele>309.681885</ele>
        <time>2012-12-09T10:09:02Z</time>
      </trkpt>
      <trkpt lat="43.52676" lon="6.33837">
        <ele>309.681885</ele>
        <time>2012-12-09T10:09:16Z</time>
      </trkpt>
      <trkpt lat="43.52676" lon="6.33829">
        <ele>310.162476</ele>
        <time>2012-12-09T10:09:20Z</time>
      </trkpt>
      <trkpt lat="43.52661" lon="6.33818">
        <ele>309.201172</ele>
        <time>2012-12-09T10:09:35Z</time>
      </trkpt>
      <trkpt lat="43.52653" lon="6.33808">
        <ele>310.643066</ele>
        <time>2012-12-09T10:09:50Z</time>
      </trkpt>
      <trkpt lat="43.52668" lon="6.33803">
        <ele>310.643066</ele>
        <time>2012-12-09T10:10:04Z</time>
      </trkpt>
      <trkpt lat="43.52673" lon="6.33805">
        <ele>310.643066</ele>
        <time>2012-12-09T10:10:08Z</time>
      </trkpt>
      <trkpt lat="43.52682" lon="6.33793">
        <ele>312.085205</ele>
        <time>2012-12-09T10:10:21Z</time>
      </trkpt>
      <trkpt lat="43.52685" lon="6.33774">
        <ele>312.565796</ele>
        <time>2012-12-09T10:10:36Z</time>
      </trkpt>
      <trkpt lat="43.52689" lon="6.33757">
        <ele>314.007813</ele>
        <time>2012-12-09T10:10:50Z</time>
      </trkpt>
      <trkpt lat="43.5269" lon="6.33755">
        <ele>314.488403</ele>
        <time>2012-12-09T10:11:22Z</time>
      </trkpt>
      <trkpt lat="43.52692" lon="6.3376">
        <ele>315.449829</ele>
        <time>2012-12-09T10:11:38Z</time>
      </trkpt>
      <trkpt lat="43.52696" lon="6.33764">
        <ele>316.891724</ele>
        <time>2012-12-09T10:11:53Z</time>
      </trkpt>
      <trkpt lat="43.52695" lon="6.33762">
        <ele>316.891724</ele>
        <time>2012-12-09T10:12:17Z</time>
      </trkpt>
      <trkpt lat="43.52702" lon="6.33745">
        <ele>317.853027</ele>
        <time>2012-12-09T10:12:38Z</time>
      </trkpt>
      <trkpt lat="43.52702" lon="6.33735">
        <ele>318.333618</ele>
        <time>2012-12-09T10:12:59Z</time>
      </trkpt>
      <trkpt lat="43.527" lon="6.33722">
        <ele>317.853027</ele>
        <time>2012-12-09T10:13:22Z</time>
      </trkpt>
      <trkpt lat="43.52695" lon="6.33719">
        <ele>317.372437</ele>
        <time>2012-12-09T10:13:36Z</time>
      </trkpt>
      <trkpt lat="43.52697" lon="6.33718">
        <ele>317.853027</ele>
        <time>2012-12-09T10:13:44Z</time>
      </trkpt>
      <trkpt lat="43.52713" lon="6.33715">
        <ele>318.814331</ele>
        <time>2012-12-09T10:13:56Z</time>
      </trkpt>
      <trkpt lat="43.52715" lon="6.33718">
        <ele>318.814331</ele>
        <time>2012-12-09T10:14:00Z</time>
      </trkpt>
      <trkpt lat="43.5273" lon="6.33724">
        <ele>320.256348</ele>
        <time>2012-12-09T10:14:16Z</time>
      </trkpt>
      <trkpt lat="43.5273" lon="6.33723">
        <ele>320.256348</ele>
        <time>2012-12-09T10:14:17Z</time>
      </trkpt>
      <trkpt lat="43.52734" lon="6.33719">
        <ele>320.737061</ele>
        <time>2012-12-09T10:14:22Z</time>
      </trkpt>
      <trkpt lat="43.52737" lon="6.33719">
        <ele>321.217773</ele>
        <time>2012-12-09T10:14:24Z</time>
      </trkpt>
      <trkpt lat="43.5275" lon="6.33724">
        <ele>322.178955</ele>
        <time>2012-12-09T10:14:35Z</time>
      </trkpt>
      <trkpt lat="43.52755" lon="6.33722">
        <ele>323.140381</ele>
        <time>2012-12-09T10:14:41Z</time>
      </trkpt>
      <trkpt lat="43.52771" lon="6.33711">
        <ele>324.582275</ele>
        <time>2012-12-09T10:14:55Z</time>
      </trkpt>
      <trkpt lat="43.52785" lon="6.3371">
        <ele>326.02417</ele>
        <time>2012-12-09T10:15:10Z</time>
      </trkpt>
      <trkpt lat="43.52803" lon="6.33709">
        <ele>326.985596</ele>
        <time>2012-12-09T10:15:24Z</time>
      </trkpt>
      <trkpt lat="43.5282" lon="6.33709">
        <ele>327.946777</ele>
        <time>2012-12-09T10:15:39Z</time>
      </trkpt>
      <trkpt lat="43.52836" lon="6.33706">
        <ele>329.388916</ele>
        <time>2012-12-09T10:15:53Z</time>
      </trkpt>
      <trkpt lat="43.52855" lon="6.33707">
        <ele>330.830933</ele>
        <time>2012-12-09T10:16:09Z</time>
      </trkpt>
      <trkpt lat="43.52871" lon="6.33712">
        <ele>332.272827</ele>
        <time>2012-12-09T10:16:23Z</time>
      </trkpt>
      <trkpt lat="43.52886" lon="6.33715">
        <ele>333.234131</ele>
        <time>2012-12-09T10:16:38Z</time>
      </trkpt>
      <trkpt lat="43.52899" lon="6.33713">
        <ele>334.676147</ele>
        <time>2012-12-09T10:16:49Z</time>
      </trkpt>
      <trkpt lat="43.52914" lon="6.33716">
        <ele>336.118164</ele>
        <time>2012-12-09T10:17:03Z</time>
      </trkpt>
      <trkpt lat="43.52919" lon="6.33714">
        <ele>336.598877</ele>
        <time>2012-12-09T10:17:07Z</time>
      </trkpt>
      <trkpt lat="43.52939" lon="6.33714">
        <ele>338.040771</ele>
        <time>2012-12-09T10:17:23Z</time>
      </trkpt>
      <trkpt lat="43.52939" lon="6.33714">
        <ele>338.040771</ele>
        <time>2012-12-09T10:17:24Z</time>
      </trkpt>
      <trkpt lat="43.52945" lon="6.33717">
        <ele>338.521484</ele>
        <time>2012-12-09T10:17:29Z</time>
      </trkpt>
      <trkpt lat="43.52962" lon="6.33722">
        <ele>338.040771</ele>
        <time>2012-12-09T10:17:44Z</time>
      </trkpt>
      <trkpt lat="43.52966" lon="6.33727">
        <ele>338.040771</ele>
        <time>2012-12-09T10:17:48Z</time>
      </trkpt>
      <trkpt lat="43.52988" lon="6.33718">
        <ele>338.521484</ele>
        <time>2012-12-09T10:18:05Z</time>
      </trkpt>
      <trkpt lat="43.53003" lon="6.33719">
        <ele>339.482666</ele>
        <time>2012-12-09T10:18:17Z</time>
      </trkpt>
      <trkpt lat="43.53018" lon="6.33709">
        <ele>340.924683</ele>
        <time>2012-12-09T10:18:32Z</time>
      </trkpt>
      <trkpt lat="43.53031" lon="6.33705">
        <ele>342.366699</ele>
        <time>2012-12-09T10:18:43Z</time>
      </trkpt>
      <trkpt lat="43.53046" lon="6.33719">
        <ele>343.808594</ele>
        <time>2012-12-09T10:18:58Z</time>
      </trkpt>
      <trkpt lat="43.53056" lon="6.33742">
        <ele>343.808594</ele>
        <time>2012-12-09T10:19:14Z</time>
      </trkpt>
      <trkpt lat="43.53058" lon="6.33749">
        <ele>343.808594</ele>
        <time>2012-12-09T10:19:19Z</time>
      </trkpt>
      <trkpt lat="43.53065" lon="6.33758">
        <ele>343.808594</ele>
        <time>2012-12-09T10:19:27Z</time>
      </trkpt>
      <trkpt lat="43.53067" lon="6.33761">
        <ele>343.808594</ele>
        <time>2012-12-09T10:19:31Z</time>
      </trkpt>
      <trkpt lat="43.53079" lon="6.33765">
        <ele>344.289429</ele>
        <time>2012-12-09T10:19:42Z</time>
      </trkpt>
      <trkpt lat="43.53093" lon="6.33767">
        <ele>344.289429</ele>
        <time>2012-12-09T10:19:55Z</time>
      </trkpt>
      <trkpt lat="43.53107" lon="6.3377">
        <ele>344.289429</ele>
        <time>2012-12-09T10:20:08Z</time>
      </trkpt>
      <trkpt lat="43.53122" lon="6.33764">
        <ele>344.289429</ele>
        <time>2012-12-09T10:20:20Z</time>
      </trkpt>
      <trkpt lat="43.5314" lon="6.33761">
        <ele>344.289429</ele>
        <time>2012-12-09T10:20:36Z</time>
      </trkpt>
      <trkpt lat="43.53159" lon="6.33757">
        <ele>344.77002</ele>
        <time>2012-12-09T10:20:53Z</time>
      </trkpt>
      <trkpt lat="43.53176" lon="6.33747">
        <ele>344.289429</ele>
        <time>2012-12-09T10:21:08Z</time>
      </trkpt>
      <trkpt lat="43.53191" lon="6.33741">
        <ele>344.77002</ele>
        <time>2012-12-09T10:21:24Z</time>
      </trkpt>
      <trkpt lat="43.53207" lon="6.3374">
        <ele>345.25061</ele>
        <time>2012-12-09T10:21:36Z</time>
      </trkpt>
      <trkpt lat="43.5322" lon="6.33739">
        <ele>346.212036</ele>
        <time>2012-12-09T10:21:49Z</time>
      </trkpt>
      <trkpt lat="43.53236" lon="6.33736">
        <ele>346.692627</ele>
        <time>2012-12-09T10:22:03Z</time>
      </trkpt>
      <trkpt lat="43.53259" lon="6.33733">
        <ele>346.692627</ele>
        <time>2012-12-09T10:22:25Z</time>
      </trkpt>
      <trkpt lat="43.53274" lon="6.33734">
        <ele>345.731323</ele>
        <time>2012-12-09T10:22:38Z</time>
      </trkpt>
      <trkpt lat="43.53288" lon="6.33735">
        <ele>345.731323</ele>
        <time>2012-12-09T10:22:53Z</time>
      </trkpt>
      <trkpt lat="43.53308" lon="6.33726">
        <ele>346.692627</ele>
        <time>2012-12-09T10:23:09Z</time>
      </trkpt>
      <trkpt lat="43.53309" lon="6.33713">
        <ele>348.134644</ele>
        <time>2012-12-09T10:23:17Z</time>
      </trkpt>
      <trkpt lat="43.53307" lon="6.33685">
        <ele>351.018433</ele>
        <time>2012-12-09T10:23:40Z</time>
      </trkpt>
      <trkpt lat="43.53304" lon="6.33655">
        <ele>353.902588</ele>
        <time>2012-12-09T10:24:04Z</time>
      </trkpt>
      <trkpt lat="43.53304" lon="6.33631">
        <ele>356.786377</ele>
        <time>2012-12-09T10:24:25Z</time>
      </trkpt>
      <trkpt lat="43.53313" lon="6.33608">
        <ele>358.228394</ele>
        <time>2012-12-09T10:24:49Z</time>
      </trkpt>
      <trkpt lat="43.53322" lon="6.33601">
        <ele>358.708984</ele>
        <time>2012-12-09T10:25:00Z</time>
      </trkpt>
      <trkpt lat="43.53345" lon="6.33588">
        <ele>359.67041</ele>
        <time>2012-12-09T10:25:22Z</time>
      </trkpt>
      <trkpt lat="43.5335" lon="6.33586">
        <ele>359.189697</ele>
        <time>2012-12-09T10:25:27Z</time>
      </trkpt>
      <trkpt lat="43.53369" lon="6.33586">
        <ele>359.189697</ele>
        <time>2012-12-09T10:25:43Z</time>
      </trkpt>
      <trkpt lat="43.53388" lon="6.33581">
        <ele>359.189697</ele>
        <time>2012-12-09T10:26:05Z</time>
      </trkpt>
      <trkpt lat="43.53412" lon="6.33576">
        <ele>359.189697</ele>
        <time>2012-12-09T10:26:26Z</time>
      </trkpt>
      <trkpt lat="43.53428" lon="6.33568">
        <ele>358.708984</ele>
        <time>2012-12-09T10:26:40Z</time>
      </trkpt>
      <trkpt lat="43.53449" lon="6.33562">
        <ele>359.189697</ele>
        <time>2012-12-09T10:26:56Z</time>
      </trkpt>
      <trkpt lat="43.53462" lon="6.33559">
        <ele>359.189697</ele>
        <time>2012-12-09T10:27:07Z</time>
      </trkpt>
      <trkpt lat="43.53475" lon="6.33552">
        <ele>358.708984</ele>
        <time>2012-12-09T10:27:22Z</time>
      </trkpt>
      <trkpt lat="43.53492" lon="6.33543">
        <ele>359.189697</ele>
        <time>2012-12-09T10:27:39Z</time>
      </trkpt>
      <trkpt lat="43.53511" lon="6.33532">
        <ele>359.189697</ele>
        <time>2012-12-09T10:28:01Z</time>
      </trkpt>
      <trkpt lat="43.53527" lon="6.33526">
        <ele>358.708984</ele>
        <time>2012-12-09T10:28:16Z</time>
      </trkpt>
      <trkpt lat="43.53545" lon="6.33527">
        <ele>357.26709</ele>
        <time>2012-12-09T10:28:31Z</time>
      </trkpt>
      <trkpt lat="43.53556" lon="6.33524">
        <ele>356.305786</ele>
        <time>2012-12-09T10:28:46Z</time>
      </trkpt>
      <trkpt lat="43.53564" lon="6.33524">
        <ele>356.305786</ele>
        <time>2012-12-09T10:29:31Z</time>
      </trkpt>
      <trkpt lat="43.53567" lon="6.33512">
        <ele>355.344482</ele>
        <time>2012-12-09T10:35:43Z</time>
      </trkpt>
      <trkpt lat="43.53581" lon="6.33491">
        <ele>356.305786</ele>
        <time>2012-12-09T10:36:03Z</time>
      </trkpt>
      <trkpt lat="43.53586" lon="6.33458">
        <ele>357.26709</ele>
        <time>2012-12-09T10:36:24Z</time>
      </trkpt>
      <trkpt lat="43.53607" lon="6.33442">
        <ele>358.708984</ele>
        <time>2012-12-09T10:36:45Z</time>
      </trkpt>
      <trkpt lat="43.53615" lon="6.33435">
        <ele>359.67041</ele>
        <time>2012-12-09T10:36:54Z</time>
      </trkpt>
      <trkpt lat="43.53634" lon="6.33414">
        <ele>361.112427</ele>
        <time>2012-12-09T10:37:15Z</time>
      </trkpt>
      <trkpt lat="43.53654" lon="6.33397">
        <ele>362.07373</ele>
        <time>2012-12-09T10:37:38Z</time>
      </trkpt>
      <trkpt lat="43.53676" lon="6.33377">
        <ele>363.035034</ele>
        <time>2012-12-09T10:38:00Z</time>
      </trkpt>
      <trkpt lat="43.53695" lon="6.33346">
        <ele>364.476929</ele>
        <time>2012-12-09T10:38:26Z</time>
      </trkpt>
      <trkpt lat="43.53707" lon="6.33326">
        <ele>365.438354</ele>
        <time>2012-12-09T10:38:45Z</time>
      </trkpt>
      <trkpt lat="43.53724" lon="6.33303">
        <ele>366.880249</ele>
        <time>2012-12-09T10:39:07Z</time>
      </trkpt>
      <trkpt lat="43.53743" lon="6.33275">
        <ele>367.360962</ele>
        <time>2012-12-09T10:39:30Z</time>
      </trkpt>
      <trkpt lat="43.53747" lon="6.33269">
        <ele>367.360962</ele>
        <time>2012-12-09T10:39:36Z</time>
      </trkpt>
      <trkpt lat="43.53757" lon="6.33252">
        <ele>368.322266</ele>
        <time>2012-12-09T10:39:51Z</time>
      </trkpt>
      <trkpt lat="43.53769" lon="6.33238">
        <ele>368.802979</ele>
        <time>2012-12-09T10:40:05Z</time>
      </trkpt>
      <trkpt lat="43.53781" lon="6.33229">
        <ele>369.283691</ele>
        <time>2012-12-09T10:40:18Z</time>
      </trkpt>
      <trkpt lat="43.53797" lon="6.33202">
        <ele>369.283691</ele>
        <time>2012-12-09T10:40:39Z</time>
      </trkpt>
      <trkpt lat="43.53802" lon="6.33191">
        <ele>369.764282</ele>
        <time>2012-12-09T10:40:46Z</time>
      </trkpt>
      <trkpt lat="43.53816" lon="6.33173">
        <ele>369.764282</ele>
        <time>2012-12-09T10:41:02Z</time>
      </trkpt>
      <trkpt lat="43.5383" lon="6.33162">
        <ele>370.244873</ele>
        <time>2012-12-09T10:41:16Z</time>
      </trkpt>
      <trkpt lat="43.53842" lon="6.33149">
        <ele>371.206299</ele>
        <time>2012-12-09T10:41:34Z</time>
      </trkpt>
      <trkpt lat="43.53845" lon="6.33136">
        <ele>371.68689</ele>
        <time>2012-12-09T10:41:55Z</time>
      </trkpt>
      <trkpt lat="43.53858" lon="6.33122">
        <ele>373.128906</ele>
        <time>2012-12-09T10:42:15Z</time>
      </trkpt>
      <trkpt lat="43.5388" lon="6.33105">
        <ele>374.570801</ele>
        <time>2012-12-09T10:42:37Z</time>
      </trkpt>
      <trkpt lat="43.5389" lon="6.33092">
        <ele>375.532104</ele>
        <time>2012-12-09T10:42:50Z</time>
      </trkpt>
      <trkpt lat="43.53903" lon="6.33069">
        <ele>376.974243</ele>
        <time>2012-12-09T10:43:10Z</time>
      </trkpt>
      <trkpt lat="43.53919" lon="6.33054">
        <ele>378.416138</ele>
        <time>2012-12-09T10:43:30Z</time>
      </trkpt>
      <trkpt lat="43.53932" lon="6.33035">
        <ele>378.896851</ele>
        <time>2012-12-09T10:43:49Z</time>
      </trkpt>
      <trkpt lat="43.5395" lon="6.33009">
        <ele>380.819458</ele>
        <time>2012-12-09T10:44:11Z</time>
      </trkpt>
      <trkpt lat="43.53966" lon="6.32979">
        <ele>382.742065</ele>
        <time>2012-12-09T10:44:33Z</time>
      </trkpt>
      <trkpt lat="43.53978" lon="6.32956">
        <ele>384.664795</ele>
        <time>2012-12-09T10:44:55Z</time>
      </trkpt>
      <trkpt lat="43.53998" lon="6.32948">
        <ele>386.106689</ele>
        <time>2012-12-09T10:45:18Z</time>
      </trkpt>
      <trkpt lat="43.54016" lon="6.32954">
        <ele>387.067993</ele>
        <time>2012-12-09T10:45:39Z</time>
      </trkpt>
      <trkpt lat="43.54029" lon="6.32961">
        <ele>388.51001</ele>
        <time>2012-12-09T10:45:49Z</time>
      </trkpt>
      <trkpt lat="43.5405" lon="6.32964">
        <ele>389.951904</ele>
        <time>2012-12-09T10:46:12Z</time>
      </trkpt>
      <trkpt lat="43.54052" lon="6.32966">
        <ele>390.432617</ele>
        <time>2012-12-09T10:46:16Z</time>
      </trkpt>
      <trkpt lat="43.54059" lon="6.32963">
        <ele>390.432617</ele>
        <time>2012-12-09T10:46:21Z</time>
      </trkpt>
      <trkpt lat="43.54078" lon="6.32934">
        <ele>392.835938</ele>
        <time>2012-12-09T10:46:45Z</time>
      </trkpt>
      <trkpt lat="43.54078" lon="6.32932">
        <ele>393.316528</ele>
        <time>2012-12-09T10:46:47Z</time>
      </trkpt>
      <trkpt lat="43.54086" lon="6.32909">
        <ele>392.355347</ele>
        <time>2012-12-09T10:47:06Z</time>
      </trkpt>
      <trkpt lat="43.54097" lon="6.32891">
        <ele>391.874512</ele>
        <time>2012-12-09T10:47:26Z</time>
      </trkpt>
      <trkpt lat="43.54108" lon="6.32862">
        <ele>391.393799</ele>
        <time>2012-12-09T10:47:42Z</time>
      </trkpt>
      <trkpt lat="43.54124" lon="6.32845">
        <ele>391.393799</ele>
        <time>2012-12-09T10:48:00Z</time>
      </trkpt>
      <trkpt lat="43.54129" lon="6.32842">
        <ele>391.874512</ele>
        <time>2012-12-09T10:48:06Z</time>
      </trkpt>
      <trkpt lat="43.54142" lon="6.32848">
        <ele>391.874512</ele>
        <time>2012-12-09T10:48:15Z</time>
      </trkpt>
      <trkpt lat="43.54146" lon="6.32853">
        <ele>391.874512</ele>
        <time>2012-12-09T10:48:18Z</time>
      </trkpt>
      <trkpt lat="43.54159" lon="6.32868">
        <ele>391.874512</ele>
        <time>2012-12-09T10:48:31Z</time>
      </trkpt>
      <trkpt lat="43.54162" lon="6.32876">
        <ele>391.874512</ele>
        <time>2012-12-09T10:48:55Z</time>
      </trkpt>
      <trkpt lat="43.5417" lon="6.3288">
        <ele>391.874512</ele>
        <time>2012-12-09T10:49:10Z</time>
      </trkpt>
      <trkpt lat="43.54187" lon="6.32878">
        <ele>391.874512</ele>
        <time>2012-12-09T10:49:30Z</time>
      </trkpt>
      <trkpt lat="43.54211" lon="6.32877">
        <ele>392.355347</ele>
        <time>2012-12-09T10:49:55Z</time>
      </trkpt>
      <trkpt lat="43.54237" lon="6.32878">
        <ele>392.355347</ele>
        <time>2012-12-09T10:50:19Z</time>
      </trkpt>
      <trkpt lat="43.54259" lon="6.32885">
        <ele>392.835938</ele>
        <time>2012-12-09T10:50:40Z</time>
      </trkpt>
      <trkpt lat="43.54288" lon="6.32889">
        <ele>393.316528</ele>
        <time>2012-12-09T10:51:03Z</time>
      </trkpt>
      <trkpt lat="43.54314" lon="6.32893">
        <ele>393.797241</ele>
        <time>2012-12-09T10:51:26Z</time>
      </trkpt>
      <trkpt lat="43.54333" lon="6.32887">
        <ele>392.835938</ele>
        <time>2012-12-09T10:51:45Z</time>
      </trkpt>
      <trkpt lat="43.54334" lon="6.32886">
        <ele>392.835938</ele>
        <time>2012-12-09T10:51:46Z</time>
      </trkpt>
      <trkpt lat="43.5435" lon="6.32878">
        <ele>392.355347</ele>
        <time>2012-12-09T10:51:58Z</time>
      </trkpt>
      <trkpt lat="43.54371" lon="6.32861">
        <ele>391.874512</ele>
        <time>2012-12-09T10:52:18Z</time>
      </trkpt>
      <trkpt lat="43.54391" lon="6.32857">
        <ele>390.913208</ele>
        <time>2012-12-09T10:52:34Z</time>
      </trkpt>
      <trkpt lat="43.544" lon="6.32847">
        <ele>390.913208</ele>
        <time>2012-12-09T10:52:45Z</time>
      </trkpt>
      <trkpt lat="43.54425" lon="6.32825">
        <ele>390.913208</ele>
        <time>2012-12-09T10:53:08Z</time>
      </trkpt>
      <trkpt lat="43.5444" lon="6.32794">
        <ele>390.432617</ele>
        <time>2012-12-09T10:53:29Z</time>
      </trkpt>
      <trkpt lat="43.54454" lon="6.3277">
        <ele>390.432617</ele>
        <time>2012-12-09T10:53:49Z</time>
      </trkpt>
      <trkpt lat="43.5447" lon="6.32757">
        <ele>389.951904</ele>
        <time>2012-12-09T10:54:05Z</time>
      </trkpt>
      <trkpt lat="43.54495" lon="6.32743">
        <ele>389.471191</ele>
        <time>2012-12-09T10:54:29Z</time>
      </trkpt>
      <trkpt lat="43.54524" lon="6.32714">
        <ele>389.951904</ele>
        <time>2012-12-09T10:54:52Z</time>
      </trkpt>
      <trkpt lat="43.54526" lon="6.32685">
        <ele>389.471191</ele>
        <time>2012-12-09T10:55:11Z</time>
      </trkpt>
      <trkpt lat="43.54523" lon="6.3266">
        <ele>389.471191</ele>
        <time>2012-12-09T10:55:28Z</time>
      </trkpt>
      <trkpt lat="43.54528" lon="6.32641">
        <ele>389.471191</ele>
        <time>2012-12-09T10:55:40Z</time>
      </trkpt>
      <trkpt lat="43.54528" lon="6.32639">
        <ele>389.471191</ele>
        <time>2012-12-09T10:55:41Z</time>
      </trkpt>
      <trkpt lat="43.54533" lon="6.3263">
        <ele>389.951904</ele>
        <time>2012-12-09T10:55:50Z</time>
      </trkpt>
      <trkpt lat="43.54537" lon="6.32624">
        <ele>390.432617</ele>
        <time>2012-12-09T10:56:05Z</time>
      </trkpt>
      <trkpt lat="43.54542" lon="6.32621">
        <ele>390.432617</ele>
        <time>2012-12-09T10:56:26Z</time>
      </trkpt>
      <trkpt lat="43.54548" lon="6.32637">
        <ele>390.913208</ele>
        <time>2012-12-09T10:57:18Z</time>
      </trkpt>
      <trkpt lat="43.54557" lon="6.32659">
        <ele>391.393799</ele>
        <time>2012-12-09T10:57:37Z</time>
      </trkpt>
      <trkpt lat="43.5457" lon="6.32659">
        <ele>391.874512</ele>
        <time>2012-12-09T10:57:56Z</time>
      </trkpt>
      <trkpt lat="43.5459" lon="6.32666">
        <ele>392.835938</ele>
        <time>2012-12-09T10:58:15Z</time>
      </trkpt>
      <trkpt lat="43.54608" lon="6.32675">
        <ele>393.316528</ele>
        <time>2012-12-09T10:58:36Z</time>
      </trkpt>
      <trkpt lat="43.54629" lon="6.32687">
        <ele>394.277954</ele>
        <time>2012-12-09T10:59:00Z</time>
      </trkpt>
      <trkpt lat="43.54642" lon="6.32695">
        <ele>395.239136</ele>
        <time>2012-12-09T10:59:19Z</time>
      </trkpt>
      <trkpt lat="43.54663" lon="6.32695">
        <ele>396.200562</ele>
        <time>2012-12-09T10:59:38Z</time>
      </trkpt>
      <trkpt lat="43.54672" lon="6.32697">
        <ele>396.200562</ele>
        <time>2012-12-09T10:59:48Z</time>
      </trkpt>
      <trkpt lat="43.54688" lon="6.32702">
        <ele>397.642456</ele>
        <time>2012-12-09T11:00:03Z</time>
      </trkpt>
      <trkpt lat="43.54706" lon="6.32701">
        <ele>397.642456</ele>
        <time>2012-12-09T11:00:19Z</time>
      </trkpt>
      <trkpt lat="43.5471" lon="6.32703">
        <ele>397.642456</ele>
        <time>2012-12-09T11:00:24Z</time>
      </trkpt>
      <trkpt lat="43.54712" lon="6.32706">
        <ele>397.642456</ele>
        <time>2012-12-09T11:00:28Z</time>
      </trkpt>
      <trkpt lat="43.54724" lon="6.32701">
        <ele>397.642456</ele>
        <time>2012-12-09T11:00:44Z</time>
      </trkpt>
      <trkpt lat="43.54744" lon="6.32714">
        <ele>396.681152</ele>
        <time>2012-12-09T11:01:05Z</time>
      </trkpt>
      <trkpt lat="43.54763" lon="6.32715">
        <ele>397.161743</ele>
        <time>2012-12-09T11:01:24Z</time>
      </trkpt>
      <trkpt lat="43.54786" lon="6.32704">
        <ele>397.642456</ele>
        <time>2012-12-09T11:01:44Z</time>
      </trkpt>
      <trkpt lat="43.54799" lon="6.32694">
        <ele>398.123169</ele>
        <time>2012-12-09T11:02:00Z</time>
      </trkpt>
      <trkpt lat="43.54813" lon="6.32682">
        <ele>398.60376</ele>
        <time>2012-12-09T11:02:20Z</time>
      </trkpt>
      <trkpt lat="43.54814" lon="6.32681">
        <ele>398.60376</ele>
        <time>2012-12-09T11:02:38Z</time>
      </trkpt>
      <trkpt lat="43.54828" lon="6.32663">
        <ele>397.642456</ele>
        <time>2012-12-09T11:03:05Z</time>
      </trkpt>
      <trkpt lat="43.54843" lon="6.32637">
        <ele>397.642456</ele>
        <time>2012-12-09T11:03:26Z</time>
      </trkpt>
      <trkpt lat="43.54845" lon="6.32611">
        <ele>397.161743</ele>
        <time>2012-12-09T11:03:44Z</time>
      </trkpt>
      <trkpt lat="43.54853" lon="6.32581">
        <ele>397.161743</ele>
        <time>2012-12-09T11:04:05Z</time>
      </trkpt>
      <trkpt lat="43.54856" lon="6.32552">
        <ele>397.161743</ele>
        <time>2012-12-09T11:04:25Z</time>
      </trkpt>
      <trkpt lat="43.54862" lon="6.32539">
        <ele>396.200562</ele>
        <time>2012-12-09T11:04:41Z</time>
      </trkpt>
      <trkpt lat="43.54863" lon="6.32516">
        <ele>395.719849</ele>
        <time>2012-12-09T11:04:56Z</time>
      </trkpt>
      <trkpt lat="43.54866" lon="6.32488">
        <ele>394.758545</ele>
        <time>2012-12-09T11:05:16Z</time>
      </trkpt>
      <trkpt lat="43.54866" lon="6.32462">
        <ele>392.835938</ele>
        <time>2012-12-09T11:05:37Z</time>
      </trkpt>
      <trkpt lat="43.54872" lon="6.32438">
        <ele>391.393799</ele>
        <time>2012-12-09T11:05:58Z</time>
      </trkpt>
      <trkpt lat="43.54885" lon="6.32415">
        <ele>389.951904</ele>
        <time>2012-12-09T11:06:20Z</time>
      </trkpt>
      <trkpt lat="43.54894" lon="6.32388">
        <ele>388.029297</ele>
        <time>2012-12-09T11:06:41Z</time>
      </trkpt>
      <trkpt lat="43.54902" lon="6.32367">
        <ele>386.106689</ele>
        <time>2012-12-09T11:07:00Z</time>
      </trkpt>
      <trkpt lat="43.54915" lon="6.32374">
        <ele>385.625977</ele>
        <time>2012-12-09T11:07:19Z</time>
      </trkpt>
      <trkpt lat="43.54916" lon="6.32374">
        <ele>385.145386</ele>
        <time>2012-12-09T11:07:20Z</time>
      </trkpt>
      <trkpt lat="43.54938" lon="6.32389">
        <ele>384.664795</ele>
        <time>2012-12-09T11:07:42Z</time>
      </trkpt>
      <trkpt lat="43.54957" lon="6.32406">
        <ele>384.664795</ele>
        <time>2012-12-09T11:08:03Z</time>
      </trkpt>
      <trkpt lat="43.54971" lon="6.32424">
        <ele>385.145386</ele>
        <time>2012-12-09T11:08:25Z</time>
      </trkpt>
      <trkpt lat="43.54988" lon="6.32448">
        <ele>385.625977</ele>
        <time>2012-12-09T11:08:45Z</time>
      </trkpt>
      <trkpt lat="43.54997" lon="6.32469">
        <ele>386.106689</ele>
        <time>2012-12-09T11:09:04Z</time>
      </trkpt>
      <trkpt lat="43.55002" lon="6.32487">
        <ele>386.587402</ele>
        <time>2012-12-09T11:09:23Z</time>
      </trkpt>
      <trkpt lat="43.55004" lon="6.32495">
        <ele>387.067993</ele>
        <time>2012-12-09T11:12:23Z</time>
      </trkpt>
      <trkpt lat="43.55002" lon="6.32481">
        <ele>387.067993</ele>
        <time>2012-12-09T11:12:44Z</time>
      </trkpt>
      <trkpt lat="43.55" lon="6.32463">
        <ele>386.106689</ele>
        <time>2012-12-09T11:13:03Z</time>
      </trkpt>
      <trkpt lat="43.55001" lon="6.32432">
        <ele>382.742065</ele>
        <time>2012-12-09T11:13:23Z</time>
      </trkpt>
      <trkpt lat="43.54997" lon="6.32422">
        <ele>382.261353</ele>
        <time>2012-12-09T11:13:46Z</time>
      </trkpt>
      <trkpt lat="43.54995" lon="6.32421">
        <ele>381.78064</ele>
        <time>2012-12-09T11:14:17Z</time>
      </trkpt>
      <trkpt lat="43.54995" lon="6.3242">
        <ele>381.78064</ele>
        <time>2012-12-09T11:14:27Z</time>
      </trkpt>
      <trkpt lat="43.54996" lon="6.32415">
        <ele>381.78064</ele>
        <time>2012-12-09T11:14:41Z</time>
      </trkpt>
      <trkpt lat="43.54996" lon="6.32387">
        <ele>379.858032</ele>
        <time>2012-12-09T11:15:02Z</time>
      </trkpt>
      <trkpt lat="43.55009" lon="6.32372">
        <ele>378.416138</ele>
        <time>2012-12-09T11:15:19Z</time>
      </trkpt>
      <trkpt lat="43.55016" lon="6.32351">
        <ele>377.454834</ele>
        <time>2012-12-09T11:15:38Z</time>
      </trkpt>
      <trkpt lat="43.55021" lon="6.3232">
        <ele>376.012817</ele>
        <time>2012-12-09T11:15:59Z</time>
      </trkpt>
      <trkpt lat="43.55025" lon="6.32317">
        <ele>376.012817</ele>
        <time>2012-12-09T11:16:17Z</time>
      </trkpt>
      <trkpt lat="43.55026" lon="6.323">
        <ele>375.051514</ele>
        <time>2012-12-09T11:16:39Z</time>
      </trkpt>
      <trkpt lat="43.5503" lon="6.32288">
        <ele>374.090088</ele>
        <time>2012-12-09T11:16:56Z</time>
      </trkpt>
      <trkpt lat="43.55029" lon="6.32274">
        <ele>373.609497</ele>
        <time>2012-12-09T11:17:14Z</time>
      </trkpt>
      <trkpt lat="43.55033" lon="6.32247">
        <ele>372.648193</ele>
        <time>2012-12-09T11:17:35Z</time>
      </trkpt>
      <trkpt lat="43.55034" lon="6.32246">
        <ele>372.648193</ele>
        <time>2012-12-09T11:17:36Z</time>
      </trkpt>
      <trkpt lat="43.55047" lon="6.32234">
        <ele>371.68689</ele>
        <time>2012-12-09T11:17:56Z</time>
      </trkpt>
      <trkpt lat="43.55054" lon="6.32223">
        <ele>371.206299</ele>
        <time>2012-12-09T11:18:14Z</time>
      </trkpt>
      <trkpt lat="43.55067" lon="6.32214">
        <ele>370.725586</ele>
        <time>2012-12-09T11:18:31Z</time>
      </trkpt>
      <trkpt lat="43.55073" lon="6.3221">
        <ele>369.764282</ele>
        <time>2012-12-09T11:18:50Z</time>
      </trkpt>
      <trkpt lat="43.55086" lon="6.322">
        <ele>368.802979</ele>
        <time>2012-12-09T11:19:08Z</time>
      </trkpt>
      <trkpt lat="43.55094" lon="6.32189">
        <ele>367.841553</ele>
        <time>2012-12-09T11:19:27Z</time>
      </trkpt>
      <trkpt lat="43.55098" lon="6.32181">
        <ele>367.360962</ele>
        <time>2012-12-09T11:19:50Z</time>
      </trkpt>
      <trkpt lat="43.55104" lon="6.32176">
        <ele>366.880249</ele>
        <time>2012-12-09T11:20:27Z</time>
      </trkpt>
      <trkpt lat="43.55112" lon="6.32153">
        <ele>364.957642</ele>
        <time>2012-12-09T11:20:47Z</time>
      </trkpt>
      <trkpt lat="43.55124" lon="6.32138">
        <ele>363.035034</ele>
        <time>2012-12-09T11:21:08Z</time>
      </trkpt>
      <trkpt lat="43.55135" lon="6.32128">
        <ele>362.554321</ele>
        <time>2012-12-09T11:21:26Z</time>
      </trkpt>
      <trkpt lat="43.55144" lon="6.32128">
        <ele>362.554321</ele>
        <time>2012-12-09T11:21:46Z</time>
      </trkpt>
      <trkpt lat="43.55141" lon="6.32136">
        <ele>363.035034</ele>
        <time>2012-12-09T11:22:01Z</time>
      </trkpt>
      <trkpt lat="43.55145" lon="6.32135">
        <ele>363.996338</ele>
        <time>2012-12-09T11:22:24Z</time>
      </trkpt>
      <trkpt lat="43.55155" lon="6.32133">
        <ele>362.554321</ele>
        <time>2012-12-09T11:22:41Z</time>
      </trkpt>
      <trkpt lat="43.55164" lon="6.32129">
        <ele>362.554321</ele>
        <time>2012-12-09T11:23:00Z</time>
      </trkpt>
      <trkpt lat="43.55165" lon="6.32129">
        <ele>363.035034</ele>
        <time>2012-12-09T11:23:15Z</time>
      </trkpt>
      <trkpt lat="43.55176" lon="6.32132">
        <ele>363.515747</ele>
        <time>2012-12-09T11:23:36Z</time>
      </trkpt>
      <trkpt lat="43.55188" lon="6.32133">
        <ele>362.554321</ele>
        <time>2012-12-09T11:23:55Z</time>
      </trkpt>
      <trkpt lat="43.55193" lon="6.32136">
        <ele>362.554321</ele>
        <time>2012-12-09T11:24:13Z</time>
      </trkpt>
      <trkpt lat="43.55195" lon="6.32131">
        <ele>361.59314</ele>
        <time>2012-12-09T11:24:17Z</time>
      </trkpt>
      <trkpt lat="43.55195" lon="6.32114">
        <ele>360.151123</ele>
        <time>2012-12-09T11:24:36Z</time>
      </trkpt>
      <trkpt lat="43.55201" lon="6.32102">
        <ele>357.747803</ele>
        <time>2012-12-09T11:24:46Z</time>
      </trkpt>
      <trkpt lat="43.55199" lon="6.32097">
        <ele>357.747803</ele>
        <time>2012-12-09T11:25:01Z</time>
      </trkpt>
      <trkpt lat="43.55199" lon="6.32099">
        <ele>357.747803</ele>
        <time>2012-12-09T11:25:30Z</time>
      </trkpt>
      <trkpt lat="43.55193" lon="6.32093">
        <ele>357.747803</ele>
        <time>2012-12-09T11:26:29Z</time>
      </trkpt>
      <trkpt lat="43.55192" lon="6.32093">
        <ele>357.747803</ele>
        <time>2012-12-09T11:26:53Z</time>
      </trkpt>
      <trkpt lat="43.55193" lon="6.32096">
        <ele>357.747803</ele>
        <time>2012-12-09T11:27:38Z</time>
      </trkpt>
      <trkpt lat="43.55195" lon="6.32094">
        <ele>357.26709</ele>
        <time>2012-12-09T11:28:21Z</time>
      </trkpt>
      <trkpt lat="43.5519" lon="6.32096">
        <ele>358.228394</ele>
        <time>2012-12-09T11:28:43Z</time>
      </trkpt>
      <trkpt lat="43.55192" lon="6.32094">
        <ele>357.747803</ele>
        <time>2012-12-09T11:29:01Z</time>
      </trkpt>
      <trkpt lat="43.55204" lon="6.32098">
        <ele>356.786377</ele>
        <time>2012-12-09T11:29:30Z</time>
      </trkpt>
      <trkpt lat="43.5521" lon="6.32111">
        <ele>356.305786</ele>
        <time>2012-12-09T11:30:05Z</time>
      </trkpt>
      <trkpt lat="43.55215" lon="6.32101">
        <ele>356.786377</ele>
        <time>2012-12-09T11:30:29Z</time>
      </trkpt>
      <trkpt lat="43.55203" lon="6.32102">
        <ele>356.786377</ele>
        <time>2012-12-09T11:30:53Z</time>
      </trkpt>
      <trkpt lat="43.55202" lon="6.32112">
        <ele>356.786377</ele>
        <time>2012-12-09T11:31:51Z</time>
      </trkpt>
      <trkpt lat="43.55195" lon="6.32104">
        <ele>356.786377</ele>
        <time>2012-12-09T11:31:59Z</time>
      </trkpt>
      <trkpt lat="43.55186" lon="6.32087">
        <ele>354.86377</ele>
        <time>2012-12-09T11:32:07Z</time>
      </trkpt>
      <trkpt lat="43.55185" lon="6.32078">
        <ele>356.305786</ele>
        <time>2012-12-09T11:32:14Z</time>
      </trkpt>
      <trkpt lat="43.55198" lon="6.32062">
        <ele>356.305786</ele>
        <time>2012-12-09T11:32:19Z</time>
      </trkpt>
      <trkpt lat="43.55189" lon="6.32057">
        <ele>356.305786</ele>
        <time>2012-12-09T11:32:23Z</time>
      </trkpt>
      <trkpt lat="43.55196" lon="6.32069">
        <ele>356.305786</ele>
        <time>2012-12-09T11:32:28Z</time>
      </trkpt>
      <trkpt lat="43.55227" lon="6.32114">
        <ele>356.305786</ele>
        <time>2012-12-09T11:32:33Z</time>
      </trkpt>
      <trkpt lat="43.55207" lon="6.32094">
        <ele>351.499146</ele>
        <time>2012-12-09T12:50:29Z</time>
      </trkpt>
      <trkpt lat="43.55198" lon="6.32092">
        <ele>352.941162</ele>
        <time>2012-12-09T12:51:00Z</time>
      </trkpt>
      <trkpt lat="43.55189" lon="6.321">
        <ele>354.383179</ele>
        <time>2012-12-09T12:51:20Z</time>
      </trkpt>
      <trkpt lat="43.5519" lon="6.32113">
        <ele>355.825195</ele>
        <time>2012-12-09T12:51:40Z</time>
      </trkpt>
      <trkpt lat="43.5519" lon="6.32134">
        <ele>357.747803</ele>
        <time>2012-12-09T12:52:01Z</time>
      </trkpt>
      <trkpt lat="43.55191" lon="6.32151">
        <ele>360.151123</ele>
        <time>2012-12-09T12:52:19Z</time>
      </trkpt>
      <trkpt lat="43.55199" lon="6.32167">
        <ele>362.07373</ele>
        <time>2012-12-09T12:52:36Z</time>
      </trkpt>
      <trkpt lat="43.55216" lon="6.32184">
        <ele>363.996338</ele>
        <time>2012-12-09T12:52:58Z</time>
      </trkpt>
      <trkpt lat="43.55225" lon="6.32188">
        <ele>364.476929</ele>
        <time>2012-12-09T12:53:07Z</time>
      </trkpt>
      <trkpt lat="43.55237" lon="6.32199">
        <ele>364.957642</ele>
        <time>2012-12-09T12:53:23Z</time>
      </trkpt>
      <trkpt lat="43.55246" lon="6.32213">
        <ele>365.438354</ele>
        <time>2012-12-09T12:53:37Z</time>
      </trkpt>
      <trkpt lat="43.55261" lon="6.32234">
        <ele>367.360962</ele>
        <time>2012-12-09T12:54:01Z</time>
      </trkpt>
      <trkpt lat="43.55265" lon="6.32249">
        <ele>367.360962</ele>
        <time>2012-12-09T12:54:20Z</time>
      </trkpt>
      <trkpt lat="43.55268" lon="6.32259">
        <ele>367.841553</ele>
        <time>2012-12-09T12:54:29Z</time>
      </trkpt>
      <trkpt lat="43.55263" lon="6.32294">
        <ele>368.322266</ele>
        <time>2012-12-09T12:54:52Z</time>
      </trkpt>
      <trkpt lat="43.55258" lon="6.32321">
        <ele>368.802979</ele>
        <time>2012-12-09T12:55:09Z</time>
      </trkpt>
      <trkpt lat="43.55249" lon="6.32342">
        <ele>370.244873</ele>
        <time>2012-12-09T12:55:25Z</time>
      </trkpt>
      <trkpt lat="43.55253" lon="6.32365">
        <ele>371.206299</ele>
        <time>2012-12-09T12:55:39Z</time>
      </trkpt>
      <trkpt lat="43.55255" lon="6.32371">
        <ele>371.68689</ele>
        <time>2012-12-09T12:55:44Z</time>
      </trkpt>
      <trkpt lat="43.55255" lon="6.32395">
        <ele>373.128906</ele>
        <time>2012-12-09T12:55:59Z</time>
      </trkpt>
      <trkpt lat="43.55257" lon="6.3241">
        <ele>374.090088</ele>
        <time>2012-12-09T12:56:12Z</time>
      </trkpt>
      <trkpt lat="43.55256" lon="6.32425">
        <ele>376.012817</ele>
        <time>2012-12-09T12:56:24Z</time>
      </trkpt>
      <trkpt lat="43.55256" lon="6.32442">
        <ele>376.49353</ele>
        <time>2012-12-09T12:56:38Z</time>
      </trkpt>
      <trkpt lat="43.55258" lon="6.32466">
        <ele>377.454834</ele>
        <time>2012-12-09T12:56:53Z</time>
      </trkpt>
      <trkpt lat="43.55258" lon="6.32466">
        <ele>377.935425</ele>
        <time>2012-12-09T12:56:55Z</time>
      </trkpt>
      <trkpt lat="43.55256" lon="6.32488">
        <ele>378.896851</ele>
        <time>2012-12-09T12:57:09Z</time>
      </trkpt>
      <trkpt lat="43.55258" lon="6.32507">
        <ele>379.377441</ele>
        <time>2012-12-09T12:57:22Z</time>
      </trkpt>
      <trkpt lat="43.55258" lon="6.32524">
        <ele>379.858032</ele>
        <time>2012-12-09T12:57:34Z</time>
      </trkpt>
      <trkpt lat="43.5526" lon="6.32548">
        <ele>381.300049</ele>
        <time>2012-12-09T12:57:50Z</time>
      </trkpt>
      <trkpt lat="43.55264" lon="6.32571">
        <ele>382.742065</ele>
        <time>2012-12-09T12:58:07Z</time>
      </trkpt>
      <trkpt lat="43.55269" lon="6.32587">
        <ele>383.703247</ele>
        <time>2012-12-09T12:58:20Z</time>
      </trkpt>
      <trkpt lat="43.55272" lon="6.32612">
        <ele>385.145386</ele>
        <time>2012-12-09T12:58:37Z</time>
      </trkpt>
      <trkpt lat="43.55263" lon="6.32635">
        <ele>387.067993</ele>
        <time>2012-12-09T12:59:01Z</time>
      </trkpt>
      <trkpt lat="43.55252" lon="6.32641">
        <ele>388.029297</ele>
        <time>2012-12-09T12:59:29Z</time>
      </trkpt>
      <trkpt lat="43.55244" lon="6.32639">
        <ele>388.51001</ele>
        <time>2012-12-09T12:59:36Z</time>
      </trkpt>
      <trkpt lat="43.55235" lon="6.32638">
        <ele>388.990601</ele>
        <time>2012-12-09T12:59:44Z</time>
      </trkpt>
      <trkpt lat="43.55224" lon="6.32641">
        <ele>389.951904</ele>
        <time>2012-12-09T12:59:54Z</time>
      </trkpt>
      <trkpt lat="43.55221" lon="6.32643">
        <ele>390.432617</ele>
        <time>2012-12-09T12:59:57Z</time>
      </trkpt>
      <trkpt lat="43.55217" lon="6.32648">
        <ele>390.432617</ele>
        <time>2012-12-09T13:00:01Z</time>
      </trkpt>
      <trkpt lat="43.55211" lon="6.32673">
        <ele>391.874512</ele>
        <time>2012-12-09T13:00:16Z</time>
      </trkpt>
      <trkpt lat="43.55212" lon="6.327">
        <ele>392.835938</ele>
        <time>2012-12-09T13:00:32Z</time>
      </trkpt>
      <trkpt lat="43.55213" lon="6.32705">
        <ele>393.316528</ele>
        <time>2012-12-09T13:00:36Z</time>
      </trkpt>
      <trkpt lat="43.55211" lon="6.32711">
        <ele>393.316528</ele>
        <time>2012-12-09T13:00:40Z</time>
      </trkpt>
      <trkpt lat="43.55208" lon="6.32729">
        <ele>394.758545</ele>
        <time>2012-12-09T13:00:53Z</time>
      </trkpt>
      <trkpt lat="43.55208" lon="6.32733">
        <ele>394.758545</ele>
        <time>2012-12-09T13:00:57Z</time>
      </trkpt>
      <trkpt lat="43.55199" lon="6.32755">
        <ele>396.200562</ele>
        <time>2012-12-09T13:01:14Z</time>
      </trkpt>
      <trkpt lat="43.55185" lon="6.32768">
        <ele>396.681152</ele>
        <time>2012-12-09T13:01:28Z</time>
      </trkpt>
      <trkpt lat="43.55175" lon="6.3278">
        <ele>396.681152</ele>
        <time>2012-12-09T13:01:44Z</time>
      </trkpt>
      <trkpt lat="43.55172" lon="6.32789">
        <ele>396.681152</ele>
        <time>2012-12-09T13:02:16Z</time>
      </trkpt>
      <trkpt lat="43.55171" lon="6.32795">
        <ele>397.161743</ele>
        <time>2012-12-09T13:02:19Z</time>
      </trkpt>
      <trkpt lat="43.55171" lon="6.32809">
        <ele>397.642456</ele>
        <time>2012-12-09T13:02:35Z</time>
      </trkpt>
      <trkpt lat="43.55176" lon="6.32813">
        <ele>397.642456</ele>
        <time>2012-12-09T13:02:41Z</time>
      </trkpt>
      <trkpt lat="43.55179" lon="6.32818">
        <ele>397.642456</ele>
        <time>2012-12-09T13:02:46Z</time>
      </trkpt>
      <trkpt lat="43.5518" lon="6.32822">
        <ele>398.123169</ele>
        <time>2012-12-09T13:03:02Z</time>
      </trkpt>
      <trkpt lat="43.5518" lon="6.32821">
        <ele>397.642456</ele>
        <time>2012-12-09T13:03:20Z</time>
      </trkpt>
      <trkpt lat="43.55182" lon="6.32822">
        <ele>397.642456</ele>
        <time>2012-12-09T13:03:23Z</time>
      </trkpt>
      <trkpt lat="43.55192" lon="6.32838">
        <ele>398.123169</ele>
        <time>2012-12-09T13:03:37Z</time>
      </trkpt>
      <trkpt lat="43.55203" lon="6.32855">
        <ele>398.60376</ele>
        <time>2012-12-09T13:03:51Z</time>
      </trkpt>
      <trkpt lat="43.55209" lon="6.32861">
        <ele>398.60376</ele>
        <time>2012-12-09T13:03:57Z</time>
      </trkpt>
      <trkpt lat="43.55213" lon="6.32867">
        <ele>399.084351</ele>
        <time>2012-12-09T13:04:03Z</time>
      </trkpt>
      <trkpt lat="43.55216" lon="6.32868">
        <ele>395.719849</ele>
        <time>2012-12-09T13:04:05Z</time>
      </trkpt>
      <trkpt lat="43.55216" lon="6.32869">
        <ele>400.045898</ele>
        <time>2012-12-09T13:04:06Z</time>
      </trkpt>
      <trkpt lat="43.55219" lon="6.32874">
        <ele>394.277954</ele>
        <time>2012-12-09T13:04:12Z</time>
      </trkpt>
      <trkpt lat="43.55219" lon="6.32875">
        <ele>399.565063</ele>
        <time>2012-12-09T13:04:13Z</time>
      </trkpt>
      <trkpt lat="43.55225" lon="6.32882">
        <ele>399.565063</ele>
        <time>2012-12-09T13:04:20Z</time>
      </trkpt>
      <trkpt lat="43.5523" lon="6.32908">
        <ele>400.045898</ele>
        <time>2012-12-09T13:04:37Z</time>
      </trkpt>
      <trkpt lat="43.5523" lon="6.32915">
        <ele>400.045898</ele>
        <time>2012-12-09T13:04:41Z</time>
      </trkpt>
      <trkpt lat="43.55234" lon="6.32919">
        <ele>400.045898</ele>
        <time>2012-12-09T13:04:45Z</time>
      </trkpt>
      <trkpt lat="43.55247" lon="6.32941">
        <ele>400.526489</ele>
        <time>2012-12-09T13:05:01Z</time>
      </trkpt>
      <trkpt lat="43.55251" lon="6.32962">
        <ele>400.526489</ele>
        <time>2012-12-09T13:05:15Z</time>
      </trkpt>
      <trkpt lat="43.55259" lon="6.32982">
        <ele>400.526489</ele>
        <time>2012-12-09T13:05:30Z</time>
      </trkpt>
      <trkpt lat="43.55264" lon="6.32999">
        <ele>400.526489</ele>
        <time>2012-12-09T13:05:42Z</time>
      </trkpt>
      <trkpt lat="43.55267" lon="6.33023">
        <ele>401.00708</ele>
        <time>2012-12-09T13:05:59Z</time>
      </trkpt>
      <trkpt lat="43.55276" lon="6.33055">
        <ele>401.968506</ele>
        <time>2012-12-09T13:06:22Z</time>
      </trkpt>
      <trkpt lat="43.55282" lon="6.33073">
        <ele>401.968506</ele>
        <time>2012-12-09T13:06:37Z</time>
      </trkpt>
      <trkpt lat="43.55284" lon="6.33099">
        <ele>401.968506</ele>
        <time>2012-12-09T13:06:54Z</time>
      </trkpt>
      <trkpt lat="43.55294" lon="6.33115">
        <ele>401.487793</ele>
        <time>2012-12-09T13:07:12Z</time>
      </trkpt>
      <trkpt lat="43.55296" lon="6.33138">
        <ele>399.565063</ele>
        <time>2012-12-09T13:07:32Z</time>
      </trkpt>
      <trkpt lat="43.55302" lon="6.33165">
        <ele>397.161743</ele>
        <time>2012-12-09T13:07:51Z</time>
      </trkpt>
      <trkpt lat="43.55308" lon="6.33166">
        <ele>397.161743</ele>
        <time>2012-12-09T13:07:57Z</time>
      </trkpt>
      <trkpt lat="43.55315" lon="6.33177">
        <ele>395.719849</ele>
        <time>2012-12-09T13:08:20Z</time>
      </trkpt>
      <trkpt lat="43.55316" lon="6.33191">
        <ele>396.200562</ele>
        <time>2012-12-09T13:08:39Z</time>
      </trkpt>
      <trkpt lat="43.55315" lon="6.33211">
        <ele>396.200562</ele>
        <time>2012-12-09T13:09:23Z</time>
      </trkpt>
      <trkpt lat="43.55313" lon="6.33241">
        <ele>398.123169</ele>
        <time>2012-12-09T13:09:46Z</time>
      </trkpt>
      <trkpt lat="43.55308" lon="6.33258">
        <ele>399.565063</ele>
        <time>2012-12-09T13:10:00Z</time>
      </trkpt>
      <trkpt lat="43.55306" lon="6.33275">
        <ele>401.00708</ele>
        <time>2012-12-09T13:10:15Z</time>
      </trkpt>
      <trkpt lat="43.553" lon="6.33309">
        <ele>401.968506</ele>
        <time>2012-12-09T13:10:43Z</time>
      </trkpt>
      <trkpt lat="43.55305" lon="6.33335">
        <ele>401.487793</ele>
        <time>2012-12-09T13:11:08Z</time>
      </trkpt>
      <trkpt lat="43.55313" lon="6.33358">
        <ele>399.565063</ele>
        <time>2012-12-09T13:11:34Z</time>
      </trkpt>
      <trkpt lat="43.55318" lon="6.33378">
        <ele>399.084351</ele>
        <time>2012-12-09T13:11:49Z</time>
      </trkpt>
      <trkpt lat="43.55329" lon="6.33395">
        <ele>398.123169</ele>
        <time>2012-12-09T13:12:05Z</time>
      </trkpt>
      <trkpt lat="43.55333" lon="6.33426">
        <ele>395.719849</ele>
        <time>2012-12-09T13:12:28Z</time>
      </trkpt>
      <trkpt lat="43.55331" lon="6.33452">
        <ele>394.277954</ele>
        <time>2012-12-09T13:12:49Z</time>
      </trkpt>
      <trkpt lat="43.55326" lon="6.3346">
        <ele>392.835938</ele>
        <time>2012-12-09T13:13:04Z</time>
      </trkpt>
      <trkpt lat="43.55319" lon="6.33471">
        <ele>391.874512</ele>
        <time>2012-12-09T13:13:51Z</time>
      </trkpt>
      <trkpt lat="43.55318" lon="6.33475">
        <ele>391.874512</ele>
        <time>2012-12-09T13:13:54Z</time>
      </trkpt>
      <trkpt lat="43.55317" lon="6.33493">
        <ele>391.874512</ele>
        <time>2012-12-09T13:14:07Z</time>
      </trkpt>
      <trkpt lat="43.55317" lon="6.33514">
        <ele>391.393799</ele>
        <time>2012-12-09T13:14:21Z</time>
      </trkpt>
      <trkpt lat="43.55319" lon="6.33534">
        <ele>389.951904</ele>
        <time>2012-12-09T13:14:37Z</time>
      </trkpt>
      <trkpt lat="43.55316" lon="6.33565">
        <ele>387.067993</ele>
        <time>2012-12-09T13:15:00Z</time>
      </trkpt>
      <trkpt lat="43.55314" lon="6.33576">
        <ele>386.587402</ele>
        <time>2012-12-09T13:15:06Z</time>
      </trkpt>
      <trkpt lat="43.55307" lon="6.33592">
        <ele>385.145386</ele>
        <time>2012-12-09T13:15:21Z</time>
      </trkpt>
      <trkpt lat="43.55303" lon="6.33605">
        <ele>384.184082</ele>
        <time>2012-12-09T13:15:31Z</time>
      </trkpt>
      <trkpt lat="43.55302" lon="6.33627">
        <ele>382.261353</ele>
        <time>2012-12-09T13:15:47Z</time>
      </trkpt>
      <trkpt lat="43.55301" lon="6.33631">
        <ele>382.261353</ele>
        <time>2012-12-09T13:15:49Z</time>
      </trkpt>
      <trkpt lat="43.5529" lon="6.33648">
        <ele>380.338745</ele>
        <time>2012-12-09T13:16:05Z</time>
      </trkpt>
      <trkpt lat="43.55289" lon="6.33653">
        <ele>379.858032</ele>
        <time>2012-12-09T13:16:08Z</time>
      </trkpt>
      <trkpt lat="43.55284" lon="6.33672">
        <ele>377.454834</ele>
        <time>2012-12-09T13:16:22Z</time>
      </trkpt>
      <trkpt lat="43.55275" lon="6.33696">
        <ele>375.051514</ele>
        <time>2012-12-09T13:16:41Z</time>
      </trkpt>
      <trkpt lat="43.55266" lon="6.33708">
        <ele>373.609497</ele>
        <time>2012-12-09T13:16:52Z</time>
      </trkpt>
      <trkpt lat="43.55257" lon="6.33702">
        <ele>373.128906</ele>
        <time>2012-12-09T13:17:02Z</time>
      </trkpt>
      <trkpt lat="43.55244" lon="6.33707">
        <ele>371.68689</ele>
        <time>2012-12-09T13:17:16Z</time>
      </trkpt>
      <trkpt lat="43.55243" lon="6.33708">
        <ele>371.68689</ele>
        <time>2012-12-09T13:17:17Z</time>
      </trkpt>
      <trkpt lat="43.5524" lon="6.33714">
        <ele>371.68689</ele>
        <time>2012-12-09T13:17:22Z</time>
      </trkpt>
      <trkpt lat="43.55237" lon="6.33724">
        <ele>371.68689</ele>
        <time>2012-12-09T13:17:28Z</time>
      </trkpt>
      <trkpt lat="43.55225" lon="6.33739">
        <ele>370.725586</ele>
        <time>2012-12-09T13:17:43Z</time>
      </trkpt>
      <trkpt lat="43.55224" lon="6.33739">
        <ele>370.725586</ele>
        <time>2012-12-09T13:17:44Z</time>
      </trkpt>
      <trkpt lat="43.55209" lon="6.33751">
        <ele>370.244873</ele>
        <time>2012-12-09T13:17:59Z</time>
      </trkpt>
      <trkpt lat="43.55194" lon="6.33765">
        <ele>369.764282</ele>
        <time>2012-12-09T13:18:15Z</time>
      </trkpt>
      <trkpt lat="43.5519" lon="6.33768">
        <ele>369.283691</ele>
        <time>2012-12-09T13:18:19Z</time>
      </trkpt>
      <trkpt lat="43.55174" lon="6.3378">
        <ele>368.322266</ele>
        <time>2012-12-09T13:18:34Z</time>
      </trkpt>
      <trkpt lat="43.55165" lon="6.33782">
        <ele>368.322266</ele>
        <time>2012-12-09T13:18:43Z</time>
      </trkpt>
      <trkpt lat="43.5516" lon="6.33784">
        <ele>367.841553</ele>
        <time>2012-12-09T13:19:03Z</time>
      </trkpt>
      <trkpt lat="43.55154" lon="6.33781">
        <ele>365.438354</ele>
        <time>2012-12-09T13:19:20Z</time>
      </trkpt>
      <trkpt lat="43.55143" lon="6.33775">
        <ele>364.476929</ele>
        <time>2012-12-09T13:19:28Z</time>
      </trkpt>
      <trkpt lat="43.55134" lon="6.33786">
        <ele>364.476929</ele>
        <time>2012-12-09T13:19:43Z</time>
      </trkpt>
      <trkpt lat="43.55129" lon="6.33791">
        <ele>364.476929</ele>
        <time>2012-12-09T13:20:02Z</time>
      </trkpt>
      <trkpt lat="43.55136" lon="6.3381">
        <ele>363.996338</ele>
        <time>2012-12-09T13:21:03Z</time>
      </trkpt>
      <trkpt lat="43.55139" lon="6.33822">
        <ele>363.996338</ele>
        <time>2012-12-09T13:21:12Z</time>
      </trkpt>
      <trkpt lat="43.55145" lon="6.33833">
        <ele>363.996338</ele>
        <time>2012-12-09T13:21:20Z</time>
      </trkpt>
      <trkpt lat="43.55145" lon="6.33835">
        <ele>363.996338</ele>
        <time>2012-12-09T13:21:22Z</time>
      </trkpt>
      <trkpt lat="43.55153" lon="6.33847">
        <ele>363.996338</ele>
        <time>2012-12-09T13:21:31Z</time>
      </trkpt>
      <trkpt lat="43.55159" lon="6.33863">
        <ele>363.515747</ele>
        <time>2012-12-09T13:21:43Z</time>
      </trkpt>
      <trkpt lat="43.55157" lon="6.33889">
        <ele>363.515747</ele>
        <time>2012-12-09T13:22:00Z</time>
      </trkpt>
      <trkpt lat="43.55152" lon="6.33905">
        <ele>362.554321</ele>
        <time>2012-12-09T13:22:10Z</time>
      </trkpt>
      <trkpt lat="43.5515" lon="6.33931">
        <ele>362.07373</ele>
        <time>2012-12-09T13:22:26Z</time>
      </trkpt>
      <trkpt lat="43.55147" lon="6.33957">
        <ele>361.112427</ele>
        <time>2012-12-09T13:22:45Z</time>
      </trkpt>
      <trkpt lat="43.55147" lon="6.33957">
        <ele>364.476929</ele>
        <time>2012-12-09T13:22:46Z</time>
      </trkpt>
      <trkpt lat="43.55146" lon="6.33962">
        <ele>361.112427</ele>
        <time>2012-12-09T13:22:49Z</time>
      </trkpt>
      <trkpt lat="43.55144" lon="6.33966">
        <ele>361.59314</ele>
        <time>2012-12-09T13:22:54Z</time>
      </trkpt>
      <trkpt lat="43.55138" lon="6.33977">
        <ele>361.59314</ele>
        <time>2012-12-09T13:23:03Z</time>
      </trkpt>
      <trkpt lat="43.55137" lon="6.33979">
        <ele>361.59314</ele>
        <time>2012-12-09T13:23:05Z</time>
      </trkpt>
      <trkpt lat="43.55136" lon="6.33991">
        <ele>361.112427</ele>
        <time>2012-12-09T13:23:13Z</time>
      </trkpt>
      <trkpt lat="43.55136" lon="6.34013">
        <ele>361.112427</ele>
        <time>2012-12-09T13:23:28Z</time>
      </trkpt>
      <trkpt lat="43.5514" lon="6.34037">
        <ele>361.112427</ele>
        <time>2012-12-09T13:23:45Z</time>
      </trkpt>
      <trkpt lat="43.55144" lon="6.34069">
        <ele>360.631714</ele>
        <time>2012-12-09T13:24:03Z</time>
      </trkpt>
      <trkpt lat="43.55148" lon="6.34087">
        <ele>360.631714</ele>
        <time>2012-12-09T13:24:13Z</time>
      </trkpt>
      <trkpt lat="43.55146" lon="6.34107">
        <ele>360.151123</ele>
        <time>2012-12-09T13:24:27Z</time>
      </trkpt>
      <trkpt lat="43.55144" lon="6.34131">
        <ele>360.631714</ele>
        <time>2012-12-09T13:24:47Z</time>
      </trkpt>
      <trkpt lat="43.55143" lon="6.34158">
        <ele>360.151123</ele>
        <time>2012-12-09T13:25:04Z</time>
      </trkpt>
      <trkpt lat="43.55136" lon="6.34177">
        <ele>359.189697</ele>
        <time>2012-12-09T13:25:17Z</time>
      </trkpt>
      <trkpt lat="43.5513" lon="6.34199">
        <ele>358.708984</ele>
        <time>2012-12-09T13:25:32Z</time>
      </trkpt>
      <trkpt lat="43.55129" lon="6.34202">
        <ele>359.189697</ele>
        <time>2012-12-09T13:25:35Z</time>
      </trkpt>
      <trkpt lat="43.55127" lon="6.34213">
        <ele>358.228394</ele>
        <time>2012-12-09T13:25:47Z</time>
      </trkpt>
      <trkpt lat="43.55124" lon="6.34214">
        <ele>358.228394</ele>
        <time>2012-12-09T13:26:01Z</time>
      </trkpt>
      <trkpt lat="43.55119" lon="6.34213">
        <ele>358.228394</ele>
        <time>2012-12-09T13:26:06Z</time>
      </trkpt>
      <trkpt lat="43.5511" lon="6.34209">
        <ele>358.708984</ele>
        <time>2012-12-09T13:26:16Z</time>
      </trkpt>
      <trkpt lat="43.55092" lon="6.34206">
        <ele>360.151123</ele>
        <time>2012-12-09T13:26:31Z</time>
      </trkpt>
      <trkpt lat="43.55077" lon="6.34212">
        <ele>361.59314</ele>
        <time>2012-12-09T13:26:52Z</time>
      </trkpt>
      <trkpt lat="43.55072" lon="6.34221">
        <ele>361.59314</ele>
        <time>2012-12-09T13:27:06Z</time>
      </trkpt>
      <trkpt lat="43.55071" lon="6.34221">
        <ele>361.59314</ele>
        <time>2012-12-09T13:27:07Z</time>
      </trkpt>
      <trkpt lat="43.55067" lon="6.34224">
        <ele>361.59314</ele>
        <time>2012-12-09T13:27:12Z</time>
      </trkpt>
      <trkpt lat="43.55053" lon="6.34233">
        <ele>362.07373</ele>
        <time>2012-12-09T13:27:27Z</time>
      </trkpt>
      <trkpt lat="43.55039" lon="6.34242">
        <ele>361.112427</ele>
        <time>2012-12-09T13:27:40Z</time>
      </trkpt>
      <trkpt lat="43.55024" lon="6.34252">
        <ele>361.112427</ele>
        <time>2012-12-09T13:27:54Z</time>
      </trkpt>
      <trkpt lat="43.55012" lon="6.34261">
        <ele>359.67041</ele>
        <time>2012-12-09T13:28:05Z</time>
      </trkpt>
      <trkpt lat="43.55008" lon="6.34263">
        <ele>359.67041</ele>
        <time>2012-12-09T13:28:08Z</time>
      </trkpt>
      <trkpt lat="43.54989" lon="6.34271">
        <ele>359.67041</ele>
        <time>2012-12-09T13:28:24Z</time>
      </trkpt>
      <trkpt lat="43.54977" lon="6.34281">
        <ele>359.189697</ele>
        <time>2012-12-09T13:28:36Z</time>
      </trkpt>
      <trkpt lat="43.54964" lon="6.34288">
        <ele>360.151123</ele>
        <time>2012-12-09T13:28:49Z</time>
      </trkpt>
      <trkpt lat="43.54957" lon="6.34288">
        <ele>360.631714</ele>
        <time>2012-12-09T13:28:56Z</time>
      </trkpt>
      <trkpt lat="43.54952" lon="6.34282">
        <ele>360.631714</ele>
        <time>2012-12-09T13:29:11Z</time>
      </trkpt>
      <trkpt lat="43.5494" lon="6.34283">
        <ele>360.631714</ele>
        <time>2012-12-09T13:29:32Z</time>
      </trkpt>
      <trkpt lat="43.54922" lon="6.34299">
        <ele>359.67041</ele>
        <time>2012-12-09T13:30:03Z</time>
      </trkpt>
      <trkpt lat="43.5491" lon="6.34309">
        <ele>359.189697</ele>
        <time>2012-12-09T13:30:15Z</time>
      </trkpt>
      <trkpt lat="43.54889" lon="6.34315">
        <ele>357.26709</ele>
        <time>2012-12-09T13:30:37Z</time>
      </trkpt>
      <trkpt lat="43.54876" lon="6.34328">
        <ele>356.305786</ele>
        <time>2012-12-09T13:30:52Z</time>
      </trkpt>
      <trkpt lat="43.54863" lon="6.3434">
        <ele>354.86377</ele>
        <time>2012-12-09T13:31:09Z</time>
      </trkpt>
      <trkpt lat="43.54863" lon="6.34341">
        <ele>354.86377</ele>
        <time>2012-12-09T13:31:10Z</time>
      </trkpt>
      <trkpt lat="43.54863" lon="6.34359">
        <ele>354.383179</ele>
        <time>2012-12-09T13:31:24Z</time>
      </trkpt>
      <trkpt lat="43.54852" lon="6.34379">
        <ele>352.941162</ele>
        <time>2012-12-09T13:31:42Z</time>
      </trkpt>
      <trkpt lat="43.54845" lon="6.34386">
        <ele>352.941162</ele>
        <time>2012-12-09T13:31:50Z</time>
      </trkpt>
      <trkpt lat="43.54843" lon="6.34388">
        <ele>352.460571</ele>
        <time>2012-12-09T13:31:52Z</time>
      </trkpt>
      <trkpt lat="43.54824" lon="6.34391">
        <ele>352.941162</ele>
        <time>2012-12-09T13:32:11Z</time>
      </trkpt>
      <trkpt lat="43.54813" lon="6.34392">
        <ele>352.941162</ele>
        <time>2012-12-09T13:32:20Z</time>
      </trkpt>
      <trkpt lat="43.54799" lon="6.34403">
        <ele>352.941162</ele>
        <time>2012-12-09T13:32:35Z</time>
      </trkpt>
      <trkpt lat="43.54792" lon="6.34406">
        <ele>352.460571</ele>
        <time>2012-12-09T13:32:41Z</time>
      </trkpt>
      <trkpt lat="43.54771" lon="6.34402">
        <ele>351.018433</ele>
        <time>2012-12-09T13:33:02Z</time>
      </trkpt>
      <trkpt lat="43.54753" lon="6.34389">
        <ele>351.018433</ele>
        <time>2012-12-09T13:33:23Z</time>
      </trkpt>
      <trkpt lat="43.54729" lon="6.34381">
        <ele>351.979858</ele>
        <time>2012-12-09T13:33:47Z</time>
      </trkpt>
      <trkpt lat="43.54706" lon="6.34365">
        <ele>353.902588</ele>
        <time>2012-12-09T13:34:10Z</time>
      </trkpt>
      <trkpt lat="43.54682" lon="6.34352">
        <ele>355.344482</ele>
        <time>2012-12-09T13:34:32Z</time>
      </trkpt>
      <trkpt lat="43.54666" lon="6.34337">
        <ele>355.825195</ele>
        <time>2012-12-09T13:34:52Z</time>
      </trkpt>
      <trkpt lat="43.5465" lon="6.34318">
        <ele>355.825195</ele>
        <time>2012-12-09T13:35:11Z</time>
      </trkpt>
      <trkpt lat="43.54637" lon="6.34299">
        <ele>355.344482</ele>
        <time>2012-12-09T13:35:32Z</time>
      </trkpt>
      <trkpt lat="43.54619" lon="6.34285">
        <ele>353.902588</ele>
        <time>2012-12-09T13:35:53Z</time>
      </trkpt>
      <trkpt lat="43.54593" lon="6.34277">
        <ele>353.421875</ele>
        <time>2012-12-09T13:36:17Z</time>
      </trkpt>
      <trkpt lat="43.54572" lon="6.34265">
        <ele>353.902588</ele>
        <time>2012-12-09T13:36:36Z</time>
      </trkpt>
      <trkpt lat="43.54551" lon="6.34267">
        <ele>351.979858</ele>
        <time>2012-12-09T13:36:55Z</time>
      </trkpt>
      <trkpt lat="43.54533" lon="6.3428">
        <ele>350.537842</ele>
        <time>2012-12-09T13:37:11Z</time>
      </trkpt>
      <trkpt lat="43.5451" lon="6.34293">
        <ele>350.057251</ele>
        <time>2012-12-09T13:37:31Z</time>
      </trkpt>
      <trkpt lat="43.54507" lon="6.34293">
        <ele>350.057251</ele>
        <time>2012-12-09T13:37:33Z</time>
      </trkpt>
      <trkpt lat="43.545" lon="6.34278">
        <ele>350.537842</ele>
        <time>2012-12-09T13:37:46Z</time>
      </trkpt>
      <trkpt lat="43.54505" lon="6.34269">
        <ele>350.057251</ele>
        <time>2012-12-09T13:37:53Z</time>
      </trkpt>
      <trkpt lat="43.54498" lon="6.3426">
        <ele>350.057251</ele>
        <time>2012-12-09T13:38:10Z</time>
      </trkpt>
      <trkpt lat="43.54499" lon="6.34261">
        <ele>350.057251</ele>
        <time>2012-12-09T13:38:48Z</time>
      </trkpt>
      <trkpt lat="43.54491" lon="6.34252">
        <ele>350.537842</ele>
        <time>2012-12-09T13:39:32Z</time>
      </trkpt>
      <trkpt lat="43.54487" lon="6.34239">
        <ele>351.018433</ele>
        <time>2012-12-09T13:39:45Z</time>
      </trkpt>
      <trkpt lat="43.54487" lon="6.34233">
        <ele>351.499146</ele>
        <time>2012-12-09T13:39:48Z</time>
      </trkpt>
      <trkpt lat="43.54482" lon="6.34233">
        <ele>351.979858</ele>
        <time>2012-12-09T13:39:58Z</time>
      </trkpt>
      <trkpt lat="43.54478" lon="6.34244">
        <ele>351.979858</ele>
        <time>2012-12-09T13:40:06Z</time>
      </trkpt>
      <trkpt lat="43.54467" lon="6.34261">
        <ele>352.460571</ele>
        <time>2012-12-09T13:40:21Z</time>
      </trkpt>
      <trkpt lat="43.54453" lon="6.34276">
        <ele>352.941162</ele>
        <time>2012-12-09T13:40:36Z</time>
      </trkpt>
      <trkpt lat="43.54447" lon="6.3428">
        <ele>353.421875</ele>
        <time>2012-12-09T13:40:42Z</time>
      </trkpt>
      <trkpt lat="43.54436" lon="6.34279">
        <ele>353.421875</ele>
        <time>2012-12-09T13:40:52Z</time>
      </trkpt>
      <trkpt lat="43.54421" lon="6.34286">
        <ele>352.941162</ele>
        <time>2012-12-09T13:41:06Z</time>
      </trkpt>
      <trkpt lat="43.54407" lon="6.34289">
        <ele>352.941162</ele>
        <time>2012-12-09T13:41:19Z</time>
      </trkpt>
      <trkpt lat="43.54388" lon="6.34297">
        <ele>351.499146</ele>
        <time>2012-12-09T13:41:34Z</time>
      </trkpt>
      <trkpt lat="43.54371" lon="6.34303">
        <ele>351.499146</ele>
        <time>2012-12-09T13:41:48Z</time>
      </trkpt>
      <trkpt lat="43.54357" lon="6.34316">
        <ele>351.499146</ele>
        <time>2012-12-09T13:42:01Z</time>
      </trkpt>
      <trkpt lat="43.54346" lon="6.34323">
        <ele>351.499146</ele>
        <time>2012-12-09T13:42:12Z</time>
      </trkpt>
      <trkpt lat="43.54342" lon="6.34322">
        <ele>351.499146</ele>
        <time>2012-12-09T13:42:16Z</time>
      </trkpt>
      <trkpt lat="43.54334" lon="6.34327">
        <ele>351.979858</ele>
        <time>2012-12-09T13:42:23Z</time>
      </trkpt>
      <trkpt lat="43.5432" lon="6.34317">
        <ele>353.421875</ele>
        <time>2012-12-09T13:42:38Z</time>
      </trkpt>
      <trkpt lat="43.54312" lon="6.34297">
        <ele>354.383179</ele>
        <time>2012-12-09T13:42:52Z</time>
      </trkpt>
      <trkpt lat="43.54305" lon="6.34284">
        <ele>354.86377</ele>
        <time>2012-12-09T13:43:04Z</time>
      </trkpt>
      <trkpt lat="43.54291" lon="6.34275">
        <ele>354.86377</ele>
        <time>2012-12-09T13:43:18Z</time>
      </trkpt>
      <trkpt lat="43.54269" lon="6.34267">
        <ele>354.383179</ele>
        <time>2012-12-09T13:43:34Z</time>
      </trkpt>
      <trkpt lat="43.54255" lon="6.34268">
        <ele>352.941162</ele>
        <time>2012-12-09T13:43:48Z</time>
      </trkpt>
      <trkpt lat="43.54252" lon="6.34272">
        <ele>353.421875</ele>
        <time>2012-12-09T13:43:52Z</time>
      </trkpt>
      <trkpt lat="43.54235" lon="6.34295">
        <ele>352.460571</ele>
        <time>2012-12-09T13:44:11Z</time>
      </trkpt>
      <trkpt lat="43.54222" lon="6.34311">
        <ele>352.460571</ele>
        <time>2012-12-09T13:44:24Z</time>
      </trkpt>
      <trkpt lat="43.54208" lon="6.34322">
        <ele>352.460571</ele>
        <time>2012-12-09T13:44:39Z</time>
      </trkpt>
      <trkpt lat="43.54204" lon="6.34321">
        <ele>352.460571</ele>
        <time>2012-12-09T13:44:43Z</time>
      </trkpt>
      <trkpt lat="43.54191" lon="6.34323">
        <ele>352.460571</ele>
        <time>2012-12-09T13:44:55Z</time>
      </trkpt>
      <trkpt lat="43.54178" lon="6.34325">
        <ele>353.421875</ele>
        <time>2012-12-09T13:45:06Z</time>
      </trkpt>
      <trkpt lat="43.54152" lon="6.34327">
        <ele>354.383179</ele>
        <time>2012-12-09T13:45:26Z</time>
      </trkpt>
      <trkpt lat="43.54128" lon="6.34314">
        <ele>354.86377</ele>
        <time>2012-12-09T13:45:48Z</time>
      </trkpt>
      <trkpt lat="43.54115" lon="6.3431">
        <ele>354.86377</ele>
        <time>2012-12-09T13:46:05Z</time>
      </trkpt>
      <trkpt lat="43.54098" lon="6.34312">
        <ele>355.344482</ele>
        <time>2012-12-09T13:46:26Z</time>
      </trkpt>
      <trkpt lat="43.54078" lon="6.34326">
        <ele>357.747803</ele>
        <time>2012-12-09T13:46:48Z</time>
      </trkpt>
      <trkpt lat="43.54066" lon="6.34341">
        <ele>358.228394</ele>
        <time>2012-12-09T13:47:00Z</time>
      </trkpt>
      <trkpt lat="43.54049" lon="6.34359">
        <ele>359.67041</ele>
        <time>2012-12-09T13:47:21Z</time>
      </trkpt>
      <trkpt lat="43.54024" lon="6.34374">
        <ele>361.112427</ele>
        <time>2012-12-09T13:47:46Z</time>
      </trkpt>
      <trkpt lat="43.54001" lon="6.34389">
        <ele>362.07373</ele>
        <time>2012-12-09T13:48:09Z</time>
      </trkpt>
      <trkpt lat="43.53998" lon="6.3439">
        <ele>362.07373</ele>
        <time>2012-12-09T13:48:11Z</time>
      </trkpt>
      <trkpt lat="43.53975" lon="6.34414">
        <ele>363.035034</ele>
        <time>2012-12-09T13:48:35Z</time>
      </trkpt>
      <trkpt lat="43.53957" lon="6.34433">
        <ele>363.035034</ele>
        <time>2012-12-09T13:48:53Z</time>
      </trkpt>
      <trkpt lat="43.53936" lon="6.3445">
        <ele>363.035034</ele>
        <time>2012-12-09T13:49:14Z</time>
      </trkpt>
      <trkpt lat="43.53918" lon="6.34467">
        <ele>363.035034</ele>
        <time>2012-12-09T13:49:34Z</time>
      </trkpt>
      <trkpt lat="43.53901" lon="6.34489">
        <ele>362.07373</ele>
        <time>2012-12-09T13:49:54Z</time>
      </trkpt>
      <trkpt lat="43.53881" lon="6.34516">
        <ele>361.59314</ele>
        <time>2012-12-09T13:50:16Z</time>
      </trkpt>
      <trkpt lat="43.5387" lon="6.34539">
        <ele>361.59314</ele>
        <time>2012-12-09T13:50:33Z</time>
      </trkpt>
      <trkpt lat="43.53855" lon="6.34564">
        <ele>361.112427</ele>
        <time>2012-12-09T13:50:54Z</time>
      </trkpt>
      <trkpt lat="43.53853" lon="6.34569">
        <ele>361.112427</ele>
        <time>2012-12-09T13:50:57Z</time>
      </trkpt>
      <trkpt lat="43.53851" lon="6.34578">
        <ele>361.112427</ele>
        <time>2012-12-09T13:51:01Z</time>
      </trkpt>
      <trkpt lat="43.53832" lon="6.346">
        <ele>360.151123</ele>
        <time>2012-12-09T13:51:22Z</time>
      </trkpt>
      <trkpt lat="43.5382" lon="6.34617">
        <ele>359.67041</ele>
        <time>2012-12-09T13:51:33Z</time>
      </trkpt>
      <trkpt lat="43.53813" lon="6.34635">
        <ele>359.189697</ele>
        <time>2012-12-09T13:51:45Z</time>
      </trkpt>
      <trkpt lat="43.53794" lon="6.34649">
        <ele>358.228394</ele>
        <time>2012-12-09T13:52:06Z</time>
      </trkpt>
      <trkpt lat="43.53787" lon="6.34667">
        <ele>357.747803</ele>
        <time>2012-12-09T13:52:22Z</time>
      </trkpt>
      <trkpt lat="43.5378" lon="6.3467">
        <ele>357.747803</ele>
        <time>2012-12-09T13:52:42Z</time>
      </trkpt>
      <trkpt lat="43.53788" lon="6.34678">
        <ele>359.67041</ele>
        <time>2012-12-09T13:56:54Z</time>
      </trkpt>
      <trkpt lat="43.53795" lon="6.34666">
        <ele>360.631714</ele>
        <time>2012-12-09T13:57:16Z</time>
      </trkpt>
      <trkpt lat="43.53794" lon="6.34647">
        <ele>357.747803</ele>
        <time>2012-12-09T13:58:18Z</time>
      </trkpt>
      <trkpt lat="43.53794" lon="6.34647">
        <ele>359.189697</ele>
        <time>2012-12-09T13:58:19Z</time>
      </trkpt>
      <trkpt lat="43.53793" lon="6.34648">
        <ele>364.476929</ele>
        <time>2012-12-09T13:58:21Z</time>
      </trkpt>
      <trkpt lat="43.53793" lon="6.34648">
        <ele>361.112427</ele>
        <time>2012-12-09T13:58:22Z</time>
      </trkpt>
      <trkpt lat="43.53794" lon="6.34659">
        <ele>360.151123</ele>
        <time>2012-12-09T13:58:42Z</time>
      </trkpt>
      <trkpt lat="43.53794" lon="6.34661">
        <ele>356.786377</ele>
        <time>2012-12-09T13:58:45Z</time>
      </trkpt>
      <trkpt lat="43.53794" lon="6.34662">
        <ele>360.631714</ele>
        <time>2012-12-09T13:58:49Z</time>
      </trkpt>
      <trkpt lat="43.53794" lon="6.34662">
        <ele>360.631714</ele>
        <time>2012-12-09T13:58:50Z</time>
      </trkpt>
      <trkpt lat="43.53792" lon="6.34672">
        <ele>359.67041</ele>
        <time>2012-12-09T13:59:12Z</time>
      </trkpt>
      <trkpt lat="43.53792" lon="6.34666">
        <ele>359.189697</ele>
        <time>2012-12-09T13:59:42Z</time>
      </trkpt>
      <trkpt lat="43.5379" lon="6.34679">
        <ele>358.228394</ele>
        <time>2012-12-09T14:00:01Z</time>
      </trkpt>
      <trkpt lat="43.53776" lon="6.34699">
        <ele>357.26709</ele>
        <time>2012-12-09T14:00:21Z</time>
      </trkpt>
      <trkpt lat="43.53771" lon="6.34707">
        <ele>355.825195</ele>
        <time>2012-12-09T14:00:30Z</time>
      </trkpt>
      <trkpt lat="43.53765" lon="6.34711">
        <ele>355.344482</ele>
        <time>2012-12-09T14:00:35Z</time>
      </trkpt>
      <trkpt lat="43.53751" lon="6.34722">
        <ele>353.902588</ele>
        <time>2012-12-09T14:00:48Z</time>
      </trkpt>
      <trkpt lat="43.53735" lon="6.34734">
        <ele>352.460571</ele>
        <time>2012-12-09T14:01:03Z</time>
      </trkpt>
      <trkpt lat="43.53713" lon="6.34745">
        <ele>351.499146</ele>
        <time>2012-12-09T14:01:20Z</time>
      </trkpt>
      <trkpt lat="43.53698" lon="6.34751">
        <ele>350.537842</ele>
        <time>2012-12-09T14:01:33Z</time>
      </trkpt>
      <trkpt lat="43.53695" lon="6.34752">
        <ele>350.537842</ele>
        <time>2012-12-09T14:01:36Z</time>
      </trkpt>
      <trkpt lat="43.5369" lon="6.34752">
        <ele>350.537842</ele>
        <time>2012-12-09T14:01:40Z</time>
      </trkpt>
      <trkpt lat="43.53688" lon="6.34754">
        <ele>350.057251</ele>
        <time>2012-12-09T14:01:43Z</time>
      </trkpt>
      <trkpt lat="43.53673" lon="6.34767">
        <ele>349.095825</ele>
        <time>2012-12-09T14:01:57Z</time>
      </trkpt>
      <trkpt lat="43.53672" lon="6.3477">
        <ele>349.095825</ele>
        <time>2012-12-09T14:01:59Z</time>
      </trkpt>
      <trkpt lat="43.53658" lon="6.34779">
        <ele>348.134644</ele>
        <time>2012-12-09T14:02:14Z</time>
      </trkpt>
      <trkpt lat="43.5365" lon="6.34788">
        <ele>347.653931</ele>
        <time>2012-12-09T14:02:26Z</time>
      </trkpt>
      <trkpt lat="43.53651" lon="6.34792">
        <ele>347.653931</ele>
        <time>2012-12-09T14:02:38Z</time>
      </trkpt>
      <trkpt lat="43.53645" lon="6.34802">
        <ele>346.692627</ele>
        <time>2012-12-09T14:02:46Z</time>
      </trkpt>
      <trkpt lat="43.5364" lon="6.3481">
        <ele>346.692627</ele>
        <time>2012-12-09T14:02:53Z</time>
      </trkpt>
      <trkpt lat="43.53633" lon="6.34823">
        <ele>345.25061</ele>
        <time>2012-12-09T14:03:08Z</time>
      </trkpt>
      <trkpt lat="43.53626" lon="6.34836">
        <ele>344.289429</ele>
        <time>2012-12-09T14:03:18Z</time>
      </trkpt>
      <trkpt lat="43.53603" lon="6.3485">
        <ele>343.327881</ele>
        <time>2012-12-09T14:03:38Z</time>
      </trkpt>
      <trkpt lat="43.53591" lon="6.34867">
        <ele>342.84729</ele>
        <time>2012-12-09T14:03:56Z</time>
      </trkpt>
      <trkpt lat="43.53585" lon="6.34873">
        <ele>343.808594</ele>
        <time>2012-12-09T14:04:00Z</time>
      </trkpt>
      <trkpt lat="43.5358" lon="6.34885">
        <ele>342.84729</ele>
        <time>2012-12-09T14:04:08Z</time>
      </trkpt>
      <trkpt lat="43.53578" lon="6.34898">
        <ele>341.405273</ele>
        <time>2012-12-09T14:04:21Z</time>
      </trkpt>
      <trkpt lat="43.53571" lon="6.34917">
        <ele>340.924683</ele>
        <time>2012-12-09T14:04:36Z</time>
      </trkpt>
      <trkpt lat="43.53562" lon="6.34925">
        <ele>339.963379</ele>
        <time>2012-12-09T14:04:50Z</time>
      </trkpt>
      <trkpt lat="43.53548" lon="6.3493">
        <ele>338.521484</ele>
        <time>2012-12-09T14:05:03Z</time>
      </trkpt>
      <trkpt lat="43.53533" lon="6.34942">
        <ele>337.560059</ele>
        <time>2012-12-09T14:05:23Z</time>
      </trkpt>
      <trkpt lat="43.5352" lon="6.34937">
        <ele>336.598877</ele>
        <time>2012-12-09T14:05:40Z</time>
      </trkpt>
      <trkpt lat="43.53501" lon="6.34945">
        <ele>336.118164</ele>
        <time>2012-12-09T14:06:00Z</time>
      </trkpt>
      <trkpt lat="43.53493" lon="6.34943">
        <ele>336.118164</ele>
        <time>2012-12-09T14:06:22Z</time>
      </trkpt>
      <trkpt lat="43.53492" lon="6.34956">
        <ele>335.637329</ele>
        <time>2012-12-09T14:06:42Z</time>
      </trkpt>
      <trkpt lat="43.53485" lon="6.34952">
        <ele>335.156738</ele>
        <time>2012-12-09T14:07:01Z</time>
      </trkpt>
      <trkpt lat="43.53472" lon="6.34962">
        <ele>334.676147</ele>
        <time>2012-12-09T14:07:19Z</time>
      </trkpt>
      <trkpt lat="43.5346" lon="6.34972">
        <ele>334.195435</ele>
        <time>2012-12-09T14:07:47Z</time>
      </trkpt>
      <trkpt lat="43.53448" lon="6.34978">
        <ele>333.714722</ele>
        <time>2012-12-09T14:08:08Z</time>
      </trkpt>
      <trkpt lat="43.53441" lon="6.34961">
        <ele>333.714722</ele>
        <time>2012-12-09T14:08:26Z</time>
      </trkpt>
      <trkpt lat="43.53428" lon="6.34942">
        <ele>333.714722</ele>
        <time>2012-12-09T14:08:46Z</time>
      </trkpt>
      <trkpt lat="43.53426" lon="6.34939">
        <ele>333.234131</ele>
        <time>2012-12-09T14:08:48Z</time>
      </trkpt>
      <trkpt lat="43.53415" lon="6.34922">
        <ele>332.272827</ele>
        <time>2012-12-09T14:09:06Z</time>
      </trkpt>
      <trkpt lat="43.53397" lon="6.34914">
        <ele>331.792114</ele>
        <time>2012-12-09T14:09:24Z</time>
      </trkpt>
      <trkpt lat="43.53381" lon="6.34903">
        <ele>331.311523</ele>
        <time>2012-12-09T14:09:46Z</time>
      </trkpt>
      <trkpt lat="43.53377" lon="6.34907">
        <ele>331.311523</ele>
        <time>2012-12-09T14:10:04Z</time>
      </trkpt>
      <trkpt lat="43.53373" lon="6.34894">
        <ele>330.35022</ele>
        <time>2012-12-09T14:10:28Z</time>
      </trkpt>
      <trkpt lat="43.53367" lon="6.34904">
        <ele>330.35022</ele>
        <time>2012-12-09T14:10:46Z</time>
      </trkpt>
      <trkpt lat="43.53363" lon="6.34907">
        <ele>329.869507</ele>
        <time>2012-12-09T14:11:04Z</time>
      </trkpt>
      <trkpt lat="43.53367" lon="6.3491">
        <ele>329.869507</ele>
        <time>2012-12-09T14:11:41Z</time>
      </trkpt>
      <trkpt lat="43.53378" lon="6.34908">
        <ele>330.35022</ele>
        <time>2012-12-09T14:11:58Z</time>
      </trkpt>
      <trkpt lat="43.53389" lon="6.34916">
        <ele>330.35022</ele>
        <time>2012-12-09T14:12:15Z</time>
      </trkpt>
      <trkpt lat="43.53407" lon="6.34929">
        <ele>330.830933</ele>
        <time>2012-12-09T14:12:35Z</time>
      </trkpt>
      <trkpt lat="43.5342" lon="6.34938">
        <ele>331.792114</ele>
        <time>2012-12-09T14:12:55Z</time>
      </trkpt>
      <trkpt lat="43.53433" lon="6.34953">
        <ele>332.272827</ele>
        <time>2012-12-09T14:13:15Z</time>
      </trkpt>
      <trkpt lat="43.53441" lon="6.34968">
        <ele>331.792114</ele>
        <time>2012-12-09T14:13:37Z</time>
      </trkpt>
      <trkpt lat="43.53454" lon="6.34984">
        <ele>331.311523</ele>
        <time>2012-12-09T14:13:59Z</time>
      </trkpt>
      <trkpt lat="43.53468" lon="6.34998">
        <ele>330.830933</ele>
        <time>2012-12-09T14:14:16Z</time>
      </trkpt>
      <trkpt lat="43.53479" lon="6.35015">
        <ele>330.35022</ele>
        <time>2012-12-09T14:14:34Z</time>
      </trkpt>
      <trkpt lat="43.53491" lon="6.35018">
        <ele>330.35022</ele>
        <time>2012-12-09T14:14:52Z</time>
      </trkpt>
      <trkpt lat="43.53507" lon="6.34999">
        <ele>330.35022</ele>
        <time>2012-12-09T14:15:09Z</time>
      </trkpt>
      <trkpt lat="43.53511" lon="6.34991">
        <ele>330.35022</ele>
        <time>2012-12-09T14:15:28Z</time>
      </trkpt>
      <trkpt lat="43.53526" lon="6.34991">
        <ele>331.311523</ele>
        <time>2012-12-09T14:15:46Z</time>
      </trkpt>
      <trkpt lat="43.53529" lon="6.34992">
        <ele>331.311523</ele>
        <time>2012-12-09T14:15:49Z</time>
      </trkpt>
      <trkpt lat="43.53548" lon="6.35002">
        <ele>331.311523</ele>
        <time>2012-12-09T14:16:06Z</time>
      </trkpt>
      <trkpt lat="43.53566" lon="6.35013">
        <ele>330.35022</ele>
        <time>2012-12-09T14:16:21Z</time>
      </trkpt>
      <trkpt lat="43.5358" lon="6.35034">
        <ele>328.427612</ele>
        <time>2012-12-09T14:16:36Z</time>
      </trkpt>
      <trkpt lat="43.53591" lon="6.35053">
        <ele>326.504883</ele>
        <time>2012-12-09T14:16:54Z</time>
      </trkpt>
      <trkpt lat="43.53602" lon="6.35078">
        <ele>324.582275</ele>
        <time>2012-12-09T14:17:09Z</time>
      </trkpt>
      <trkpt lat="43.53613" lon="6.35102">
        <ele>322.659668</ele>
        <time>2012-12-09T14:17:29Z</time>
      </trkpt>
      <trkpt lat="43.53629" lon="6.35121">
        <ele>320.737061</ele>
        <time>2012-12-09T14:17:49Z</time>
      </trkpt>
      <trkpt lat="43.53641" lon="6.35133">
        <ele>319.295044</ele>
        <time>2012-12-09T14:18:07Z</time>
      </trkpt>
      <trkpt lat="43.53659" lon="6.35146">
        <ele>317.853027</ele>
        <time>2012-12-09T14:18:26Z</time>
      </trkpt>
      <trkpt lat="43.53677" lon="6.35167">
        <ele>316.411011</ele>
        <time>2012-12-09T14:18:49Z</time>
      </trkpt>
      <trkpt lat="43.53693" lon="6.35185">
        <ele>315.93042</ele>
        <time>2012-12-09T14:19:09Z</time>
      </trkpt>
      <trkpt lat="43.53695" lon="6.35187">
        <ele>315.93042</ele>
        <time>2012-12-09T14:19:11Z</time>
      </trkpt>
      <trkpt lat="43.53705" lon="6.35207">
        <ele>314.969116</ele>
        <time>2012-12-09T14:19:28Z</time>
      </trkpt>
      <trkpt lat="43.5372" lon="6.35227">
        <ele>313.046509</ele>
        <time>2012-12-09T14:19:51Z</time>
      </trkpt>
      <trkpt lat="43.53729" lon="6.35248">
        <ele>310.162476</ele>
        <time>2012-12-09T14:20:11Z</time>
      </trkpt>
      <trkpt lat="43.53738" lon="6.3527">
        <ele>306.797852</ele>
        <time>2012-12-09T14:20:31Z</time>
      </trkpt>
      <trkpt lat="43.53741" lon="6.35284">
        <ele>303.91394</ele>
        <time>2012-12-09T14:20:53Z</time>
      </trkpt>
      <trkpt lat="43.53729" lon="6.35301">
        <ele>301.991333</ele>
        <time>2012-12-09T14:21:11Z</time>
      </trkpt>
      <trkpt lat="43.53714" lon="6.35311">
        <ele>301.029907</ele>
        <time>2012-12-09T14:21:32Z</time>
      </trkpt>
      <trkpt lat="43.53712" lon="6.35329">
        <ele>300.549316</ele>
        <time>2012-12-09T14:21:52Z</time>
      </trkpt>
      <trkpt lat="43.53708" lon="6.35339">
        <ele>300.068726</ele>
        <time>2012-12-09T14:22:24Z</time>
      </trkpt>
      <trkpt lat="43.53694" lon="6.35331">
        <ele>300.068726</ele>
        <time>2012-12-09T14:22:44Z</time>
      </trkpt>
      <trkpt lat="43.53676" lon="6.35319">
        <ele>301.029907</ele>
        <time>2012-12-09T14:23:05Z</time>
      </trkpt>
      <trkpt lat="43.53668" lon="6.35325">
        <ele>301.51062</ele>
        <time>2012-12-09T14:23:15Z</time>
      </trkpt>
      <trkpt lat="43.53651" lon="6.35328">
        <ele>301.991333</ele>
        <time>2012-12-09T14:23:32Z</time>
      </trkpt>
      <trkpt lat="43.53635" lon="6.35336">
        <ele>301.991333</ele>
        <time>2012-12-09T14:23:47Z</time>
      </trkpt>
      <trkpt lat="43.53616" lon="6.35338">
        <ele>301.991333</ele>
        <time>2012-12-09T14:24:03Z</time>
      </trkpt>
      <trkpt lat="43.53596" lon="6.35338">
        <ele>302.471924</ele>
        <time>2012-12-09T14:24:24Z</time>
      </trkpt>
      <trkpt lat="43.5358" lon="6.35342">
        <ele>302.471924</ele>
        <time>2012-12-09T14:24:42Z</time>
      </trkpt>
      <trkpt lat="43.53571" lon="6.35337">
        <ele>302.471924</ele>
        <time>2012-12-09T14:25:06Z</time>
      </trkpt>
      <trkpt lat="43.53549" lon="6.35327">
        <ele>303.91394</ele>
        <time>2012-12-09T14:25:28Z</time>
      </trkpt>
      <trkpt lat="43.53543" lon="6.35322">
        <ele>303.91394</ele>
        <time>2012-12-09T14:25:34Z</time>
      </trkpt>
      <trkpt lat="43.53538" lon="6.3532">
        <ele>303.91394</ele>
        <time>2012-12-09T14:25:38Z</time>
      </trkpt>
      <trkpt lat="43.53535" lon="6.35319">
        <ele>304.394653</ele>
        <time>2012-12-09T14:25:41Z</time>
      </trkpt>
      <trkpt lat="43.5353" lon="6.35313">
        <ele>304.394653</ele>
        <time>2012-12-09T14:25:45Z</time>
      </trkpt>
      <trkpt lat="43.53511" lon="6.35305">
        <ele>305.355957</ele>
        <time>2012-12-09T14:26:03Z</time>
      </trkpt>
      <trkpt lat="43.53495" lon="6.3529">
        <ele>306.317261</ele>
        <time>2012-12-09T14:26:20Z</time>
      </trkpt>
      <trkpt lat="43.53473" lon="6.3528">
        <ele>307.759277</ele>
        <time>2012-12-09T14:26:43Z</time>
      </trkpt>
      <trkpt lat="43.53455" lon="6.35267">
        <ele>310.162476</ele>
        <time>2012-12-09T14:27:06Z</time>
      </trkpt>
      <trkpt lat="43.53441" lon="6.35256">
        <ele>311.604492</ele>
        <time>2012-12-09T14:27:25Z</time>
      </trkpt>
      <trkpt lat="43.5343" lon="6.35236">
        <ele>312.565796</ele>
        <time>2012-12-09T14:27:45Z</time>
      </trkpt>
      <trkpt lat="43.53416" lon="6.35218">
        <ele>314.007813</ele>
        <time>2012-12-09T14:28:07Z</time>
      </trkpt>
      <trkpt lat="43.53399" lon="6.35194">
        <ele>314.007813</ele>
        <time>2012-12-09T14:28:27Z</time>
      </trkpt>
      <trkpt lat="43.53381" lon="6.35178">
        <ele>314.969116</ele>
        <time>2012-12-09T14:28:47Z</time>
      </trkpt>
      <trkpt lat="43.53353" lon="6.35167">
        <ele>314.969116</ele>
        <time>2012-12-09T14:29:08Z</time>
      </trkpt>
      <trkpt lat="43.53332" lon="6.35157">
        <ele>314.969116</ele>
        <time>2012-12-09T14:29:28Z</time>
      </trkpt>
      <trkpt lat="43.53314" lon="6.35146">
        <ele>314.488403</ele>
        <time>2012-12-09T14:29:45Z</time>
      </trkpt>
      <trkpt lat="43.53292" lon="6.35142">
        <ele>313.046509</ele>
        <time>2012-12-09T14:30:06Z</time>
      </trkpt>
      <trkpt lat="43.5328" lon="6.35145">
        <ele>311.604492</ele>
        <time>2012-12-09T14:30:16Z</time>
      </trkpt>
      <trkpt lat="43.53275" lon="6.35145">
        <ele>311.604492</ele>
        <time>2012-12-09T14:30:19Z</time>
      </trkpt>
      <trkpt lat="43.53265" lon="6.35133">
        <ele>311.123779</ele>
        <time>2012-12-09T14:30:30Z</time>
      </trkpt>
      <trkpt lat="43.53256" lon="6.3512">
        <ele>311.123779</ele>
        <time>2012-12-09T14:30:43Z</time>
      </trkpt>
      <trkpt lat="43.53245" lon="6.35111">
        <ele>310.643066</ele>
        <time>2012-12-09T14:30:57Z</time>
      </trkpt>
      <trkpt lat="43.53226" lon="6.35099">
        <ele>310.162476</ele>
        <time>2012-12-09T14:31:15Z</time>
      </trkpt>
      <trkpt lat="43.53214" lon="6.35087">
        <ele>309.681885</ele>
        <time>2012-12-09T14:31:27Z</time>
      </trkpt>
      <trkpt lat="43.53204" lon="6.3507">
        <ele>309.201172</ele>
        <time>2012-12-09T14:31:41Z</time>
      </trkpt>
      <trkpt lat="43.53195" lon="6.35057">
        <ele>308.720459</ele>
        <time>2012-12-09T14:31:53Z</time>
      </trkpt>
      <trkpt lat="43.53195" lon="6.35054">
        <ele>308.720459</ele>
        <time>2012-12-09T14:31:55Z</time>
      </trkpt>
      <trkpt lat="43.53193" lon="6.35046">
        <ele>305.355957</ele>
        <time>2012-12-09T14:32:00Z</time>
      </trkpt>
      <trkpt lat="43.53179" lon="6.35027">
        <ele>308.239868</ele>
        <time>2012-12-09T14:32:15Z</time>
      </trkpt>
      <trkpt lat="43.53172" lon="6.3502">
        <ele>307.759277</ele>
        <time>2012-12-09T14:32:23Z</time>
      </trkpt>
      <trkpt lat="43.53164" lon="6.35009">
        <ele>307.278564</ele>
        <time>2012-12-09T14:32:31Z</time>
      </trkpt>
      <trkpt lat="43.53154" lon="6.3499">
        <ele>306.797852</ele>
        <time>2012-12-09T14:32:46Z</time>
      </trkpt>
      <trkpt lat="43.53146" lon="6.34974">
        <ele>306.317261</ele>
        <time>2012-12-09T14:33:00Z</time>
      </trkpt>
      <trkpt lat="43.5313" lon="6.34952">
        <ele>304.875244</ele>
        <time>2012-12-09T14:33:16Z</time>
      </trkpt>
      <trkpt lat="43.53128" lon="6.3495">
        <ele>304.875244</ele>
        <time>2012-12-09T14:33:18Z</time>
      </trkpt>
      <trkpt lat="43.53113" lon="6.34939">
        <ele>304.875244</ele>
        <time>2012-12-09T14:33:32Z</time>
      </trkpt>
      <trkpt lat="43.53111" lon="6.34934">
        <ele>304.875244</ele>
        <time>2012-12-09T14:33:35Z</time>
      </trkpt>
      <trkpt lat="43.53106" lon="6.34928">
        <ele>304.394653</ele>
        <time>2012-12-09T14:33:40Z</time>
      </trkpt>
      <trkpt lat="43.53099" lon="6.34917">
        <ele>304.394653</ele>
        <time>2012-12-09T14:33:48Z</time>
      </trkpt>
      <trkpt lat="43.53098" lon="6.34895">
        <ele>304.394653</ele>
        <time>2012-12-09T14:34:02Z</time>
      </trkpt>
      <trkpt lat="43.53097" lon="6.34893">
        <ele>304.394653</ele>
        <time>2012-12-09T14:34:04Z</time>
      </trkpt>
      <trkpt lat="43.53083" lon="6.34874">
        <ele>303.433228</ele>
        <time>2012-12-09T14:34:17Z</time>
      </trkpt>
      <trkpt lat="43.53067" lon="6.34863">
        <ele>303.91394</ele>
        <time>2012-12-09T14:34:31Z</time>
      </trkpt>
      <trkpt lat="43.53065" lon="6.34864">
        <ele>304.394653</ele>
        <time>2012-12-09T14:34:33Z</time>
      </trkpt>
      <trkpt lat="43.53057" lon="6.34862">
        <ele>304.394653</ele>
        <time>2012-12-09T14:34:40Z</time>
      </trkpt>
      <trkpt lat="43.5304" lon="6.34871">
        <ele>305.355957</ele>
        <time>2012-12-09T14:34:55Z</time>
      </trkpt>
      <trkpt lat="43.53035" lon="6.3487">
        <ele>305.355957</ele>
        <time>2012-12-09T14:34:59Z</time>
      </trkpt>
      <trkpt lat="43.53025" lon="6.34876">
        <ele>305.355957</ele>
        <time>2012-12-09T14:35:08Z</time>
      </trkpt>
      <trkpt lat="43.53021" lon="6.34879">
        <ele>305.83667</ele>
        <time>2012-12-09T14:35:12Z</time>
      </trkpt>
      <trkpt lat="43.53" lon="6.3489">
        <ele>305.83667</ele>
        <time>2012-12-09T14:35:27Z</time>
      </trkpt>
      <trkpt lat="43.52988" lon="6.34899">
        <ele>305.83667</ele>
        <time>2012-12-09T14:35:40Z</time>
      </trkpt>
      <trkpt lat="43.52978" lon="6.34909">
        <ele>305.83667</ele>
        <time>2012-12-09T14:35:50Z</time>
      </trkpt>
      <trkpt lat="43.5296" lon="6.34914">
        <ele>305.83667</ele>
        <time>2012-12-09T14:36:05Z</time>
      </trkpt>
      <trkpt lat="43.52952" lon="6.34921">
        <ele>306.317261</ele>
        <time>2012-12-09T14:36:12Z</time>
      </trkpt>
      <trkpt lat="43.52934" lon="6.34932">
        <ele>305.83667</ele>
        <time>2012-12-09T14:36:28Z</time>
      </trkpt>
      <trkpt lat="43.52919" lon="6.34928">
        <ele>305.355957</ele>
        <time>2012-12-09T14:36:41Z</time>
      </trkpt>
      <trkpt lat="43.52916" lon="6.34927">
        <ele>305.355957</ele>
        <time>2012-12-09T14:37:12Z</time>
      </trkpt>
      <trkpt lat="43.52906" lon="6.34924">
        <ele>304.875244</ele>
        <time>2012-12-09T14:37:29Z</time>
      </trkpt>
      <trkpt lat="43.52883" lon="6.34921">
        <ele>305.355957</ele>
        <time>2012-12-09T14:37:49Z</time>
      </trkpt>
      <trkpt lat="43.52863" lon="6.34918">
        <ele>305.355957</ele>
        <time>2012-12-09T14:38:11Z</time>
      </trkpt>
      <trkpt lat="43.52843" lon="6.34917">
        <ele>304.875244</ele>
        <time>2012-12-09T14:38:29Z</time>
      </trkpt>
      <trkpt lat="43.52829" lon="6.34922">
        <ele>305.83667</ele>
        <time>2012-12-09T14:38:41Z</time>
      </trkpt>
      <trkpt lat="43.5281" lon="6.34924">
        <ele>305.83667</ele>
        <time>2012-12-09T14:38:57Z</time>
      </trkpt>
      <trkpt lat="43.52791" lon="6.34932">
        <ele>304.875244</ele>
        <time>2012-12-09T14:39:13Z</time>
      </trkpt>
      <trkpt lat="43.5278" lon="6.34928">
        <ele>304.875244</ele>
        <time>2012-12-09T14:39:24Z</time>
      </trkpt>
      <trkpt lat="43.52779" lon="6.34927">
        <ele>304.875244</ele>
        <time>2012-12-09T14:39:25Z</time>
      </trkpt>
      <trkpt lat="43.52775" lon="6.34914">
        <ele>305.355957</ele>
        <time>2012-12-09T14:39:33Z</time>
      </trkpt>
      <trkpt lat="43.52773" lon="6.34905">
        <ele>305.355957</ele>
        <time>2012-12-09T14:39:38Z</time>
      </trkpt>
      <trkpt lat="43.52769" lon="6.34882">
        <ele>305.355957</ele>
        <time>2012-12-09T14:39:51Z</time>
      </trkpt>
      <trkpt lat="43.52768" lon="6.34859">
        <ele>304.394653</ele>
        <time>2012-12-09T14:40:06Z</time>
      </trkpt>
      <trkpt lat="43.52767" lon="6.34843">
        <ele>304.394653</ele>
        <time>2012-12-09T14:40:15Z</time>
      </trkpt>
      <trkpt lat="43.52759" lon="6.34821">
        <ele>304.394653</ele>
        <time>2012-12-09T14:40:30Z</time>
      </trkpt>
      <trkpt lat="43.52748" lon="6.34803">
        <ele>303.91394</ele>
        <time>2012-12-09T14:40:43Z</time>
      </trkpt>
      <trkpt lat="43.52733" lon="6.3478">
        <ele>304.394653</ele>
        <time>2012-12-09T14:41:00Z</time>
      </trkpt>
      <trkpt lat="43.52723" lon="6.34761">
        <ele>303.91394</ele>
        <time>2012-12-09T14:41:14Z</time>
      </trkpt>
      <trkpt lat="43.52713" lon="6.34734">
        <ele>302.952515</ele>
        <time>2012-12-09T14:41:31Z</time>
      </trkpt>
      <trkpt lat="43.52698" lon="6.34717">
        <ele>301.029907</ele>
        <time>2012-12-09T14:41:47Z</time>
      </trkpt>
      <trkpt lat="43.52687" lon="6.34699">
        <ele>298.626709</ele>
        <time>2012-12-09T14:42:01Z</time>
      </trkpt>
      <trkpt lat="43.52682" lon="6.34677">
        <ele>297.184692</ele>
        <time>2012-12-09T14:42:16Z</time>
      </trkpt>
      <trkpt lat="43.52682" lon="6.34659">
        <ele>297.184692</ele>
        <time>2012-12-09T14:42:28Z</time>
      </trkpt>
      <trkpt lat="43.52674" lon="6.34637">
        <ele>297.184692</ele>
        <time>2012-12-09T14:42:43Z</time>
      </trkpt>
      <trkpt lat="43.52667" lon="6.34631">
        <ele>297.184692</ele>
        <time>2012-12-09T14:42:50Z</time>
      </trkpt>
      <trkpt lat="43.52665" lon="6.34631">
        <ele>297.665405</ele>
        <time>2012-12-09T14:42:52Z</time>
      </trkpt>
      <trkpt lat="43.52649" lon="6.34638">
        <ele>299.588013</ele>
        <time>2012-12-09T14:43:08Z</time>
      </trkpt>
      <trkpt lat="43.52647" lon="6.34639">
        <ele>300.068726</ele>
        <time>2012-12-09T14:43:10Z</time>
      </trkpt>
      <trkpt lat="43.52637" lon="6.34642">
        <ele>301.991333</ele>
        <time>2012-12-09T14:43:20Z</time>
      </trkpt>
      <trkpt lat="43.52621" lon="6.34645">
        <ele>303.433228</ele>
        <time>2012-12-09T14:43:34Z</time>
      </trkpt>
      <trkpt lat="43.52618" lon="6.34646">
        <ele>303.433228</ele>
        <time>2012-12-09T14:43:37Z</time>
      </trkpt>
      <trkpt lat="43.52616" lon="6.34646">
        <ele>303.433228</ele>
        <time>2012-12-09T14:43:40Z</time>
      </trkpt>
      <trkpt lat="43.52613" lon="6.34648">
        <ele>303.91394</ele>
        <time>2012-12-09T14:43:43Z</time>
      </trkpt>
      <trkpt lat="43.52605" lon="6.34646">
        <ele>304.875244</ele>
        <time>2012-12-09T14:43:50Z</time>
      </trkpt>
      <trkpt lat="43.52599" lon="6.34646">
        <ele>305.83667</ele>
        <time>2012-12-09T14:43:56Z</time>
      </trkpt>
      <trkpt lat="43.52581" lon="6.34645">
        <ele>307.759277</ele>
        <time>2012-12-09T14:44:13Z</time>
      </trkpt>
      <trkpt lat="43.52568" lon="6.34641">
        <ele>309.201172</ele>
        <time>2012-12-09T14:44:26Z</time>
      </trkpt>
      <trkpt lat="43.52544" lon="6.34631">
        <ele>311.123779</ele>
        <time>2012-12-09T14:44:46Z</time>
      </trkpt>
      <trkpt lat="43.52529" lon="6.34623">
        <ele>312.565796</ele>
        <time>2012-12-09T14:45:01Z</time>
      </trkpt>
      <trkpt lat="43.52513" lon="6.34616">
        <ele>311.604492</ele>
        <time>2012-12-09T14:45:20Z</time>
      </trkpt>
      <trkpt lat="43.52507" lon="6.34614">
        <ele>311.123779</ele>
        <time>2012-12-09T14:45:38Z</time>
      </trkpt>
      <trkpt lat="43.52511" lon="6.34617">
        <ele>311.123779</ele>
        <time>2012-12-09T14:46:02Z</time>
      </trkpt>
      <trkpt lat="43.5251" lon="6.34615">
        <ele>311.604492</ele>
        <time>2012-12-09T14:46:22Z</time>
      </trkpt>
      <trkpt lat="43.52507" lon="6.34622">
        <ele>311.123779</ele>
        <time>2012-12-09T14:46:42Z</time>
      </trkpt>
      <trkpt lat="43.52505" lon="6.34626">
        <ele>311.123779</ele>
        <time>2012-12-09T14:49:02Z</time>
      </trkpt>
      <trkpt lat="43.52487" lon="6.34632">
        <ele>310.162476</ele>
        <time>2012-12-09T14:49:18Z</time>
      </trkpt>
      <trkpt lat="43.52474" lon="6.34644">
        <ele>309.681885</ele>
        <time>2012-12-09T14:49:31Z</time>
      </trkpt>
      <trkpt lat="43.52465" lon="6.3465">
        <ele>309.201172</ele>
        <time>2012-12-09T14:49:39Z</time>
      </trkpt>
      <trkpt lat="43.52458" lon="6.34652">
        <ele>308.720459</ele>
        <time>2012-12-09T14:49:45Z</time>
      </trkpt>
      <trkpt lat="43.52445" lon="6.3465">
        <ele>310.162476</ele>
        <time>2012-12-09T14:49:58Z</time>
      </trkpt>
      <trkpt lat="43.52429" lon="6.34647">
        <ele>311.123779</ele>
        <time>2012-12-09T14:50:14Z</time>
      </trkpt>
      <trkpt lat="43.52415" lon="6.34638">
        <ele>312.565796</ele>
        <time>2012-12-09T14:50:29Z</time>
      </trkpt>
      <trkpt lat="43.52402" lon="6.3463">
        <ele>312.565796</ele>
        <time>2012-12-09T14:50:41Z</time>
      </trkpt>
      <trkpt lat="43.52391" lon="6.34624">
        <ele>313.046509</ele>
        <time>2012-12-09T14:50:52Z</time>
      </trkpt>
      <trkpt lat="43.5237" lon="6.34612">
        <ele>313.046509</ele>
        <time>2012-12-09T14:51:10Z</time>
      </trkpt>
      <trkpt lat="43.52347" lon="6.34594">
        <ele>313.527222</ele>
        <time>2012-12-09T14:51:30Z</time>
      </trkpt>
      <trkpt lat="43.52328" lon="6.34588">
        <ele>312.565796</ele>
        <time>2012-12-09T14:51:48Z</time>
      </trkpt>
      <trkpt lat="43.52317" lon="6.34584">
        <ele>312.085205</ele>
        <time>2012-12-09T14:51:58Z</time>
      </trkpt>
      <trkpt lat="43.52301" lon="6.34568">
        <ele>312.085205</ele>
        <time>2012-12-09T14:52:16Z</time>
      </trkpt>
      <trkpt lat="43.52284" lon="6.34553">
        <ele>312.085205</ele>
        <time>2012-12-09T14:52:37Z</time>
      </trkpt>
      <trkpt lat="43.52262" lon="6.34534">
        <ele>312.085205</ele>
        <time>2012-12-09T14:52:56Z</time>
      </trkpt>
      <trkpt lat="43.52251" lon="6.34513">
        <ele>313.046509</ele>
        <time>2012-12-09T14:53:14Z</time>
      </trkpt>
      <trkpt lat="43.52241" lon="6.34478">
        <ele>314.488403</ele>
        <time>2012-12-09T14:53:35Z</time>
      </trkpt>
      <trkpt lat="43.52246" lon="6.3445">
        <ele>316.891724</ele>
        <time>2012-12-09T14:53:54Z</time>
      </trkpt>
      <trkpt lat="43.52246" lon="6.3442">
        <ele>318.333618</ele>
        <time>2012-12-09T14:54:10Z</time>
      </trkpt>
      <trkpt lat="43.52251" lon="6.34392">
        <ele>320.256348</ele>
        <time>2012-12-09T14:54:29Z</time>
      </trkpt>
      <trkpt lat="43.52251" lon="6.34379">
        <ele>320.737061</ele>
        <time>2012-12-09T14:54:47Z</time>
      </trkpt>
      <trkpt lat="43.52238" lon="6.34369">
        <ele>320.256348</ele>
        <time>2012-12-09T14:55:22Z</time>
      </trkpt>
      <trkpt lat="43.52235" lon="6.3436">
        <ele>320.256348</ele>
        <time>2012-12-09T14:55:46Z</time>
      </trkpt>
      <trkpt lat="43.52216" lon="6.34351">
        <ele>318.814331</ele>
        <time>2012-12-09T14:56:11Z</time>
      </trkpt>
      <trkpt lat="43.522" lon="6.34334">
        <ele>317.853027</ele>
        <time>2012-12-09T14:56:32Z</time>
      </trkpt>
      <trkpt lat="43.52181" lon="6.34326">
        <ele>316.891724</ele>
        <time>2012-12-09T14:56:48Z</time>
      </trkpt>
      <trkpt lat="43.52154" lon="6.3431">
        <ele>315.449829</ele>
        <time>2012-12-09T14:57:09Z</time>
      </trkpt>
      <trkpt lat="43.52141" lon="6.34292">
        <ele>313.527222</ele>
        <time>2012-12-09T14:57:26Z</time>
      </trkpt>
      <trkpt lat="43.52117" lon="6.34275">
        <ele>312.085205</ele>
        <time>2012-12-09T14:57:46Z</time>
      </trkpt>
      <trkpt lat="43.52098" lon="6.34261">
        <ele>309.681885</ele>
        <time>2012-12-09T14:58:04Z</time>
      </trkpt>
      <trkpt lat="43.52077" lon="6.34245">
        <ele>307.759277</ele>
        <time>2012-12-09T14:58:25Z</time>
      </trkpt>
      <trkpt lat="43.52061" lon="6.34229">
        <ele>307.278564</ele>
        <time>2012-12-09T14:58:39Z</time>
      </trkpt>
      <trkpt lat="43.52034" lon="6.34212">
        <ele>308.239868</ele>
        <time>2012-12-09T14:59:00Z</time>
      </trkpt>
      <trkpt lat="43.52029" lon="6.34211">
        <ele>308.720459</ele>
        <time>2012-12-09T14:59:04Z</time>
      </trkpt>
      <trkpt lat="43.52021" lon="6.34219">
        <ele>309.681885</ele>
        <time>2012-12-09T14:59:14Z</time>
      </trkpt>
      <trkpt lat="43.52014" lon="6.34227">
        <ele>310.643066</ele>
        <time>2012-12-09T14:59:20Z</time>
      </trkpt>
      <trkpt lat="43.52003" lon="6.34238">
        <ele>312.085205</ele>
        <time>2012-12-09T14:59:35Z</time>
      </trkpt>
      <trkpt lat="43.51976" lon="6.34256">
        <ele>312.565796</ele>
        <time>2012-12-09T14:59:56Z</time>
      </trkpt>
      <trkpt lat="43.51977" lon="6.34256">
        <ele>313.046509</ele>
        <time>2012-12-09T15:00:27Z</time>
      </trkpt>
      <trkpt lat="43.51988" lon="6.34266">
        <ele>312.565796</ele>
        <time>2012-12-09T15:01:37Z</time>
      </trkpt>
      <trkpt lat="43.52002" lon="6.34279">
        <ele>311.604492</ele>
        <time>2012-12-09T15:01:56Z</time>
      </trkpt>
      <trkpt lat="43.52005" lon="6.34287">
        <ele>311.123779</ele>
        <time>2012-12-09T15:02:01Z</time>
      </trkpt>
      <trkpt lat="43.52011" lon="6.34308">
        <ele>311.123779</ele>
        <time>2012-12-09T15:02:15Z</time>
      </trkpt>
      <trkpt lat="43.52014" lon="6.34325">
        <ele>310.643066</ele>
        <time>2012-12-09T15:02:29Z</time>
      </trkpt>
      <trkpt lat="43.52011" lon="6.34352">
        <ele>309.201172</ele>
        <time>2012-12-09T15:02:49Z</time>
      </trkpt>
      <trkpt lat="43.52004" lon="6.34372">
        <ele>307.759277</ele>
        <time>2012-12-09T15:03:05Z</time>
      </trkpt>
      <trkpt lat="43.51999" lon="6.34386">
        <ele>306.317261</ele>
        <time>2012-12-09T15:03:16Z</time>
      </trkpt>
      <trkpt lat="43.51994" lon="6.34413">
        <ele>305.83667</ele>
        <time>2012-12-09T15:03:30Z</time>
      </trkpt>
      <trkpt lat="43.51989" lon="6.34427">
        <ele>305.83667</ele>
        <time>2012-12-09T15:03:38Z</time>
      </trkpt>
      <trkpt lat="43.51983" lon="6.34447">
        <ele>305.355957</ele>
        <time>2012-12-09T15:03:51Z</time>
      </trkpt>
      <trkpt lat="43.51983" lon="6.34448">
        <ele>305.355957</ele>
        <time>2012-12-09T15:03:52Z</time>
      </trkpt>
      <trkpt lat="43.51977" lon="6.34463">
        <ele>305.355957</ele>
        <time>2012-12-09T15:04:01Z</time>
      </trkpt>
      <trkpt lat="43.51978" lon="6.34477">
        <ele>305.83667</ele>
        <time>2012-12-09T15:04:10Z</time>
      </trkpt>
      <trkpt lat="43.51979" lon="6.34484">
        <ele>305.83667</ele>
        <time>2012-12-09T15:04:16Z</time>
      </trkpt>
      <trkpt lat="43.51995" lon="6.34503">
        <ele>306.317261</ele>
        <time>2012-12-09T15:04:35Z</time>
      </trkpt>
      <trkpt lat="43.52013" lon="6.34531">
        <ele>308.239868</ele>
        <time>2012-12-09T15:04:54Z</time>
      </trkpt>
      <trkpt lat="43.52016" lon="6.34532">
        <ele>308.239868</ele>
        <time>2012-12-09T15:04:56Z</time>
      </trkpt>
      <trkpt lat="43.5203" lon="6.34546">
        <ele>308.720459</ele>
        <time>2012-12-09T15:05:09Z</time>
      </trkpt>
      <trkpt lat="43.52038" lon="6.34548">
        <ele>308.720459</ele>
        <time>2012-12-09T15:05:17Z</time>
      </trkpt>
      <trkpt lat="43.52064" lon="6.34547">
        <ele>310.643066</ele>
        <time>2012-12-09T15:05:35Z</time>
      </trkpt>
      <trkpt lat="43.52073" lon="6.34547">
        <ele>311.123779</ele>
        <time>2012-12-09T15:05:43Z</time>
      </trkpt>
      <trkpt lat="43.52084" lon="6.34546">
        <ele>311.123779</ele>
        <time>2012-12-09T15:05:52Z</time>
      </trkpt>
      <trkpt lat="43.52091" lon="6.3455">
        <ele>311.604492</ele>
        <time>2012-12-09T15:05:57Z</time>
      </trkpt>
      <trkpt lat="43.52105" lon="6.34553">
        <ele>313.046509</ele>
        <time>2012-12-09T15:06:11Z</time>
      </trkpt>
      <trkpt lat="43.52113" lon="6.34571">
        <ele>314.969116</ele>
        <time>2012-12-09T15:06:29Z</time>
      </trkpt>
      <trkpt lat="43.52115" lon="6.34579">
        <ele>315.93042</ele>
        <time>2012-12-09T15:06:34Z</time>
      </trkpt>
      <trkpt lat="43.5211" lon="6.34613">
        <ele>318.333618</ele>
        <time>2012-12-09T15:06:57Z</time>
      </trkpt>
      <trkpt lat="43.52107" lon="6.34616">
        <ele>319.295044</ele>
        <time>2012-12-09T15:07:01Z</time>
      </trkpt>
      <trkpt lat="43.52093" lon="6.3463">
        <ele>320.256348</ele>
        <time>2012-12-09T15:07:18Z</time>
      </trkpt>
      <trkpt lat="43.5208" lon="6.34649">
        <ele>321.217773</ele>
        <time>2012-12-09T15:07:36Z</time>
      </trkpt>
      <trkpt lat="43.52078" lon="6.3465">
        <ele>321.217773</ele>
        <time>2012-12-09T15:07:38Z</time>
      </trkpt>
      <trkpt lat="43.52052" lon="6.34668">
        <ele>321.698364</ele>
        <time>2012-12-09T15:08:03Z</time>
      </trkpt>
      <trkpt lat="43.52043" lon="6.34703">
        <ele>325.062988</ele>
        <time>2012-12-09T15:08:25Z</time>
      </trkpt>
      <trkpt lat="43.52032" lon="6.3475">
        <ele>326.985596</ele>
        <time>2012-12-09T15:08:50Z</time>
      </trkpt>
      <trkpt lat="43.52022" lon="6.34771">
        <ele>327.946777</ele>
        <time>2012-12-09T15:09:11Z</time>
      </trkpt>
      <trkpt lat="43.52007" lon="6.34807">
        <ele>329.388916</ele>
        <time>2012-12-09T15:09:37Z</time>
      </trkpt>
      <trkpt lat="43.51996" lon="6.3482">
        <ele>329.388916</ele>
        <time>2012-12-09T15:10:00Z</time>
      </trkpt>
      <trkpt lat="43.51982" lon="6.34835">
        <ele>329.869507</ele>
        <time>2012-12-09T15:11:27Z</time>
      </trkpt>
      <trkpt lat="43.51963" lon="6.34855">
        <ele>329.388916</ele>
        <time>2012-12-09T15:11:48Z</time>
      </trkpt>
      <trkpt lat="43.51958" lon="6.34858">
        <ele>328.908325</ele>
        <time>2012-12-09T15:11:53Z</time>
      </trkpt>
      <trkpt lat="43.51945" lon="6.34866">
        <ele>328.908325</ele>
        <time>2012-12-09T15:12:09Z</time>
      </trkpt>
      <trkpt lat="43.51941" lon="6.34891">
        <ele>329.388916</ele>
        <time>2012-12-09T15:12:25Z</time>
      </trkpt>
      <trkpt lat="43.51938" lon="6.34917">
        <ele>328.908325</ele>
        <time>2012-12-09T15:12:40Z</time>
      </trkpt>
      <trkpt lat="43.51932" lon="6.34941">
        <ele>328.908325</ele>
        <time>2012-12-09T15:13:01Z</time>
      </trkpt>
      <trkpt lat="43.51912" lon="6.3496">
        <ele>328.427612</ele>
        <time>2012-12-09T15:13:22Z</time>
      </trkpt>
      <trkpt lat="43.51903" lon="6.34961">
        <ele>328.427612</ele>
        <time>2012-12-09T15:13:41Z</time>
      </trkpt>
      <trkpt lat="43.51903" lon="6.34988">
        <ele>328.427612</ele>
        <time>2012-12-09T15:14:08Z</time>
      </trkpt>
      <trkpt lat="43.51903" lon="6.34989">
        <ele>327.946777</ele>
        <time>2012-12-09T15:14:09Z</time>
      </trkpt>
      <trkpt lat="43.51892" lon="6.35005">
        <ele>327.946777</ele>
        <time>2012-12-09T15:14:29Z</time>
      </trkpt>
      <trkpt lat="43.51893" lon="6.35017">
        <ele>327.946777</ele>
        <time>2012-12-09T15:14:45Z</time>
      </trkpt>
      <trkpt lat="43.51891" lon="6.35046">
        <ele>327.466187</ele>
        <time>2012-12-09T15:15:05Z</time>
      </trkpt>
      <trkpt lat="43.51886" lon="6.35081">
        <ele>326.985596</ele>
        <time>2012-12-09T15:15:25Z</time>
      </trkpt>
      <trkpt lat="43.5189" lon="6.35109">
        <ele>326.985596</ele>
        <time>2012-12-09T15:15:46Z</time>
      </trkpt>
      <trkpt lat="43.51887" lon="6.35125">
        <ele>326.504883</ele>
        <time>2012-12-09T15:15:58Z</time>
      </trkpt>
      <trkpt lat="43.51875" lon="6.35146">
        <ele>325.543579</ele>
        <time>2012-12-09T15:16:13Z</time>
      </trkpt>
      <trkpt lat="43.51864" lon="6.35169">
        <ele>325.062988</ele>
        <time>2012-12-09T15:16:28Z</time>
      </trkpt>
      <trkpt lat="43.51861" lon="6.35172">
        <ele>325.543579</ele>
        <time>2012-12-09T15:16:31Z</time>
      </trkpt>
      <trkpt lat="43.5185" lon="6.35194">
        <ele>325.543579</ele>
        <time>2012-12-09T15:16:46Z</time>
      </trkpt>
      <trkpt lat="43.51839" lon="6.35212">
        <ele>325.543579</ele>
        <time>2012-12-09T15:17:00Z</time>
      </trkpt>
      <trkpt lat="43.51828" lon="6.35232">
        <ele>326.02417</ele>
        <time>2012-12-09T15:17:16Z</time>
      </trkpt>
      <trkpt lat="43.51821" lon="6.35248">
        <ele>326.504883</ele>
        <time>2012-12-09T15:17:30Z</time>
      </trkpt>
      <trkpt lat="43.51811" lon="6.35265">
        <ele>326.985596</ele>
        <time>2012-12-09T15:17:45Z</time>
      </trkpt>
      <trkpt lat="43.51807" lon="6.3528">
        <ele>326.985596</ele>
        <time>2012-12-09T15:17:58Z</time>
      </trkpt>
      <trkpt lat="43.51807" lon="6.35282">
        <ele>326.985596</ele>
        <time>2012-12-09T15:17:59Z</time>
      </trkpt>
      <trkpt lat="43.51801" lon="6.35305">
        <ele>326.985596</ele>
        <time>2012-12-09T15:18:14Z</time>
      </trkpt>
      <trkpt lat="43.51792" lon="6.35328">
        <ele>327.466187</ele>
        <time>2012-12-09T15:18:28Z</time>
      </trkpt>
      <trkpt lat="43.51788" lon="6.35344">
        <ele>327.466187</ele>
        <time>2012-12-09T15:18:39Z</time>
      </trkpt>
      <trkpt lat="43.51786" lon="6.35358">
        <ele>327.466187</ele>
        <time>2012-12-09T15:18:48Z</time>
      </trkpt>
      <trkpt lat="43.51785" lon="6.3536">
        <ele>327.946777</ele>
        <time>2012-12-09T15:18:50Z</time>
      </trkpt>
      <trkpt lat="43.5178" lon="6.35384">
        <ele>327.946777</ele>
        <time>2012-12-09T15:19:04Z</time>
      </trkpt>
      <trkpt lat="43.51778" lon="6.35408">
        <ele>327.946777</ele>
        <time>2012-12-09T15:19:19Z</time>
      </trkpt>
      <trkpt lat="43.51774" lon="6.35429">
        <ele>328.908325</ele>
        <time>2012-12-09T15:19:34Z</time>
      </trkpt>
      <trkpt lat="43.51767" lon="6.35456">
        <ele>329.869507</ele>
        <time>2012-12-09T15:19:51Z</time>
      </trkpt>
      <trkpt lat="43.51763" lon="6.35487">
        <ele>330.35022</ele>
        <time>2012-12-09T15:20:13Z</time>
      </trkpt>
      <trkpt lat="43.51757" lon="6.35523">
        <ele>330.35022</ele>
        <time>2012-12-09T15:20:34Z</time>
      </trkpt>
      <trkpt lat="43.51753" lon="6.3555">
        <ele>330.35022</ele>
        <time>2012-12-09T15:20:50Z</time>
      </trkpt>
      <trkpt lat="43.51753" lon="6.35578">
        <ele>329.869507</ele>
        <time>2012-12-09T15:21:10Z</time>
      </trkpt>
      <trkpt lat="43.51747" lon="6.35589">
        <ele>329.869507</ele>
        <time>2012-12-09T15:21:16Z</time>
      </trkpt>
      <trkpt lat="43.51741" lon="6.35616">
        <ele>329.869507</ele>
        <time>2012-12-09T15:21:32Z</time>
      </trkpt>
      <trkpt lat="43.51736" lon="6.35643">
        <ele>330.35022</ele>
        <time>2012-12-09T15:21:47Z</time>
      </trkpt>
      <trkpt lat="43.51732" lon="6.35675">
        <ele>329.869507</ele>
        <time>2012-12-09T15:22:09Z</time>
      </trkpt>
      <trkpt lat="43.51728" lon="6.35707">
        <ele>328.427612</ele>
        <time>2012-12-09T15:22:30Z</time>
      </trkpt>
      <trkpt lat="43.51725" lon="6.35724">
        <ele>327.946777</ele>
        <time>2012-12-09T15:22:53Z</time>
      </trkpt>
      <trkpt lat="43.51718" lon="6.35744">
        <ele>326.02417</ele>
        <time>2012-12-09T15:24:11Z</time>
      </trkpt>
      <trkpt lat="43.51715" lon="6.3575">
        <ele>326.02417</ele>
        <time>2012-12-09T15:24:21Z</time>
      </trkpt>
      <trkpt lat="43.51697" lon="6.35769">
        <ele>325.062988</ele>
        <time>2012-12-09T15:24:41Z</time>
      </trkpt>
      <trkpt lat="43.51695" lon="6.35773">
        <ele>325.062988</ele>
        <time>2012-12-09T15:24:43Z</time>
      </trkpt>
      <trkpt lat="43.51686" lon="6.35794">
        <ele>323.620972</ele>
        <time>2012-12-09T15:25:03Z</time>
      </trkpt>
      <trkpt lat="43.51681" lon="6.35819">
        <ele>320.737061</ele>
        <time>2012-12-09T15:25:24Z</time>
      </trkpt>
      <trkpt lat="43.51677" lon="6.35843">
        <ele>317.853027</ele>
        <time>2012-12-09T15:25:45Z</time>
      </trkpt>
      <trkpt lat="43.51669" lon="6.35867">
        <ele>315.449829</ele>
        <time>2012-12-09T15:26:06Z</time>
      </trkpt>
      <trkpt lat="43.51652" lon="6.35881">
        <ele>313.046509</ele>
        <time>2012-12-09T15:26:27Z</time>
      </trkpt>
      <trkpt lat="43.5164" lon="6.35901">
        <ele>311.123779</ele>
        <time>2012-12-09T15:26:46Z</time>
      </trkpt>
      <trkpt lat="43.51621" lon="6.35915">
        <ele>309.201172</ele>
        <time>2012-12-09T15:27:06Z</time>
      </trkpt>
      <trkpt lat="43.51613" lon="6.35926">
        <ele>307.759277</ele>
        <time>2012-12-09T15:27:24Z</time>
      </trkpt>
      <trkpt lat="43.51604" lon="6.35954">
        <ele>306.797852</ele>
        <time>2012-12-09T15:27:45Z</time>
      </trkpt>
      <trkpt lat="43.51604" lon="6.35983">
        <ele>306.797852</ele>
        <time>2012-12-09T15:28:05Z</time>
      </trkpt>
      <trkpt lat="43.51601" lon="6.36007">
        <ele>305.355957</ele>
        <time>2012-12-09T15:28:23Z</time>
      </trkpt>
      <trkpt lat="43.51599" lon="6.36031">
        <ele>303.433228</ele>
        <time>2012-12-09T15:28:41Z</time>
      </trkpt>
      <trkpt lat="43.51596" lon="6.36049">
        <ele>301.51062</ele>
        <time>2012-12-09T15:29:00Z</time>
      </trkpt>
      <trkpt lat="43.51591" lon="6.36057">
        <ele>298.146118</ele>
        <time>2012-12-09T15:29:11Z</time>
      </trkpt>
      <trkpt lat="43.5159" lon="6.36081">
        <ele>295.742676</ele>
        <time>2012-12-09T15:29:30Z</time>
      </trkpt>
      <trkpt lat="43.51586" lon="6.36107">
        <ele>293.339355</ele>
        <time>2012-12-09T15:29:47Z</time>
      </trkpt>
      <trkpt lat="43.51582" lon="6.36131">
        <ele>292.378174</ele>
        <time>2012-12-09T15:30:05Z</time>
      </trkpt>
      <trkpt lat="43.51576" lon="6.36162">
        <ele>290.455566</ele>
        <time>2012-12-09T15:30:27Z</time>
      </trkpt>
      <trkpt lat="43.51574" lon="6.36187">
        <ele>289.01355</ele>
        <time>2012-12-09T15:30:46Z</time>
      </trkpt>
      <trkpt lat="43.5157" lon="6.3621">
        <ele>287.09082</ele>
        <time>2012-12-09T15:31:05Z</time>
      </trkpt>
      <trkpt lat="43.51566" lon="6.36232">
        <ele>285.168213</ele>
        <time>2012-12-09T15:31:21Z</time>
      </trkpt>
      <trkpt lat="43.51564" lon="6.36252">
        <ele>282.765015</ele>
        <time>2012-12-09T15:31:40Z</time>
      </trkpt>
      <trkpt lat="43.51561" lon="6.36253">
        <ele>283.245605</ele>
        <time>2012-12-09T15:31:58Z</time>
      </trkpt>
      <trkpt lat="43.51563" lon="6.36249">
        <ele>282.765015</ele>
        <time>2012-12-09T15:33:54Z</time>
      </trkpt>
      <trkpt lat="43.51553" lon="6.36234">
        <ele>282.284302</ele>
        <time>2012-12-09T15:34:32Z</time>
      </trkpt>
      <trkpt lat="43.51551" lon="6.36227">
        <ele>282.284302</ele>
        <time>2012-12-09T15:34:38Z</time>
      </trkpt>
      <trkpt lat="43.51548" lon="6.36202">
        <ele>280.842407</ele>
        <time>2012-12-09T15:34:58Z</time>
      </trkpt>
      <trkpt lat="43.51552" lon="6.36172">
        <ele>280.842407</ele>
        <time>2012-12-09T15:35:19Z</time>
      </trkpt>
      <trkpt lat="43.51536" lon="6.36166">
        <ele>279.400269</ele>
        <time>2012-12-09T15:35:42Z</time>
      </trkpt>
      <trkpt lat="43.51531" lon="6.36178">
        <ele>278.438965</ele>
        <time>2012-12-09T15:35:50Z</time>
      </trkpt>
      <trkpt lat="43.51525" lon="6.36183">
        <ele>277.958252</ele>
        <time>2012-12-09T15:35:54Z</time>
      </trkpt>
      <trkpt lat="43.51501" lon="6.36197">
        <ele>278.438965</ele>
        <time>2012-12-09T15:36:16Z</time>
      </trkpt>
      <trkpt lat="43.5148" lon="6.36211">
        <ele>277.958252</ele>
        <time>2012-12-09T15:36:33Z</time>
      </trkpt>
      <trkpt lat="43.51477" lon="6.36214">
        <ele>278.438965</ele>
        <time>2012-12-09T15:36:35Z</time>
      </trkpt>
      <trkpt lat="43.51461" lon="6.3623">
        <ele>277.477661</ele>
        <time>2012-12-09T15:36:54Z</time>
      </trkpt>
      <trkpt lat="43.51438" lon="6.36246">
        <ele>278.438965</ele>
        <time>2012-12-09T15:37:16Z</time>
      </trkpt>
      <trkpt lat="43.51437" lon="6.36253">
        <ele>277.958252</ele>
        <time>2012-12-09T15:37:20Z</time>
      </trkpt>
      <trkpt lat="43.51432" lon="6.36262">
        <ele>277.958252</ele>
        <time>2012-12-09T15:37:28Z</time>
      </trkpt>
      <trkpt lat="43.51423" lon="6.36281">
        <ele>276.516357</ele>
        <time>2012-12-09T15:37:42Z</time>
      </trkpt>
      <trkpt lat="43.51425" lon="6.36302">
        <ele>275.074463</ele>
        <time>2012-12-09T15:37:55Z</time>
      </trkpt>
      <trkpt lat="43.5143" lon="6.36308">
        <ele>274.59375</ele>
        <time>2012-12-09T15:38:01Z</time>
      </trkpt>
      <trkpt lat="43.5144" lon="6.36326">
        <ele>273.151855</ele>
        <time>2012-12-09T15:38:16Z</time>
      </trkpt>
      <trkpt lat="43.51421" lon="6.3633">
        <ele>271.229126</ele>
        <time>2012-12-09T15:38:37Z</time>
      </trkpt>
      <trkpt lat="43.5141" lon="6.36318">
        <ele>271.709717</ele>
        <time>2012-12-09T15:38:57Z</time>
      </trkpt>
      <trkpt lat="43.51394" lon="6.36303">
        <ele>272.19043</ele>
        <time>2012-12-09T15:39:16Z</time>
      </trkpt>
      <trkpt lat="43.51387" lon="6.363">
        <ele>272.19043</ele>
        <time>2012-12-09T15:39:33Z</time>
      </trkpt>
      <trkpt lat="43.51386" lon="6.36312">
        <ele>268.825806</ele>
        <time>2012-12-09T15:40:11Z</time>
      </trkpt>
      <trkpt lat="43.51378" lon="6.36321">
        <ele>265.461304</ele>
        <time>2012-12-09T15:40:28Z</time>
      </trkpt>
      <trkpt lat="43.51377" lon="6.36321">
        <ele>264.980591</ele>
        <time>2012-12-09T15:40:30Z</time>
      </trkpt>
      <trkpt lat="43.51371" lon="6.3632">
        <ele>262.577148</ele>
        <time>2012-12-09T15:40:46Z</time>
      </trkpt>
      <trkpt lat="43.51364" lon="6.36317">
        <ele>259.693359</ele>
        <time>2012-12-09T15:41:02Z</time>
      </trkpt>
      <trkpt lat="43.51352" lon="6.36303">
        <ele>257.290039</ele>
        <time>2012-12-09T15:41:19Z</time>
      </trkpt>
      <trkpt lat="43.51337" lon="6.36281">
        <ele>255.848022</ele>
        <time>2012-12-09T15:41:38Z</time>
      </trkpt>
      <trkpt lat="43.51331" lon="6.36273">
        <ele>256.328735</ele>
        <time>2012-12-09T15:41:47Z</time>
      </trkpt>
      <trkpt lat="43.5133" lon="6.36269">
        <ele>255.848022</ele>
        <time>2012-12-09T15:41:49Z</time>
      </trkpt>
      <trkpt lat="43.51328" lon="6.36264">
        <ele>255.848022</ele>
        <time>2012-12-09T15:41:52Z</time>
      </trkpt>
      <trkpt lat="43.51317" lon="6.36254">
        <ele>255.36731</ele>
        <time>2012-12-09T15:42:05Z</time>
      </trkpt>
      <trkpt lat="43.51312" lon="6.36255">
        <ele>256.809326</ele>
        <time>2012-12-09T15:42:22Z</time>
      </trkpt>
      <trkpt lat="43.51317" lon="6.36261">
        <ele>255.36731</ele>
        <time>2012-12-09T15:42:51Z</time>
      </trkpt>
      <trkpt lat="43.51317" lon="6.36259">
        <ele>255.848022</ele>
        <time>2012-12-09T15:43:27Z</time>
      </trkpt>
    </trkseg>
  </trk>
</gpx>